<?xml version="1.0" encoding="UTF-8" standalone="no" ?>
<gpx xmlns="http://www.topografix.com/GPX/1/1" xmlns:xsi="http://www.w3.org/2001/XMLSchema-instance" xsi:schemaLocation="http://www.topografix.com/GPX/1/1 http://www.topografix.com/GPX/1/1/gpx.xsd" version="1.1" creator="VisuGPX - https://www.visugpx.com">
  <metadata>
    <name>Col des Tomples complété du tour de Tête grosse</name>
    <desc><![CDATA[1ère traces de la sortie du 2/11/2021, complété de l'tinéraire contournant Tête Grosse par le nord, empruntant la crète des Mèlézes et le chemin de Chabanon au col du Fanget]]></desc>
  </metadata>
  <trk>
    <name><![CDATA[Col des Tomples complété du tour de Tête grosse_1]]></name>
    <extensions>
      <line xmlns="http://www.topografix.com/GPX/gpx_style/0/2">
        <color>0000FF</color>
        <width>4</width>
      </line>
    </extensions>
    <trkseg>
      <trkpt lat="44.34247" lon="6.38079">
        <ele>1230.9</ele>
        <time>2021-11-02T14:33:04Z</time>
      </trkpt>
      <trkpt lat="44.34246" lon="6.3808">
        <ele>1231.2</ele>
        <time>2021-11-02T14:33:10Z</time>
      </trkpt>
      <trkpt lat="44.34246" lon="6.3808">
        <ele>1230.6</ele>
        <time>2021-11-02T14:33:16Z</time>
      </trkpt>
      <trkpt lat="44.34247" lon="6.38074">
        <ele>1228.4</ele>
        <time>2021-11-02T14:33:22Z</time>
      </trkpt>
      <trkpt lat="44.34242" lon="6.38064">
        <ele>1223.8</ele>
        <time>2021-11-02T14:33:27Z</time>
      </trkpt>
      <trkpt lat="44.34224" lon="6.38052">
        <ele>1220.9</ele>
        <time>2021-11-02T14:33:33Z</time>
      </trkpt>
      <trkpt lat="44.34218" lon="6.38023">
        <ele>1218.8</ele>
        <time>2021-11-02T14:33:38Z</time>
      </trkpt>
      <trkpt lat="44.34198" lon="6.38007">
        <ele>1216.9</ele>
        <time>2021-11-02T14:33:43Z</time>
      </trkpt>
      <trkpt lat="44.34184" lon="6.37992">
        <ele>1214.7</ele>
        <time>2021-11-02T14:33:49Z</time>
      </trkpt>
      <trkpt lat="44.34159" lon="6.37987">
        <ele>1212.2</ele>
        <time>2021-11-02T14:33:54Z</time>
      </trkpt>
      <trkpt lat="44.34122" lon="6.38001">
        <ele>1210.4</ele>
        <time>2021-11-02T14:34:00Z</time>
      </trkpt>
      <trkpt lat="44.34092" lon="6.38013">
        <ele>1210.9</ele>
        <time>2021-11-02T14:34:05Z</time>
      </trkpt>
      <trkpt lat="44.34063" lon="6.38021">
        <ele>1210</ele>
        <time>2021-11-02T14:34:10Z</time>
      </trkpt>
      <trkpt lat="44.34032" lon="6.38031">
        <ele>1213.8</ele>
        <time>2021-11-02T14:34:16Z</time>
      </trkpt>
      <trkpt lat="44.34007" lon="6.38019">
        <ele>1214.7</ele>
        <time>2021-11-02T14:34:22Z</time>
      </trkpt>
      <trkpt lat="44.34002" lon="6.37974">
        <ele>1211.1</ele>
        <time>2021-11-02T14:34:28Z</time>
      </trkpt>
      <trkpt lat="44.34016" lon="6.37913">
        <ele>1209.9</ele>
        <time>2021-11-02T14:34:34Z</time>
      </trkpt>
      <trkpt lat="44.34034" lon="6.37849">
        <ele>1209.6</ele>
        <time>2021-11-02T14:34:40Z</time>
      </trkpt>
      <trkpt lat="44.3405" lon="6.37786">
        <ele>1205.4</ele>
        <time>2021-11-02T14:34:46Z</time>
      </trkpt>
      <trkpt lat="44.34065" lon="6.37728">
        <ele>1204.3</ele>
        <time>2021-11-02T14:34:51Z</time>
      </trkpt>
      <trkpt lat="44.34083" lon="6.37654">
        <ele>1201.5</ele>
        <time>2021-11-02T14:34:57Z</time>
      </trkpt>
      <trkpt lat="44.34107" lon="6.37588">
        <ele>1196.2</ele>
        <time>2021-11-02T14:35:03Z</time>
      </trkpt>
      <trkpt lat="44.34116" lon="6.37525">
        <ele>1194.4</ele>
        <time>2021-11-02T14:35:08Z</time>
      </trkpt>
      <trkpt lat="44.3412" lon="6.37445">
        <ele>1193.7</ele>
        <time>2021-11-02T14:35:14Z</time>
      </trkpt>
      <trkpt lat="44.34124" lon="6.37382">
        <ele>1192.5</ele>
        <time>2021-11-02T14:35:19Z</time>
      </trkpt>
      <trkpt lat="44.34131" lon="6.37306">
        <ele>1190</ele>
        <time>2021-11-02T14:35:25Z</time>
      </trkpt>
      <trkpt lat="44.34142" lon="6.37235">
        <ele>1187.4</ele>
        <time>2021-11-02T14:35:31Z</time>
      </trkpt>
      <trkpt lat="44.34167" lon="6.37176">
        <ele>1181.6</ele>
        <time>2021-11-02T14:35:37Z</time>
      </trkpt>
      <trkpt lat="44.34191" lon="6.37126">
        <ele>1180.3</ele>
        <time>2021-11-02T14:35:42Z</time>
      </trkpt>
      <trkpt lat="44.34217" lon="6.3707">
        <ele>1180.8</ele>
        <time>2021-11-02T14:35:47Z</time>
      </trkpt>
      <trkpt lat="44.3425" lon="6.37005">
        <ele>1179.1</ele>
        <time>2021-11-02T14:35:53Z</time>
      </trkpt>
      <trkpt lat="44.34283" lon="6.36943">
        <ele>1178.1</ele>
        <time>2021-11-02T14:35:59Z</time>
      </trkpt>
      <trkpt lat="44.34304" lon="6.36894">
        <ele>1176</ele>
        <time>2021-11-02T14:36:04Z</time>
      </trkpt>
      <trkpt lat="44.34327" lon="6.36836">
        <ele>1173.3</ele>
        <time>2021-11-02T14:36:10Z</time>
      </trkpt>
      <trkpt lat="44.34351" lon="6.36787">
        <ele>1172.7</ele>
        <time>2021-11-02T14:36:15Z</time>
      </trkpt>
      <trkpt lat="44.3438" lon="6.36731">
        <ele>1170.8</ele>
        <time>2021-11-02T14:36:21Z</time>
      </trkpt>
      <trkpt lat="44.34409" lon="6.36675">
        <ele>1170.6</ele>
        <time>2021-11-02T14:36:27Z</time>
      </trkpt>
      <trkpt lat="44.34431" lon="6.36627">
        <ele>1168.4</ele>
        <time>2021-11-02T14:36:32Z</time>
      </trkpt>
      <trkpt lat="44.34458" lon="6.36572">
        <ele>1164</ele>
        <time>2021-11-02T14:36:38Z</time>
      </trkpt>
      <trkpt lat="44.3448" lon="6.36527">
        <ele>1163.1</ele>
        <time>2021-11-02T14:36:43Z</time>
      </trkpt>
      <trkpt lat="44.34504" lon="6.36477">
        <ele>1162.3</ele>
        <time>2021-11-02T14:36:49Z</time>
      </trkpt>
      <trkpt lat="44.34524" lon="6.36436">
        <ele>1161.1</ele>
        <time>2021-11-02T14:36:54Z</time>
      </trkpt>
      <trkpt lat="44.34554" lon="6.36386">
        <ele>1160.6</ele>
        <time>2021-11-02T14:37:00Z</time>
      </trkpt>
      <trkpt lat="44.3458" lon="6.36351">
        <ele>1162.4</ele>
        <time>2021-11-02T14:37:05Z</time>
      </trkpt>
      <trkpt lat="44.34604" lon="6.36316">
        <ele>1161.5</ele>
        <time>2021-11-02T14:37:10Z</time>
      </trkpt>
      <trkpt lat="44.34637" lon="6.3628">
        <ele>1161</ele>
        <time>2021-11-02T14:37:16Z</time>
      </trkpt>
      <trkpt lat="44.3466" lon="6.36247">
        <ele>1158.5</ele>
        <time>2021-11-02T14:37:21Z</time>
      </trkpt>
      <trkpt lat="44.34688" lon="6.36203">
        <ele>1158.9</ele>
        <time>2021-11-02T14:37:27Z</time>
      </trkpt>
      <trkpt lat="44.34712" lon="6.3617">
        <ele>1159.9</ele>
        <time>2021-11-02T14:37:32Z</time>
      </trkpt>
      <trkpt lat="44.34741" lon="6.36131">
        <ele>1157.9</ele>
        <time>2021-11-02T14:37:38Z</time>
      </trkpt>
      <trkpt lat="44.34769" lon="6.36097">
        <ele>1154.5</ele>
        <time>2021-11-02T14:37:44Z</time>
      </trkpt>
      <trkpt lat="44.34788" lon="6.36071">
        <ele>1154.6</ele>
        <time>2021-11-02T14:37:49Z</time>
      </trkpt>
      <trkpt lat="44.34812" lon="6.36043">
        <ele>1157.2</ele>
        <time>2021-11-02T14:37:54Z</time>
      </trkpt>
      <trkpt lat="44.34827" lon="6.36005">
        <ele>1160.3</ele>
        <time>2021-11-02T14:38:00Z</time>
      </trkpt>
      <trkpt lat="44.34835" lon="6.35955">
        <ele>1158.9</ele>
        <time>2021-11-02T14:38:06Z</time>
      </trkpt>
      <trkpt lat="44.34833" lon="6.35918">
        <ele>1158.5</ele>
        <time>2021-11-02T14:38:12Z</time>
      </trkpt>
      <trkpt lat="44.34802" lon="6.35913">
        <ele>1157</ele>
        <time>2021-11-02T14:38:17Z</time>
      </trkpt>
      <trkpt lat="44.34758" lon="6.35921">
        <ele>1153.4</ele>
        <time>2021-11-02T14:38:23Z</time>
      </trkpt>
      <trkpt lat="44.34712" lon="6.3593">
        <ele>1151.7</ele>
        <time>2021-11-02T14:38:29Z</time>
      </trkpt>
      <trkpt lat="44.34677" lon="6.35919">
        <ele>1154.2</ele>
        <time>2021-11-02T14:38:34Z</time>
      </trkpt>
      <trkpt lat="44.34633" lon="6.359">
        <ele>1150.8</ele>
        <time>2021-11-02T14:38:40Z</time>
      </trkpt>
      <trkpt lat="44.346" lon="6.35886">
        <ele>1142.5</ele>
        <time>2021-11-02T14:38:45Z</time>
      </trkpt>
      <trkpt lat="44.34562" lon="6.35887">
        <ele>1143.8</ele>
        <time>2021-11-02T14:38:51Z</time>
      </trkpt>
      <trkpt lat="44.34532" lon="6.35889">
        <ele>1145.6</ele>
        <time>2021-11-02T14:38:56Z</time>
      </trkpt>
      <trkpt lat="44.34496" lon="6.35894">
        <ele>1147.2</ele>
        <time>2021-11-02T14:39:02Z</time>
      </trkpt>
      <trkpt lat="44.34466" lon="6.35897">
        <ele>1146.1</ele>
        <time>2021-11-02T14:39:07Z</time>
      </trkpt>
      <trkpt lat="44.34431" lon="6.35894">
        <ele>1149.2</ele>
        <time>2021-11-02T14:39:13Z</time>
      </trkpt>
      <trkpt lat="44.344" lon="6.35877">
        <ele>1147.5</ele>
        <time>2021-11-02T14:39:19Z</time>
      </trkpt>
      <trkpt lat="44.34361" lon="6.35851">
        <ele>1147.1</ele>
        <time>2021-11-02T14:39:25Z</time>
      </trkpt>
      <trkpt lat="44.34319" lon="6.35836">
        <ele>1147</ele>
        <time>2021-11-02T14:39:31Z</time>
      </trkpt>
      <trkpt lat="44.34283" lon="6.35837">
        <ele>1147.3</ele>
        <time>2021-11-02T14:39:36Z</time>
      </trkpt>
      <trkpt lat="44.34243" lon="6.35845">
        <ele>1146.8</ele>
        <time>2021-11-02T14:39:42Z</time>
      </trkpt>
      <trkpt lat="44.34211" lon="6.35843">
        <ele>1147.4</ele>
        <time>2021-11-02T14:39:47Z</time>
      </trkpt>
      <trkpt lat="44.3417" lon="6.35823">
        <ele>1147.4</ele>
        <time>2021-11-02T14:39:53Z</time>
      </trkpt>
      <trkpt lat="44.34138" lon="6.35804">
        <ele>1145.4</ele>
        <time>2021-11-02T14:39:58Z</time>
      </trkpt>
      <trkpt lat="44.34106" lon="6.35786">
        <ele>1145.2</ele>
        <time>2021-11-02T14:40:03Z</time>
      </trkpt>
      <trkpt lat="44.34068" lon="6.35767">
        <ele>1147.7</ele>
        <time>2021-11-02T14:40:09Z</time>
      </trkpt>
      <trkpt lat="44.34033" lon="6.35743">
        <ele>1145.8</ele>
        <time>2021-11-02T14:40:15Z</time>
      </trkpt>
      <trkpt lat="44.34004" lon="6.35724">
        <ele>1146.9</ele>
        <time>2021-11-02T14:40:20Z</time>
      </trkpt>
      <trkpt lat="44.3397" lon="6.35697">
        <ele>1147.9</ele>
        <time>2021-11-02T14:40:26Z</time>
      </trkpt>
      <trkpt lat="44.33935" lon="6.35673">
        <ele>1147.5</ele>
        <time>2021-11-02T14:40:32Z</time>
      </trkpt>
      <trkpt lat="44.33908" lon="6.35653">
        <ele>1148.9</ele>
        <time>2021-11-02T14:40:37Z</time>
      </trkpt>
      <trkpt lat="44.33879" lon="6.35623">
        <ele>1146.9</ele>
        <time>2021-11-02T14:40:43Z</time>
      </trkpt>
      <trkpt lat="44.33854" lon="6.35594">
        <ele>1146.3</ele>
        <time>2021-11-02T14:40:48Z</time>
      </trkpt>
      <trkpt lat="44.33828" lon="6.35565">
        <ele>1148.8</ele>
        <time>2021-11-02T14:40:54Z</time>
      </trkpt>
      <trkpt lat="44.33797" lon="6.35534">
        <ele>1146.4</ele>
        <time>2021-11-02T14:41:00Z</time>
      </trkpt>
      <trkpt lat="44.33769" lon="6.35505">
        <ele>1146.4</ele>
        <time>2021-11-02T14:41:06Z</time>
      </trkpt>
      <trkpt lat="44.33744" lon="6.35485">
        <ele>1147.1</ele>
        <time>2021-11-02T14:41:11Z</time>
      </trkpt>
      <trkpt lat="44.33716" lon="6.35474">
        <ele>1148.6</ele>
        <time>2021-11-02T14:41:16Z</time>
      </trkpt>
      <trkpt lat="44.33686" lon="6.35456">
        <ele>1151.2</ele>
        <time>2021-11-02T14:41:22Z</time>
      </trkpt>
      <trkpt lat="44.33659" lon="6.35424">
        <ele>1152.2</ele>
        <time>2021-11-02T14:41:28Z</time>
      </trkpt>
      <trkpt lat="44.3364" lon="6.35395">
        <ele>1155.3</ele>
        <time>2021-11-02T14:41:34Z</time>
      </trkpt>
      <trkpt lat="44.33622" lon="6.35366">
        <ele>1153.2</ele>
        <time>2021-11-02T14:41:39Z</time>
      </trkpt>
      <trkpt lat="44.33596" lon="6.35328">
        <ele>1154.1</ele>
        <time>2021-11-02T14:41:45Z</time>
      </trkpt>
      <trkpt lat="44.33573" lon="6.35286">
        <ele>1152.7</ele>
        <time>2021-11-02T14:41:51Z</time>
      </trkpt>
      <trkpt lat="44.33555" lon="6.35249">
        <ele>1154.4</ele>
        <time>2021-11-02T14:41:57Z</time>
      </trkpt>
      <trkpt lat="44.33537" lon="6.35211">
        <ele>1153.1</ele>
        <time>2021-11-02T14:42:03Z</time>
      </trkpt>
      <trkpt lat="44.33519" lon="6.35179">
        <ele>1156.3</ele>
        <time>2021-11-02T14:42:09Z</time>
      </trkpt>
      <trkpt lat="44.33492" lon="6.35172">
        <ele>1157.1</ele>
        <time>2021-11-02T14:42:14Z</time>
      </trkpt>
      <trkpt lat="44.33463" lon="6.35182">
        <ele>1160.7</ele>
        <time>2021-11-02T14:42:20Z</time>
      </trkpt>
      <trkpt lat="44.3344" lon="6.35173">
        <ele>1163.2</ele>
        <time>2021-11-02T14:42:25Z</time>
      </trkpt>
      <trkpt lat="44.33426" lon="6.35167">
        <ele>1165.4</ele>
        <time>2021-11-02T14:42:31Z</time>
      </trkpt>
      <trkpt lat="44.33429" lon="6.35165">
        <ele>1185</ele>
        <time>2021-11-02T14:42:36Z</time>
      </trkpt>
      <trkpt lat="44.33429" lon="6.35164">
        <ele>1178.4</ele>
        <time>2021-11-02T14:42:42Z</time>
      </trkpt>
      <trkpt lat="44.33429" lon="6.35164">
        <ele>1194.7</ele>
        <time>2021-11-02T14:42:47Z</time>
      </trkpt>
      <trkpt lat="44.33429" lon="6.35164">
        <ele>1184.6</ele>
        <time>2021-11-02T14:42:53Z</time>
      </trkpt>
      <trkpt lat="44.33429" lon="6.35164">
        <ele>1177</ele>
        <time>2021-11-02T14:42:58Z</time>
      </trkpt>
      <trkpt lat="44.33429" lon="6.35164">
        <ele>1175.6</ele>
        <time>2021-11-02T14:43:04Z</time>
      </trkpt>
      <trkpt lat="44.33429" lon="6.35164">
        <ele>1173.8</ele>
        <time>2021-11-02T14:43:09Z</time>
      </trkpt>
      <trkpt lat="44.33429" lon="6.35164">
        <ele>1172.6</ele>
        <time>2021-11-02T14:43:15Z</time>
      </trkpt>
      <trkpt lat="44.33429" lon="6.35164">
        <ele>1172.2</ele>
        <time>2021-11-02T14:43:21Z</time>
      </trkpt>
      <trkpt lat="44.33429" lon="6.35164">
        <ele>1172</ele>
        <time>2021-11-02T14:43:26Z</time>
      </trkpt>
      <trkpt lat="44.33429" lon="6.35164">
        <ele>1171.8</ele>
        <time>2021-11-02T14:43:32Z</time>
      </trkpt>
      <trkpt lat="44.33429" lon="6.35164">
        <ele>1171.7</ele>
        <time>2021-11-02T14:43:37Z</time>
      </trkpt>
      <trkpt lat="44.33427" lon="6.35166">
        <ele>1169.9</ele>
        <time>2021-11-02T14:43:43Z</time>
      </trkpt>
      <trkpt lat="44.33406" lon="6.35167">
        <ele>1168.7</ele>
        <time>2021-11-02T14:43:49Z</time>
      </trkpt>
      <trkpt lat="44.33372" lon="6.35155">
        <ele>1168.5</ele>
        <time>2021-11-02T14:43:55Z</time>
      </trkpt>
      <trkpt lat="44.3334" lon="6.35147">
        <ele>1166.2</ele>
        <time>2021-11-02T14:44:00Z</time>
      </trkpt>
      <trkpt lat="44.33308" lon="6.35143">
        <ele>1165.5</ele>
        <time>2021-11-02T14:44:06Z</time>
      </trkpt>
      <trkpt lat="44.33282" lon="6.35139">
        <ele>1167.7</ele>
        <time>2021-11-02T14:44:11Z</time>
      </trkpt>
      <trkpt lat="44.33251" lon="6.35138">
        <ele>1171.2</ele>
        <time>2021-11-02T14:44:17Z</time>
      </trkpt>
      <trkpt lat="44.33229" lon="6.3513">
        <ele>1171.6</ele>
        <time>2021-11-02T14:44:22Z</time>
      </trkpt>
      <trkpt lat="44.33202" lon="6.35123">
        <ele>1172.4</ele>
        <time>2021-11-02T14:44:28Z</time>
      </trkpt>
      <trkpt lat="44.33176" lon="6.35115">
        <ele>1174.4</ele>
        <time>2021-11-02T14:44:34Z</time>
      </trkpt>
      <trkpt lat="44.33163" lon="6.35091">
        <ele>1178.6</ele>
        <time>2021-11-02T14:44:40Z</time>
      </trkpt>
      <trkpt lat="44.33167" lon="6.35059">
        <ele>1180.7</ele>
        <time>2021-11-02T14:44:46Z</time>
      </trkpt>
      <trkpt lat="44.33176" lon="6.35027">
        <ele>1176.6</ele>
        <time>2021-11-02T14:44:52Z</time>
      </trkpt>
      <trkpt lat="44.3318" lon="6.35016">
        <ele>1179.4</ele>
        <time>2021-11-02T14:44:58Z</time>
      </trkpt>
      <trkpt lat="44.3318" lon="6.35015">
        <ele>1181</ele>
        <time>2021-11-02T14:45:04Z</time>
      </trkpt>
      <trkpt lat="44.3318" lon="6.35016">
        <ele>1182.7</ele>
        <time>2021-11-02T14:45:10Z</time>
      </trkpt>
      <trkpt lat="44.33181" lon="6.35016">
        <ele>1182.8</ele>
        <time>2021-11-02T14:45:15Z</time>
      </trkpt>
      <trkpt lat="44.33181" lon="6.35016">
        <ele>1182.9</ele>
        <time>2021-11-02T14:45:21Z</time>
      </trkpt>
      <trkpt lat="44.33181" lon="6.35016">
        <ele>1182.9</ele>
        <time>2021-11-02T14:45:27Z</time>
      </trkpt>
      <trkpt lat="44.33181" lon="6.35015">
        <ele>1182.9</ele>
        <time>2021-11-02T14:45:33Z</time>
      </trkpt>
      <trkpt lat="44.33181" lon="6.35009">
        <ele>1182.2</ele>
        <time>2021-11-02T14:45:38Z</time>
      </trkpt>
      <trkpt lat="44.33192" lon="6.34976">
        <ele>1181.8</ele>
        <time>2021-11-02T14:45:44Z</time>
      </trkpt>
      <trkpt lat="44.33206" lon="6.34938">
        <ele>1179.7</ele>
        <time>2021-11-02T14:45:50Z</time>
      </trkpt>
      <trkpt lat="44.33229" lon="6.34917">
        <ele>1179.1</ele>
        <time>2021-11-02T14:45:55Z</time>
      </trkpt>
      <trkpt lat="44.3326" lon="6.34894">
        <ele>1177.8</ele>
        <time>2021-11-02T14:46:01Z</time>
      </trkpt>
      <trkpt lat="44.33288" lon="6.34872">
        <ele>1178.5</ele>
        <time>2021-11-02T14:46:06Z</time>
      </trkpt>
      <trkpt lat="44.33319" lon="6.34847">
        <ele>1179.1</ele>
        <time>2021-11-02T14:46:12Z</time>
      </trkpt>
      <trkpt lat="44.33346" lon="6.34813">
        <ele>1177.3</ele>
        <time>2021-11-02T14:46:18Z</time>
      </trkpt>
      <trkpt lat="44.33366" lon="6.34788">
        <ele>1177.1</ele>
        <time>2021-11-02T14:46:23Z</time>
      </trkpt>
      <trkpt lat="44.33386" lon="6.34763">
        <ele>1178.5</ele>
        <time>2021-11-02T14:46:29Z</time>
      </trkpt>
      <trkpt lat="44.33399" lon="6.34728">
        <ele>1180.1</ele>
        <time>2021-11-02T14:46:35Z</time>
      </trkpt>
      <trkpt lat="44.3341" lon="6.34702">
        <ele>1181.7</ele>
        <time>2021-11-02T14:46:41Z</time>
      </trkpt>
      <trkpt lat="44.3342" lon="6.34685">
        <ele>1185.1</ele>
        <time>2021-11-02T14:46:46Z</time>
      </trkpt>
      <trkpt lat="44.33427" lon="6.34664">
        <ele>1187.4</ele>
        <time>2021-11-02T14:46:52Z</time>
      </trkpt>
      <trkpt lat="44.33433" lon="6.34649">
        <ele>1188.1</ele>
        <time>2021-11-02T14:46:57Z</time>
      </trkpt>
      <trkpt lat="44.33437" lon="6.34632">
        <ele>1190.8</ele>
        <time>2021-11-02T14:47:02Z</time>
      </trkpt>
      <trkpt lat="44.3344" lon="6.34607">
        <ele>1190.5</ele>
        <time>2021-11-02T14:47:08Z</time>
      </trkpt>
      <trkpt lat="44.33448" lon="6.34584">
        <ele>1192.8</ele>
        <time>2021-11-02T14:47:14Z</time>
      </trkpt>
      <trkpt lat="44.33453" lon="6.34566">
        <ele>1195.3</ele>
        <time>2021-11-02T14:47:19Z</time>
      </trkpt>
      <trkpt lat="44.33457" lon="6.34545">
        <ele>1196.7</ele>
        <time>2021-11-02T14:47:24Z</time>
      </trkpt>
      <trkpt lat="44.3346" lon="6.34528">
        <ele>1193.9</ele>
        <time>2021-11-02T14:47:29Z</time>
      </trkpt>
      <trkpt lat="44.33467" lon="6.34512">
        <ele>1193.8</ele>
        <time>2021-11-02T14:47:34Z</time>
      </trkpt>
      <trkpt lat="44.33477" lon="6.34491">
        <ele>1196.9</ele>
        <time>2021-11-02T14:47:40Z</time>
      </trkpt>
      <trkpt lat="44.33485" lon="6.3447">
        <ele>1197.3</ele>
        <time>2021-11-02T14:47:46Z</time>
      </trkpt>
      <trkpt lat="44.33488" lon="6.34449">
        <ele>1199.6</ele>
        <time>2021-11-02T14:47:51Z</time>
      </trkpt>
      <trkpt lat="44.33477" lon="6.3445">
        <ele>1202.6</ele>
        <time>2021-11-02T14:47:57Z</time>
      </trkpt>
      <trkpt lat="44.33473" lon="6.34463">
        <ele>1205.4</ele>
        <time>2021-11-02T14:48:02Z</time>
      </trkpt>
      <trkpt lat="44.3346" lon="6.34481">
        <ele>1207.8</ele>
        <time>2021-11-02T14:48:08Z</time>
      </trkpt>
      <trkpt lat="44.33448" lon="6.34497">
        <ele>1204.9</ele>
        <time>2021-11-02T14:48:14Z</time>
      </trkpt>
      <trkpt lat="44.33431" lon="6.34513">
        <ele>1206.5</ele>
        <time>2021-11-02T14:48:20Z</time>
      </trkpt>
      <trkpt lat="44.33416" lon="6.34526">
        <ele>1210</ele>
        <time>2021-11-02T14:48:26Z</time>
      </trkpt>
      <trkpt lat="44.33401" lon="6.34537">
        <ele>1212.4</ele>
        <time>2021-11-02T14:48:32Z</time>
      </trkpt>
      <trkpt lat="44.33394" lon="6.34537">
        <ele>1214.3</ele>
        <time>2021-11-02T14:48:38Z</time>
      </trkpt>
      <trkpt lat="44.33379" lon="6.34546">
        <ele>1212.9</ele>
        <time>2021-11-02T14:48:43Z</time>
      </trkpt>
      <trkpt lat="44.33361" lon="6.34566">
        <ele>1217.6</ele>
        <time>2021-11-02T14:48:49Z</time>
      </trkpt>
      <trkpt lat="44.33344" lon="6.34587">
        <ele>1223</ele>
        <time>2021-11-02T14:48:55Z</time>
      </trkpt>
      <trkpt lat="44.33324" lon="6.34601">
        <ele>1221.9</ele>
        <time>2021-11-02T14:49:01Z</time>
      </trkpt>
      <trkpt lat="44.33309" lon="6.34604">
        <ele>1222.5</ele>
        <time>2021-11-02T14:49:07Z</time>
      </trkpt>
      <trkpt lat="44.333" lon="6.34621">
        <ele>1225.8</ele>
        <time>2021-11-02T14:49:13Z</time>
      </trkpt>
      <trkpt lat="44.3329" lon="6.34637">
        <ele>1219.4</ele>
        <time>2021-11-02T14:49:18Z</time>
      </trkpt>
      <trkpt lat="44.33277" lon="6.34648">
        <ele>1223.5</ele>
        <time>2021-11-02T14:49:23Z</time>
      </trkpt>
      <trkpt lat="44.33265" lon="6.34662">
        <ele>1228.1</ele>
        <time>2021-11-02T14:49:29Z</time>
      </trkpt>
      <trkpt lat="44.33254" lon="6.34675">
        <ele>1227</ele>
        <time>2021-11-02T14:49:35Z</time>
      </trkpt>
      <trkpt lat="44.33244" lon="6.34687">
        <ele>1228.4</ele>
        <time>2021-11-02T14:49:41Z</time>
      </trkpt>
      <trkpt lat="44.33232" lon="6.34682">
        <ele>1230.1</ele>
        <time>2021-11-02T14:49:47Z</time>
      </trkpt>
      <trkpt lat="44.33245" lon="6.34662">
        <ele>1234.3</ele>
        <time>2021-11-02T14:49:53Z</time>
      </trkpt>
      <trkpt lat="44.33258" lon="6.34645">
        <ele>1236.6</ele>
        <time>2021-11-02T14:49:59Z</time>
      </trkpt>
      <trkpt lat="44.33267" lon="6.34622">
        <ele>1236.2</ele>
        <time>2021-11-02T14:50:05Z</time>
      </trkpt>
      <trkpt lat="44.33275" lon="6.34606">
        <ele>1237.6</ele>
        <time>2021-11-02T14:50:10Z</time>
      </trkpt>
      <trkpt lat="44.33279" lon="6.3459">
        <ele>1240.6</ele>
        <time>2021-11-02T14:50:15Z</time>
      </trkpt>
      <trkpt lat="44.33287" lon="6.34568">
        <ele>1239.3</ele>
        <time>2021-11-02T14:50:21Z</time>
      </trkpt>
      <trkpt lat="44.33297" lon="6.34556">
        <ele>1239</ele>
        <time>2021-11-02T14:50:26Z</time>
      </trkpt>
      <trkpt lat="44.33308" lon="6.34536">
        <ele>1243.7</ele>
        <time>2021-11-02T14:50:32Z</time>
      </trkpt>
      <trkpt lat="44.33313" lon="6.34516">
        <ele>1242.1</ele>
        <time>2021-11-02T14:50:38Z</time>
      </trkpt>
      <trkpt lat="44.33319" lon="6.34496">
        <ele>1243.1</ele>
        <time>2021-11-02T14:50:43Z</time>
      </trkpt>
      <trkpt lat="44.33325" lon="6.34464">
        <ele>1247.7</ele>
        <time>2021-11-02T14:50:49Z</time>
      </trkpt>
      <trkpt lat="44.3334" lon="6.34428">
        <ele>1246.4</ele>
        <time>2021-11-02T14:50:55Z</time>
      </trkpt>
      <trkpt lat="44.33352" lon="6.34404">
        <ele>1245.4</ele>
        <time>2021-11-02T14:51:00Z</time>
      </trkpt>
      <trkpt lat="44.33366" lon="6.3438">
        <ele>1247.3</ele>
        <time>2021-11-02T14:51:06Z</time>
      </trkpt>
      <trkpt lat="44.33372" lon="6.34358">
        <ele>1250.9</ele>
        <time>2021-11-02T14:51:11Z</time>
      </trkpt>
      <trkpt lat="44.33386" lon="6.34342">
        <ele>1252.9</ele>
        <time>2021-11-02T14:51:16Z</time>
      </trkpt>
      <trkpt lat="44.33402" lon="6.34328">
        <ele>1254.7</ele>
        <time>2021-11-02T14:51:21Z</time>
      </trkpt>
      <trkpt lat="44.33412" lon="6.34306">
        <ele>1258.3</ele>
        <time>2021-11-02T14:51:27Z</time>
      </trkpt>
      <trkpt lat="44.33419" lon="6.34288">
        <ele>1261.9</ele>
        <time>2021-11-02T14:51:32Z</time>
      </trkpt>
      <trkpt lat="44.33429" lon="6.34276">
        <ele>1263.5</ele>
        <time>2021-11-02T14:51:37Z</time>
      </trkpt>
      <trkpt lat="44.3343" lon="6.34256">
        <ele>1263.5</ele>
        <time>2021-11-02T14:51:43Z</time>
      </trkpt>
      <trkpt lat="44.33426" lon="6.34239">
        <ele>1263.7</ele>
        <time>2021-11-02T14:51:49Z</time>
      </trkpt>
      <trkpt lat="44.33429" lon="6.34223">
        <ele>1265.8</ele>
        <time>2021-11-02T14:51:55Z</time>
      </trkpt>
      <trkpt lat="44.33431" lon="6.34208">
        <ele>1270.1</ele>
        <time>2021-11-02T14:52:01Z</time>
      </trkpt>
      <trkpt lat="44.33434" lon="6.34193">
        <ele>1269.2</ele>
        <time>2021-11-02T14:52:06Z</time>
      </trkpt>
      <trkpt lat="44.33438" lon="6.34176">
        <ele>1271.3</ele>
        <time>2021-11-02T14:52:12Z</time>
      </trkpt>
      <trkpt lat="44.33444" lon="6.34157">
        <ele>1273.7</ele>
        <time>2021-11-02T14:52:18Z</time>
      </trkpt>
      <trkpt lat="44.33451" lon="6.34142">
        <ele>1273.3</ele>
        <time>2021-11-02T14:52:24Z</time>
      </trkpt>
      <trkpt lat="44.33455" lon="6.34128">
        <ele>1274.3</ele>
        <time>2021-11-02T14:52:30Z</time>
      </trkpt>
      <trkpt lat="44.33457" lon="6.34112">
        <ele>1274</ele>
        <time>2021-11-02T14:52:36Z</time>
      </trkpt>
      <trkpt lat="44.33457" lon="6.34095">
        <ele>1279.6</ele>
        <time>2021-11-02T14:52:41Z</time>
      </trkpt>
      <trkpt lat="44.33456" lon="6.34077">
        <ele>1278.7</ele>
        <time>2021-11-02T14:52:46Z</time>
      </trkpt>
      <trkpt lat="44.33451" lon="6.34059">
        <ele>1283.1</ele>
        <time>2021-11-02T14:52:52Z</time>
      </trkpt>
      <trkpt lat="44.33439" lon="6.34057">
        <ele>1280</ele>
        <time>2021-11-02T14:52:57Z</time>
      </trkpt>
      <trkpt lat="44.33427" lon="6.34069">
        <ele>1281.5</ele>
        <time>2021-11-02T14:53:03Z</time>
      </trkpt>
      <trkpt lat="44.33416" lon="6.34088">
        <ele>1284.1</ele>
        <time>2021-11-02T14:53:09Z</time>
      </trkpt>
      <trkpt lat="44.33405" lon="6.34103">
        <ele>1283.5</ele>
        <time>2021-11-02T14:53:14Z</time>
      </trkpt>
      <trkpt lat="44.33391" lon="6.34114">
        <ele>1286.4</ele>
        <time>2021-11-02T14:53:19Z</time>
      </trkpt>
      <trkpt lat="44.33379" lon="6.34122">
        <ele>1290.2</ele>
        <time>2021-11-02T14:53:24Z</time>
      </trkpt>
      <trkpt lat="44.33366" lon="6.34143">
        <ele>1288.9</ele>
        <time>2021-11-02T14:53:30Z</time>
      </trkpt>
      <trkpt lat="44.33353" lon="6.34158">
        <ele>1288.3</ele>
        <time>2021-11-02T14:53:36Z</time>
      </trkpt>
      <trkpt lat="44.33347" lon="6.34139">
        <ele>1291.1</ele>
        <time>2021-11-02T14:53:41Z</time>
      </trkpt>
      <trkpt lat="44.33348" lon="6.34118">
        <ele>1294.1</ele>
        <time>2021-11-02T14:53:46Z</time>
      </trkpt>
      <trkpt lat="44.33353" lon="6.34103">
        <ele>1296.6</ele>
        <time>2021-11-02T14:53:52Z</time>
      </trkpt>
      <trkpt lat="44.33354" lon="6.34081">
        <ele>1294.6</ele>
        <time>2021-11-02T14:53:58Z</time>
      </trkpt>
      <trkpt lat="44.3336" lon="6.34064">
        <ele>1298.3</ele>
        <time>2021-11-02T14:54:03Z</time>
      </trkpt>
      <trkpt lat="44.33363" lon="6.34043">
        <ele>1301.6</ele>
        <time>2021-11-02T14:54:08Z</time>
      </trkpt>
      <trkpt lat="44.33368" lon="6.34027">
        <ele>1303.4</ele>
        <time>2021-11-02T14:54:13Z</time>
      </trkpt>
      <trkpt lat="44.33367" lon="6.34004">
        <ele>1307.2</ele>
        <time>2021-11-02T14:54:19Z</time>
      </trkpt>
      <trkpt lat="44.33369" lon="6.33981">
        <ele>1310.7</ele>
        <time>2021-11-02T14:54:25Z</time>
      </trkpt>
      <trkpt lat="44.33366" lon="6.3396">
        <ele>1315.5</ele>
        <time>2021-11-02T14:54:30Z</time>
      </trkpt>
      <trkpt lat="44.33363" lon="6.33945">
        <ele>1315.7</ele>
        <time>2021-11-02T14:54:35Z</time>
      </trkpt>
      <trkpt lat="44.33359" lon="6.33923">
        <ele>1313.4</ele>
        <time>2021-11-02T14:54:41Z</time>
      </trkpt>
      <trkpt lat="44.33357" lon="6.33903">
        <ele>1317.1</ele>
        <time>2021-11-02T14:54:46Z</time>
      </trkpt>
      <trkpt lat="44.33357" lon="6.33881">
        <ele>1322.2</ele>
        <time>2021-11-02T14:54:51Z</time>
      </trkpt>
      <trkpt lat="44.33359" lon="6.33859">
        <ele>1325.8</ele>
        <time>2021-11-02T14:54:56Z</time>
      </trkpt>
      <trkpt lat="44.33363" lon="6.33833">
        <ele>1328.5</ele>
        <time>2021-11-02T14:55:02Z</time>
      </trkpt>
      <trkpt lat="44.33369" lon="6.33818">
        <ele>1330.2</ele>
        <time>2021-11-02T14:55:07Z</time>
      </trkpt>
      <trkpt lat="44.33381" lon="6.33803">
        <ele>1331</ele>
        <time>2021-11-02T14:55:13Z</time>
      </trkpt>
      <trkpt lat="44.33384" lon="6.33779">
        <ele>1332.8</ele>
        <time>2021-11-02T14:55:19Z</time>
      </trkpt>
      <trkpt lat="44.33375" lon="6.3376">
        <ele>1330.3</ele>
        <time>2021-11-02T14:55:25Z</time>
      </trkpt>
      <trkpt lat="44.33362" lon="6.33749">
        <ele>1332.2</ele>
        <time>2021-11-02T14:55:30Z</time>
      </trkpt>
      <trkpt lat="44.33353" lon="6.3373">
        <ele>1337.3</ele>
        <time>2021-11-02T14:55:36Z</time>
      </trkpt>
      <trkpt lat="44.3335" lon="6.33712">
        <ele>1342.4</ele>
        <time>2021-11-02T14:55:42Z</time>
      </trkpt>
      <trkpt lat="44.33348" lon="6.3369">
        <ele>1344.1</ele>
        <time>2021-11-02T14:55:48Z</time>
      </trkpt>
      <trkpt lat="44.33344" lon="6.33672">
        <ele>1350.3</ele>
        <time>2021-11-02T14:55:53Z</time>
      </trkpt>
      <trkpt lat="44.33337" lon="6.33652">
        <ele>1350.5</ele>
        <time>2021-11-02T14:55:59Z</time>
      </trkpt>
      <trkpt lat="44.33328" lon="6.33633">
        <ele>1352.9</ele>
        <time>2021-11-02T14:56:05Z</time>
      </trkpt>
      <trkpt lat="44.33322" lon="6.33615">
        <ele>1354.5</ele>
        <time>2021-11-02T14:56:10Z</time>
      </trkpt>
      <trkpt lat="44.33316" lon="6.33591">
        <ele>1355.1</ele>
        <time>2021-11-02T14:56:16Z</time>
      </trkpt>
      <trkpt lat="44.33309" lon="6.33573">
        <ele>1358.4</ele>
        <time>2021-11-02T14:56:22Z</time>
      </trkpt>
      <trkpt lat="44.33303" lon="6.33557">
        <ele>1361.1</ele>
        <time>2021-11-02T14:56:27Z</time>
      </trkpt>
      <trkpt lat="44.33295" lon="6.33546">
        <ele>1359.1</ele>
        <time>2021-11-02T14:56:32Z</time>
      </trkpt>
      <trkpt lat="44.3328" lon="6.33538">
        <ele>1359.2</ele>
        <time>2021-11-02T14:56:38Z</time>
      </trkpt>
      <trkpt lat="44.33264" lon="6.33533">
        <ele>1358.5</ele>
        <time>2021-11-02T14:56:44Z</time>
      </trkpt>
      <trkpt lat="44.3325" lon="6.3353">
        <ele>1360.1</ele>
        <time>2021-11-02T14:56:49Z</time>
      </trkpt>
      <trkpt lat="44.33237" lon="6.33525">
        <ele>1360.7</ele>
        <time>2021-11-02T14:56:55Z</time>
      </trkpt>
      <trkpt lat="44.33224" lon="6.33523">
        <ele>1359.7</ele>
        <time>2021-11-02T14:57:00Z</time>
      </trkpt>
      <trkpt lat="44.33212" lon="6.33522">
        <ele>1360.3</ele>
        <time>2021-11-02T14:57:05Z</time>
      </trkpt>
      <trkpt lat="44.33199" lon="6.33516">
        <ele>1361.1</ele>
        <time>2021-11-02T14:57:11Z</time>
      </trkpt>
      <trkpt lat="44.33188" lon="6.33503">
        <ele>1366.4</ele>
        <time>2021-11-02T14:57:17Z</time>
      </trkpt>
      <trkpt lat="44.3319" lon="6.33485">
        <ele>1368.2</ele>
        <time>2021-11-02T14:57:22Z</time>
      </trkpt>
      <trkpt lat="44.33204" lon="6.33478">
        <ele>1368.6</ele>
        <time>2021-11-02T14:57:28Z</time>
      </trkpt>
      <trkpt lat="44.33218" lon="6.33474">
        <ele>1368.7</ele>
        <time>2021-11-02T14:57:33Z</time>
      </trkpt>
      <trkpt lat="44.33231" lon="6.33468">
        <ele>1368.5</ele>
        <time>2021-11-02T14:57:38Z</time>
      </trkpt>
      <trkpt lat="44.33241" lon="6.33454">
        <ele>1371.5</ele>
        <time>2021-11-02T14:57:43Z</time>
      </trkpt>
      <trkpt lat="44.33245" lon="6.33429">
        <ele>1376.4</ele>
        <time>2021-11-02T14:57:49Z</time>
      </trkpt>
      <trkpt lat="44.33237" lon="6.33409">
        <ele>1381.2</ele>
        <time>2021-11-02T14:57:55Z</time>
      </trkpt>
      <trkpt lat="44.33228" lon="6.33391">
        <ele>1385.2</ele>
        <time>2021-11-02T14:58:01Z</time>
      </trkpt>
      <trkpt lat="44.3322" lon="6.33369">
        <ele>1375.4</ele>
        <time>2021-11-02T14:58:07Z</time>
      </trkpt>
      <trkpt lat="44.33219" lon="6.33344">
        <ele>1383.3</ele>
        <time>2021-11-02T14:58:13Z</time>
      </trkpt>
      <trkpt lat="44.33229" lon="6.33324">
        <ele>1384.8</ele>
        <time>2021-11-02T14:58:19Z</time>
      </trkpt>
      <trkpt lat="44.3324" lon="6.33309">
        <ele>1386.4</ele>
        <time>2021-11-02T14:58:25Z</time>
      </trkpt>
      <trkpt lat="44.33251" lon="6.33296">
        <ele>1389.1</ele>
        <time>2021-11-02T14:58:30Z</time>
      </trkpt>
      <trkpt lat="44.33256" lon="6.33274">
        <ele>1395</ele>
        <time>2021-11-02T14:58:36Z</time>
      </trkpt>
      <trkpt lat="44.33251" lon="6.33252">
        <ele>1395.4</ele>
        <time>2021-11-02T14:58:42Z</time>
      </trkpt>
      <trkpt lat="44.33242" lon="6.33232">
        <ele>1395.9</ele>
        <time>2021-11-02T14:58:48Z</time>
      </trkpt>
      <trkpt lat="44.33234" lon="6.33217">
        <ele>1395.1</ele>
        <time>2021-11-02T14:58:53Z</time>
      </trkpt>
      <trkpt lat="44.33225" lon="6.33201">
        <ele>1396.9</ele>
        <time>2021-11-02T14:58:59Z</time>
      </trkpt>
      <trkpt lat="44.33215" lon="6.33182">
        <ele>1398.6</ele>
        <time>2021-11-02T14:59:05Z</time>
      </trkpt>
      <trkpt lat="44.33205" lon="6.33163">
        <ele>1399.6</ele>
        <time>2021-11-02T14:59:11Z</time>
      </trkpt>
      <trkpt lat="44.33196" lon="6.33149">
        <ele>1399.3</ele>
        <time>2021-11-02T14:59:16Z</time>
      </trkpt>
      <trkpt lat="44.33183" lon="6.33139">
        <ele>1402.1</ele>
        <time>2021-11-02T14:59:22Z</time>
      </trkpt>
      <trkpt lat="44.33171" lon="6.33139">
        <ele>1402.6</ele>
        <time>2021-11-02T14:59:27Z</time>
      </trkpt>
      <trkpt lat="44.33159" lon="6.33149">
        <ele>1405.7</ele>
        <time>2021-11-02T14:59:33Z</time>
      </trkpt>
      <trkpt lat="44.33147" lon="6.33165">
        <ele>1404.9</ele>
        <time>2021-11-02T14:59:39Z</time>
      </trkpt>
      <trkpt lat="44.33138" lon="6.33176">
        <ele>1406.6</ele>
        <time>2021-11-02T14:59:44Z</time>
      </trkpt>
      <trkpt lat="44.33126" lon="6.33187">
        <ele>1410.7</ele>
        <time>2021-11-02T14:59:50Z</time>
      </trkpt>
      <trkpt lat="44.33114" lon="6.33199">
        <ele>1409.5</ele>
        <time>2021-11-02T14:59:56Z</time>
      </trkpt>
      <trkpt lat="44.33102" lon="6.33208">
        <ele>1409</ele>
        <time>2021-11-02T15:00:02Z</time>
      </trkpt>
      <trkpt lat="44.33088" lon="6.33225">
        <ele>1411.2</ele>
        <time>2021-11-02T15:00:08Z</time>
      </trkpt>
      <trkpt lat="44.33076" lon="6.3325">
        <ele>1413.3</ele>
        <time>2021-11-02T15:00:14Z</time>
      </trkpt>
      <trkpt lat="44.33073" lon="6.33275">
        <ele>1414.8</ele>
        <time>2021-11-02T15:00:19Z</time>
      </trkpt>
      <trkpt lat="44.33055" lon="6.3328">
        <ele>1416.7</ele>
        <time>2021-11-02T15:00:25Z</time>
      </trkpt>
      <trkpt lat="44.33052" lon="6.33249">
        <ele>1419</ele>
        <time>2021-11-02T15:00:31Z</time>
      </trkpt>
      <trkpt lat="44.33049" lon="6.33222">
        <ele>1422.3</ele>
        <time>2021-11-02T15:00:37Z</time>
      </trkpt>
      <trkpt lat="44.33044" lon="6.33198">
        <ele>1424.6</ele>
        <time>2021-11-02T15:00:43Z</time>
      </trkpt>
      <trkpt lat="44.3304" lon="6.33178">
        <ele>1426.5</ele>
        <time>2021-11-02T15:00:48Z</time>
      </trkpt>
      <trkpt lat="44.33045" lon="6.33159">
        <ele>1430.7</ele>
        <time>2021-11-02T15:00:53Z</time>
      </trkpt>
      <trkpt lat="44.33048" lon="6.33138">
        <ele>1433.4</ele>
        <time>2021-11-02T15:00:58Z</time>
      </trkpt>
      <trkpt lat="44.33043" lon="6.33117">
        <ele>1434</ele>
        <time>2021-11-02T15:01:03Z</time>
      </trkpt>
      <trkpt lat="44.33031" lon="6.33094">
        <ele>1434.2</ele>
        <time>2021-11-02T15:01:09Z</time>
      </trkpt>
      <trkpt lat="44.3302" lon="6.33075">
        <ele>1436.3</ele>
        <time>2021-11-02T15:01:15Z</time>
      </trkpt>
      <trkpt lat="44.33014" lon="6.33053">
        <ele>1436.6</ele>
        <time>2021-11-02T15:01:20Z</time>
      </trkpt>
      <trkpt lat="44.3301" lon="6.33032">
        <ele>1437.1</ele>
        <time>2021-11-02T15:01:25Z</time>
      </trkpt>
      <trkpt lat="44.33008" lon="6.33014">
        <ele>1439.4</ele>
        <time>2021-11-02T15:01:30Z</time>
      </trkpt>
      <trkpt lat="44.32999" lon="6.32993">
        <ele>1439.9</ele>
        <time>2021-11-02T15:01:35Z</time>
      </trkpt>
      <trkpt lat="44.32999" lon="6.32964">
        <ele>1441.5</ele>
        <time>2021-11-02T15:01:41Z</time>
      </trkpt>
      <trkpt lat="44.33007" lon="6.32938">
        <ele>1443.4</ele>
        <time>2021-11-02T15:01:47Z</time>
      </trkpt>
      <trkpt lat="44.33015" lon="6.32915">
        <ele>1444.2</ele>
        <time>2021-11-02T15:01:53Z</time>
      </trkpt>
      <trkpt lat="44.33014" lon="6.32892">
        <ele>1444.1</ele>
        <time>2021-11-02T15:01:58Z</time>
      </trkpt>
      <trkpt lat="44.33001" lon="6.32871">
        <ele>1442.1</ele>
        <time>2021-11-02T15:02:04Z</time>
      </trkpt>
      <trkpt lat="44.32986" lon="6.32859">
        <ele>1442</ele>
        <time>2021-11-02T15:02:09Z</time>
      </trkpt>
      <trkpt lat="44.32971" lon="6.32842">
        <ele>1440.7</ele>
        <time>2021-11-02T15:02:15Z</time>
      </trkpt>
      <trkpt lat="44.32958" lon="6.32816">
        <ele>1442.2</ele>
        <time>2021-11-02T15:02:21Z</time>
      </trkpt>
      <trkpt lat="44.32943" lon="6.32791">
        <ele>1441.7</ele>
        <time>2021-11-02T15:02:27Z</time>
      </trkpt>
      <trkpt lat="44.32916" lon="6.32789">
        <ele>1442.1</ele>
        <time>2021-11-02T15:02:33Z</time>
      </trkpt>
      <trkpt lat="44.3289" lon="6.32784">
        <ele>1443.2</ele>
        <time>2021-11-02T15:02:38Z</time>
      </trkpt>
      <trkpt lat="44.32872" lon="6.32749">
        <ele>1445.3</ele>
        <time>2021-11-02T15:02:44Z</time>
      </trkpt>
      <trkpt lat="44.32851" lon="6.32723">
        <ele>1446.5</ele>
        <time>2021-11-02T15:02:50Z</time>
      </trkpt>
      <trkpt lat="44.32829" lon="6.32725">
        <ele>1447.9</ele>
        <time>2021-11-02T15:02:55Z</time>
      </trkpt>
      <trkpt lat="44.32803" lon="6.32734">
        <ele>1448.8</ele>
        <time>2021-11-02T15:03:01Z</time>
      </trkpt>
      <trkpt lat="44.3278" lon="6.32739">
        <ele>1451</ele>
        <time>2021-11-02T15:03:07Z</time>
      </trkpt>
      <trkpt lat="44.32756" lon="6.32748">
        <ele>1454.2</ele>
        <time>2021-11-02T15:03:13Z</time>
      </trkpt>
      <trkpt lat="44.32741" lon="6.3276">
        <ele>1453</ele>
        <time>2021-11-02T15:03:18Z</time>
      </trkpt>
      <trkpt lat="44.32725" lon="6.32778">
        <ele>1452.7</ele>
        <time>2021-11-02T15:03:24Z</time>
      </trkpt>
      <trkpt lat="44.32719" lon="6.32798">
        <ele>1456.9</ele>
        <time>2021-11-02T15:03:29Z</time>
      </trkpt>
      <trkpt lat="44.32708" lon="6.3281">
        <ele>1458.2</ele>
        <time>2021-11-02T15:03:34Z</time>
      </trkpt>
      <trkpt lat="44.32692" lon="6.32807">
        <ele>1460.7</ele>
        <time>2021-11-02T15:03:40Z</time>
      </trkpt>
      <trkpt lat="44.32667" lon="6.3279">
        <ele>1461</ele>
        <time>2021-11-02T15:03:46Z</time>
      </trkpt>
      <trkpt lat="44.32635" lon="6.32782">
        <ele>1461.9</ele>
        <time>2021-11-02T15:03:52Z</time>
      </trkpt>
      <trkpt lat="44.3261" lon="6.3278">
        <ele>1465.7</ele>
        <time>2021-11-02T15:03:57Z</time>
      </trkpt>
      <trkpt lat="44.32582" lon="6.32786">
        <ele>1466.4</ele>
        <time>2021-11-02T15:04:03Z</time>
      </trkpt>
      <trkpt lat="44.32551" lon="6.32794">
        <ele>1463.7</ele>
        <time>2021-11-02T15:04:09Z</time>
      </trkpt>
      <trkpt lat="44.32522" lon="6.32796">
        <ele>1457.7</ele>
        <time>2021-11-02T15:04:15Z</time>
      </trkpt>
      <trkpt lat="44.32516" lon="6.32785">
        <ele>1460.3</ele>
        <time>2021-11-02T15:04:21Z</time>
      </trkpt>
      <trkpt lat="44.32525" lon="6.32776">
        <ele>1462.1</ele>
        <time>2021-11-02T15:04:26Z</time>
      </trkpt>
      <trkpt lat="44.32537" lon="6.32765">
        <ele>1461.8</ele>
        <time>2021-11-02T15:04:32Z</time>
      </trkpt>
      <trkpt lat="44.32547" lon="6.32759">
        <ele>1462.4</ele>
        <time>2021-11-02T15:04:37Z</time>
      </trkpt>
      <trkpt lat="44.32558" lon="6.32752">
        <ele>1464.9</ele>
        <time>2021-11-02T15:04:42Z</time>
      </trkpt>
      <trkpt lat="44.3257" lon="6.32742">
        <ele>1467.5</ele>
        <time>2021-11-02T15:04:47Z</time>
      </trkpt>
      <trkpt lat="44.32574" lon="6.32722">
        <ele>1469.7</ele>
        <time>2021-11-02T15:04:53Z</time>
      </trkpt>
      <trkpt lat="44.32568" lon="6.32705">
        <ele>1471.5</ele>
        <time>2021-11-02T15:04:58Z</time>
      </trkpt>
      <trkpt lat="44.32562" lon="6.32685">
        <ele>1473.6</ele>
        <time>2021-11-02T15:05:03Z</time>
      </trkpt>
      <trkpt lat="44.32556" lon="6.32667">
        <ele>1477.1</ele>
        <time>2021-11-02T15:05:09Z</time>
      </trkpt>
      <trkpt lat="44.32544" lon="6.32658">
        <ele>1478.8</ele>
        <time>2021-11-02T15:05:14Z</time>
      </trkpt>
      <trkpt lat="44.32529" lon="6.32652">
        <ele>1481.7</ele>
        <time>2021-11-02T15:05:20Z</time>
      </trkpt>
      <trkpt lat="44.32527" lon="6.32629">
        <ele>1481.2</ele>
        <time>2021-11-02T15:05:26Z</time>
      </trkpt>
      <trkpt lat="44.32534" lon="6.32613">
        <ele>1482.5</ele>
        <time>2021-11-02T15:05:31Z</time>
      </trkpt>
      <trkpt lat="44.32544" lon="6.32601">
        <ele>1482.1</ele>
        <time>2021-11-02T15:05:36Z</time>
      </trkpt>
      <trkpt lat="44.32548" lon="6.3258">
        <ele>1484.2</ele>
        <time>2021-11-02T15:05:42Z</time>
      </trkpt>
      <trkpt lat="44.32545" lon="6.32557">
        <ele>1486</ele>
        <time>2021-11-02T15:05:48Z</time>
      </trkpt>
      <trkpt lat="44.32542" lon="6.32536">
        <ele>1488.5</ele>
        <time>2021-11-02T15:05:54Z</time>
      </trkpt>
      <trkpt lat="44.32543" lon="6.3252">
        <ele>1490.9</ele>
        <time>2021-11-02T15:05:59Z</time>
      </trkpt>
      <trkpt lat="44.32548" lon="6.32503">
        <ele>1492.7</ele>
        <time>2021-11-02T15:06:04Z</time>
      </trkpt>
      <trkpt lat="44.32558" lon="6.32489">
        <ele>1493.9</ele>
        <time>2021-11-02T15:06:10Z</time>
      </trkpt>
      <trkpt lat="44.32572" lon="6.32474">
        <ele>1496</ele>
        <time>2021-11-02T15:06:16Z</time>
      </trkpt>
      <trkpt lat="44.32581" lon="6.32455">
        <ele>1498.2</ele>
        <time>2021-11-02T15:06:22Z</time>
      </trkpt>
      <trkpt lat="44.3259" lon="6.32439">
        <ele>1498.9</ele>
        <time>2021-11-02T15:06:28Z</time>
      </trkpt>
      <trkpt lat="44.32599" lon="6.32427">
        <ele>1498.3</ele>
        <time>2021-11-02T15:06:33Z</time>
      </trkpt>
      <trkpt lat="44.32607" lon="6.3241">
        <ele>1498.7</ele>
        <time>2021-11-02T15:06:39Z</time>
      </trkpt>
      <trkpt lat="44.32615" lon="6.32389">
        <ele>1501.4</ele>
        <time>2021-11-02T15:06:45Z</time>
      </trkpt>
      <trkpt lat="44.32621" lon="6.32366">
        <ele>1502.6</ele>
        <time>2021-11-02T15:06:51Z</time>
      </trkpt>
      <trkpt lat="44.32624" lon="6.3234">
        <ele>1504.1</ele>
        <time>2021-11-02T15:06:57Z</time>
      </trkpt>
      <trkpt lat="44.32626" lon="6.32309">
        <ele>1505.7</ele>
        <time>2021-11-02T15:07:03Z</time>
      </trkpt>
      <trkpt lat="44.32627" lon="6.32281">
        <ele>1506.6</ele>
        <time>2021-11-02T15:07:09Z</time>
      </trkpt>
      <trkpt lat="44.32633" lon="6.32253">
        <ele>1507.4</ele>
        <time>2021-11-02T15:07:15Z</time>
      </trkpt>
      <trkpt lat="44.32647" lon="6.3223">
        <ele>1508.4</ele>
        <time>2021-11-02T15:07:21Z</time>
      </trkpt>
      <trkpt lat="44.32661" lon="6.32215">
        <ele>1509.8</ele>
        <time>2021-11-02T15:07:26Z</time>
      </trkpt>
      <trkpt lat="44.32675" lon="6.32195">
        <ele>1511.1</ele>
        <time>2021-11-02T15:07:32Z</time>
      </trkpt>
      <trkpt lat="44.32686" lon="6.32177">
        <ele>1512.3</ele>
        <time>2021-11-02T15:07:37Z</time>
      </trkpt>
      <trkpt lat="44.32697" lon="6.32155">
        <ele>1514.4</ele>
        <time>2021-11-02T15:07:43Z</time>
      </trkpt>
      <trkpt lat="44.32709" lon="6.3214">
        <ele>1515</ele>
        <time>2021-11-02T15:07:48Z</time>
      </trkpt>
      <trkpt lat="44.32724" lon="6.32123">
        <ele>1514.9</ele>
        <time>2021-11-02T15:07:54Z</time>
      </trkpt>
      <trkpt lat="44.32739" lon="6.32105">
        <ele>1512.5</ele>
        <time>2021-11-02T15:08:00Z</time>
      </trkpt>
      <trkpt lat="44.32751" lon="6.32093">
        <ele>1512.6</ele>
        <time>2021-11-02T15:08:05Z</time>
      </trkpt>
      <trkpt lat="44.32766" lon="6.32081">
        <ele>1516.1</ele>
        <time>2021-11-02T15:08:10Z</time>
      </trkpt>
      <trkpt lat="44.32777" lon="6.32068">
        <ele>1513.5</ele>
        <time>2021-11-02T15:08:15Z</time>
      </trkpt>
      <trkpt lat="44.32791" lon="6.32046">
        <ele>1512.9</ele>
        <time>2021-11-02T15:08:21Z</time>
      </trkpt>
      <trkpt lat="44.32805" lon="6.32028">
        <ele>1514.6</ele>
        <time>2021-11-02T15:08:26Z</time>
      </trkpt>
      <trkpt lat="44.32807" lon="6.32008">
        <ele>1512.7</ele>
        <time>2021-11-02T15:08:32Z</time>
      </trkpt>
      <trkpt lat="44.3279" lon="6.32002">
        <ele>1507.2</ele>
        <time>2021-11-02T15:08:38Z</time>
      </trkpt>
      <trkpt lat="44.32769" lon="6.31999">
        <ele>1513</ele>
        <time>2021-11-02T15:08:44Z</time>
      </trkpt>
      <trkpt lat="44.32748" lon="6.31995">
        <ele>1512.6</ele>
        <time>2021-11-02T15:08:49Z</time>
      </trkpt>
      <trkpt lat="44.32727" lon="6.31982">
        <ele>1511.1</ele>
        <time>2021-11-02T15:08:54Z</time>
      </trkpt>
      <trkpt lat="44.32717" lon="6.31951">
        <ele>1516.4</ele>
        <time>2021-11-02T15:09:00Z</time>
      </trkpt>
      <trkpt lat="44.32728" lon="6.31933">
        <ele>1518.4</ele>
        <time>2021-11-02T15:09:05Z</time>
      </trkpt>
      <trkpt lat="44.32742" lon="6.31918">
        <ele>1522.8</ele>
        <time>2021-11-02T15:09:11Z</time>
      </trkpt>
      <trkpt lat="44.32758" lon="6.31906">
        <ele>1526.3</ele>
        <time>2021-11-02T15:09:17Z</time>
      </trkpt>
      <trkpt lat="44.32773" lon="6.31893">
        <ele>1527</ele>
        <time>2021-11-02T15:09:23Z</time>
      </trkpt>
      <trkpt lat="44.32789" lon="6.31882">
        <ele>1530</ele>
        <time>2021-11-02T15:09:29Z</time>
      </trkpt>
      <trkpt lat="44.32797" lon="6.3187">
        <ele>1528.9</ele>
        <time>2021-11-02T15:09:34Z</time>
      </trkpt>
      <trkpt lat="44.32811" lon="6.31855">
        <ele>1529</ele>
        <time>2021-11-02T15:09:40Z</time>
      </trkpt>
      <trkpt lat="44.32818" lon="6.31837">
        <ele>1527.4</ele>
        <time>2021-11-02T15:09:46Z</time>
      </trkpt>
      <trkpt lat="44.32822" lon="6.3182">
        <ele>1528.7</ele>
        <time>2021-11-02T15:09:51Z</time>
      </trkpt>
      <trkpt lat="44.32826" lon="6.31803">
        <ele>1529.6</ele>
        <time>2021-11-02T15:09:56Z</time>
      </trkpt>
      <trkpt lat="44.3283" lon="6.31786">
        <ele>1534.2</ele>
        <time>2021-11-02T15:10:01Z</time>
      </trkpt>
      <trkpt lat="44.32833" lon="6.3177">
        <ele>1534.3</ele>
        <time>2021-11-02T15:10:06Z</time>
      </trkpt>
      <trkpt lat="44.32832" lon="6.31751">
        <ele>1539.7</ele>
        <time>2021-11-02T15:10:11Z</time>
      </trkpt>
      <trkpt lat="44.32828" lon="6.31735">
        <ele>1537.7</ele>
        <time>2021-11-02T15:10:17Z</time>
      </trkpt>
      <trkpt lat="44.32825" lon="6.31716">
        <ele>1537.2</ele>
        <time>2021-11-02T15:10:22Z</time>
      </trkpt>
      <trkpt lat="44.32823" lon="6.31699">
        <ele>1541.7</ele>
        <time>2021-11-02T15:10:28Z</time>
      </trkpt>
      <trkpt lat="44.32822" lon="6.31681">
        <ele>1544.9</ele>
        <time>2021-11-02T15:10:33Z</time>
      </trkpt>
      <trkpt lat="44.32823" lon="6.31659">
        <ele>1550.1</ele>
        <time>2021-11-02T15:10:39Z</time>
      </trkpt>
      <trkpt lat="44.32823" lon="6.31645">
        <ele>1551.1</ele>
        <time>2021-11-02T15:10:44Z</time>
      </trkpt>
      <trkpt lat="44.32819" lon="6.31636">
        <ele>1552.2</ele>
        <time>2021-11-02T15:10:49Z</time>
      </trkpt>
      <trkpt lat="44.32813" lon="6.3163">
        <ele>1552.5</ele>
        <time>2021-11-02T15:10:55Z</time>
      </trkpt>
      <trkpt lat="44.32809" lon="6.31639">
        <ele>1556.3</ele>
        <time>2021-11-02T15:11:00Z</time>
      </trkpt>
      <trkpt lat="44.32808" lon="6.31663">
        <ele>1560.1</ele>
        <time>2021-11-02T15:11:06Z</time>
      </trkpt>
      <trkpt lat="44.32799" lon="6.31685">
        <ele>1560.1</ele>
        <time>2021-11-02T15:11:12Z</time>
      </trkpt>
      <trkpt lat="44.32789" lon="6.31703">
        <ele>1560.2</ele>
        <time>2021-11-02T15:11:17Z</time>
      </trkpt>
      <trkpt lat="44.32772" lon="6.31721">
        <ele>1561.5</ele>
        <time>2021-11-02T15:11:23Z</time>
      </trkpt>
      <trkpt lat="44.32756" lon="6.31731">
        <ele>1561.8</ele>
        <time>2021-11-02T15:11:29Z</time>
      </trkpt>
      <trkpt lat="44.32747" lon="6.31741">
        <ele>1560.6</ele>
        <time>2021-11-02T15:11:34Z</time>
      </trkpt>
      <trkpt lat="44.32731" lon="6.31755">
        <ele>1558.2</ele>
        <time>2021-11-02T15:11:40Z</time>
      </trkpt>
      <trkpt lat="44.32714" lon="6.31769">
        <ele>1560.6</ele>
        <time>2021-11-02T15:11:46Z</time>
      </trkpt>
      <trkpt lat="44.32696" lon="6.31777">
        <ele>1566.6</ele>
        <time>2021-11-02T15:11:52Z</time>
      </trkpt>
      <trkpt lat="44.32683" lon="6.31787">
        <ele>1568</ele>
        <time>2021-11-02T15:11:57Z</time>
      </trkpt>
      <trkpt lat="44.32665" lon="6.31793">
        <ele>1566.7</ele>
        <time>2021-11-02T15:12:03Z</time>
      </trkpt>
      <trkpt lat="44.32649" lon="6.31795">
        <ele>1571.2</ele>
        <time>2021-11-02T15:12:08Z</time>
      </trkpt>
      <trkpt lat="44.32634" lon="6.31797">
        <ele>1570.6</ele>
        <time>2021-11-02T15:12:13Z</time>
      </trkpt>
      <trkpt lat="44.32617" lon="6.31809">
        <ele>1570.8</ele>
        <time>2021-11-02T15:12:19Z</time>
      </trkpt>
      <trkpt lat="44.326" lon="6.31817">
        <ele>1570.1</ele>
        <time>2021-11-02T15:12:25Z</time>
      </trkpt>
      <trkpt lat="44.32585" lon="6.31823">
        <ele>1571.5</ele>
        <time>2021-11-02T15:12:30Z</time>
      </trkpt>
      <trkpt lat="44.3257" lon="6.31824">
        <ele>1571.9</ele>
        <time>2021-11-02T15:12:35Z</time>
      </trkpt>
      <trkpt lat="44.32552" lon="6.31822">
        <ele>1576.3</ele>
        <time>2021-11-02T15:12:41Z</time>
      </trkpt>
      <trkpt lat="44.32536" lon="6.31813">
        <ele>1574.6</ele>
        <time>2021-11-02T15:12:47Z</time>
      </trkpt>
      <trkpt lat="44.32518" lon="6.31806">
        <ele>1574.5</ele>
        <time>2021-11-02T15:12:53Z</time>
      </trkpt>
      <trkpt lat="44.32496" lon="6.31809">
        <ele>1576.5</ele>
        <time>2021-11-02T15:12:59Z</time>
      </trkpt>
      <trkpt lat="44.32478" lon="6.31819">
        <ele>1579.4</ele>
        <time>2021-11-02T15:13:05Z</time>
      </trkpt>
      <trkpt lat="44.32462" lon="6.31827">
        <ele>1581.2</ele>
        <time>2021-11-02T15:13:11Z</time>
      </trkpt>
      <trkpt lat="44.32449" lon="6.3183">
        <ele>1583.3</ele>
        <time>2021-11-02T15:13:16Z</time>
      </trkpt>
      <trkpt lat="44.32436" lon="6.31832">
        <ele>1585.2</ele>
        <time>2021-11-02T15:13:22Z</time>
      </trkpt>
      <trkpt lat="44.32423" lon="6.31829">
        <ele>1590</ele>
        <time>2021-11-02T15:13:27Z</time>
      </trkpt>
      <trkpt lat="44.32409" lon="6.31816">
        <ele>1592.1</ele>
        <time>2021-11-02T15:13:33Z</time>
      </trkpt>
      <trkpt lat="44.32409" lon="6.31794">
        <ele>1593.7</ele>
        <time>2021-11-02T15:13:39Z</time>
      </trkpt>
      <trkpt lat="44.32417" lon="6.31775">
        <ele>1594.2</ele>
        <time>2021-11-02T15:13:45Z</time>
      </trkpt>
      <trkpt lat="44.32423" lon="6.31758">
        <ele>1594.3</ele>
        <time>2021-11-02T15:13:51Z</time>
      </trkpt>
      <trkpt lat="44.32432" lon="6.31747">
        <ele>1594.8</ele>
        <time>2021-11-02T15:13:56Z</time>
      </trkpt>
      <trkpt lat="44.32446" lon="6.31737">
        <ele>1596.4</ele>
        <time>2021-11-02T15:14:02Z</time>
      </trkpt>
      <trkpt lat="44.32455" lon="6.31726">
        <ele>1599.3</ele>
        <time>2021-11-02T15:14:07Z</time>
      </trkpt>
      <trkpt lat="44.32464" lon="6.31712">
        <ele>1599.8</ele>
        <time>2021-11-02T15:14:13Z</time>
      </trkpt>
      <trkpt lat="44.32465" lon="6.31698">
        <ele>1599.7</ele>
        <time>2021-11-02T15:14:18Z</time>
      </trkpt>
      <trkpt lat="44.32463" lon="6.31682">
        <ele>1602.4</ele>
        <time>2021-11-02T15:14:24Z</time>
      </trkpt>
      <trkpt lat="44.3246" lon="6.31668">
        <ele>1602.3</ele>
        <time>2021-11-02T15:14:29Z</time>
      </trkpt>
      <trkpt lat="44.32464" lon="6.31652">
        <ele>1603.7</ele>
        <time>2021-11-02T15:14:35Z</time>
      </trkpt>
      <trkpt lat="44.32471" lon="6.31641">
        <ele>1605.5</ele>
        <time>2021-11-02T15:14:40Z</time>
      </trkpt>
      <trkpt lat="44.32481" lon="6.31629">
        <ele>1606.5</ele>
        <time>2021-11-02T15:14:46Z</time>
      </trkpt>
      <trkpt lat="44.32491" lon="6.31617">
        <ele>1607.9</ele>
        <time>2021-11-02T15:14:52Z</time>
      </trkpt>
      <trkpt lat="44.32501" lon="6.3161">
        <ele>1608.5</ele>
        <time>2021-11-02T15:14:57Z</time>
      </trkpt>
      <trkpt lat="44.32511" lon="6.31598">
        <ele>1611.8</ele>
        <time>2021-11-02T15:15:03Z</time>
      </trkpt>
      <trkpt lat="44.32519" lon="6.31585">
        <ele>1613</ele>
        <time>2021-11-02T15:15:09Z</time>
      </trkpt>
      <trkpt lat="44.32524" lon="6.31568">
        <ele>1615</ele>
        <time>2021-11-02T15:15:15Z</time>
      </trkpt>
      <trkpt lat="44.32532" lon="6.31554">
        <ele>1620.4</ele>
        <time>2021-11-02T15:15:20Z</time>
      </trkpt>
      <trkpt lat="44.32544" lon="6.31541">
        <ele>1618.6</ele>
        <time>2021-11-02T15:15:26Z</time>
      </trkpt>
      <trkpt lat="44.32549" lon="6.31531">
        <ele>1618.7</ele>
        <time>2021-11-02T15:15:31Z</time>
      </trkpt>
      <trkpt lat="44.32552" lon="6.31518">
        <ele>1618.9</ele>
        <time>2021-11-02T15:15:36Z</time>
      </trkpt>
      <trkpt lat="44.32539" lon="6.31512">
        <ele>1622.3</ele>
        <time>2021-11-02T15:15:42Z</time>
      </trkpt>
      <trkpt lat="44.32526" lon="6.31511">
        <ele>1621.8</ele>
        <time>2021-11-02T15:15:47Z</time>
      </trkpt>
      <trkpt lat="44.32513" lon="6.31498">
        <ele>1623.6</ele>
        <time>2021-11-02T15:15:53Z</time>
      </trkpt>
      <trkpt lat="44.32507" lon="6.31481">
        <ele>1625.8</ele>
        <time>2021-11-02T15:15:58Z</time>
      </trkpt>
      <trkpt lat="44.32502" lon="6.31465">
        <ele>1626.1</ele>
        <time>2021-11-02T15:16:03Z</time>
      </trkpt>
      <trkpt lat="44.32497" lon="6.31446">
        <ele>1626.5</ele>
        <time>2021-11-02T15:16:09Z</time>
      </trkpt>
      <trkpt lat="44.32495" lon="6.31426">
        <ele>1625.3</ele>
        <time>2021-11-02T15:16:15Z</time>
      </trkpt>
      <trkpt lat="44.325" lon="6.31406">
        <ele>1626.9</ele>
        <time>2021-11-02T15:16:21Z</time>
      </trkpt>
      <trkpt lat="44.32509" lon="6.31394">
        <ele>1627.5</ele>
        <time>2021-11-02T15:16:26Z</time>
      </trkpt>
      <trkpt lat="44.3252" lon="6.31377">
        <ele>1627.5</ele>
        <time>2021-11-02T15:16:32Z</time>
      </trkpt>
      <trkpt lat="44.32529" lon="6.31364">
        <ele>1628.6</ele>
        <time>2021-11-02T15:16:37Z</time>
      </trkpt>
      <trkpt lat="44.32539" lon="6.31348">
        <ele>1629.9</ele>
        <time>2021-11-02T15:16:43Z</time>
      </trkpt>
      <trkpt lat="44.32544" lon="6.31332">
        <ele>1632.4</ele>
        <time>2021-11-02T15:16:48Z</time>
      </trkpt>
      <trkpt lat="44.32546" lon="6.31308">
        <ele>1635.2</ele>
        <time>2021-11-02T15:16:54Z</time>
      </trkpt>
      <trkpt lat="44.32549" lon="6.3129">
        <ele>1635.6</ele>
        <time>2021-11-02T15:16:59Z</time>
      </trkpt>
      <trkpt lat="44.32552" lon="6.3127">
        <ele>1638.5</ele>
        <time>2021-11-02T15:17:05Z</time>
      </trkpt>
      <trkpt lat="44.32556" lon="6.31254">
        <ele>1639.6</ele>
        <time>2021-11-02T15:17:11Z</time>
      </trkpt>
      <trkpt lat="44.32561" lon="6.3124">
        <ele>1640.4</ele>
        <time>2021-11-02T15:17:16Z</time>
      </trkpt>
      <trkpt lat="44.3257" lon="6.31226">
        <ele>1637.5</ele>
        <time>2021-11-02T15:17:22Z</time>
      </trkpt>
      <trkpt lat="44.32577" lon="6.31209">
        <ele>1638.6</ele>
        <time>2021-11-02T15:17:28Z</time>
      </trkpt>
      <trkpt lat="44.32582" lon="6.31196">
        <ele>1640.3</ele>
        <time>2021-11-02T15:17:33Z</time>
      </trkpt>
      <trkpt lat="44.32586" lon="6.3118">
        <ele>1649.1</ele>
        <time>2021-11-02T15:17:39Z</time>
      </trkpt>
      <trkpt lat="44.32589" lon="6.31163">
        <ele>1652.5</ele>
        <time>2021-11-02T15:17:45Z</time>
      </trkpt>
      <trkpt lat="44.32579" lon="6.31159">
        <ele>1653.8</ele>
        <time>2021-11-02T15:17:50Z</time>
      </trkpt>
      <trkpt lat="44.32567" lon="6.31174">
        <ele>1653.9</ele>
        <time>2021-11-02T15:17:56Z</time>
      </trkpt>
      <trkpt lat="44.32557" lon="6.31185">
        <ele>1652</ele>
        <time>2021-11-02T15:18:02Z</time>
      </trkpt>
      <trkpt lat="44.32544" lon="6.31192">
        <ele>1653.3</ele>
        <time>2021-11-02T15:18:07Z</time>
      </trkpt>
      <trkpt lat="44.32526" lon="6.31203">
        <ele>1657.8</ele>
        <time>2021-11-02T15:18:13Z</time>
      </trkpt>
      <trkpt lat="44.32522" lon="6.31182">
        <ele>1655</ele>
        <time>2021-11-02T15:18:19Z</time>
      </trkpt>
      <trkpt lat="44.3254" lon="6.31166">
        <ele>1652.1</ele>
        <time>2021-11-02T15:18:25Z</time>
      </trkpt>
      <trkpt lat="44.32557" lon="6.31148">
        <ele>1651.9</ele>
        <time>2021-11-02T15:18:31Z</time>
      </trkpt>
      <trkpt lat="44.32569" lon="6.31133">
        <ele>1656.6</ele>
        <time>2021-11-02T15:18:36Z</time>
      </trkpt>
      <trkpt lat="44.32582" lon="6.31115">
        <ele>1655.6</ele>
        <time>2021-11-02T15:18:42Z</time>
      </trkpt>
      <trkpt lat="44.32594" lon="6.31093">
        <ele>1656.1</ele>
        <time>2021-11-02T15:18:48Z</time>
      </trkpt>
      <trkpt lat="44.32602" lon="6.31079">
        <ele>1656.3</ele>
        <time>2021-11-02T15:18:54Z</time>
      </trkpt>
      <trkpt lat="44.3261" lon="6.31068">
        <ele>1658.4</ele>
        <time>2021-11-02T15:18:59Z</time>
      </trkpt>
      <trkpt lat="44.32618" lon="6.31056">
        <ele>1663</ele>
        <time>2021-11-02T15:19:04Z</time>
      </trkpt>
      <trkpt lat="44.32626" lon="6.31038">
        <ele>1666.1</ele>
        <time>2021-11-02T15:19:10Z</time>
      </trkpt>
      <trkpt lat="44.32629" lon="6.31023">
        <ele>1667.3</ele>
        <time>2021-11-02T15:19:15Z</time>
      </trkpt>
      <trkpt lat="44.32633" lon="6.31006">
        <ele>1670.4</ele>
        <time>2021-11-02T15:19:21Z</time>
      </trkpt>
      <trkpt lat="44.32638" lon="6.30992">
        <ele>1669.7</ele>
        <time>2021-11-02T15:19:26Z</time>
      </trkpt>
      <trkpt lat="44.32645" lon="6.30978">
        <ele>1671</ele>
        <time>2021-11-02T15:19:32Z</time>
      </trkpt>
      <trkpt lat="44.32652" lon="6.30966">
        <ele>1671.6</ele>
        <time>2021-11-02T15:19:37Z</time>
      </trkpt>
      <trkpt lat="44.32658" lon="6.30948">
        <ele>1676.4</ele>
        <time>2021-11-02T15:19:42Z</time>
      </trkpt>
      <trkpt lat="44.32663" lon="6.30925">
        <ele>1679.4</ele>
        <time>2021-11-02T15:19:48Z</time>
      </trkpt>
      <trkpt lat="44.3267" lon="6.30905">
        <ele>1679.6</ele>
        <time>2021-11-02T15:19:53Z</time>
      </trkpt>
      <trkpt lat="44.32681" lon="6.30887">
        <ele>1678.2</ele>
        <time>2021-11-02T15:19:58Z</time>
      </trkpt>
      <trkpt lat="44.32697" lon="6.3087">
        <ele>1679.6</ele>
        <time>2021-11-02T15:20:04Z</time>
      </trkpt>
      <trkpt lat="44.32711" lon="6.30859">
        <ele>1679.5</ele>
        <time>2021-11-02T15:20:09Z</time>
      </trkpt>
      <trkpt lat="44.32727" lon="6.30849">
        <ele>1681.4</ele>
        <time>2021-11-02T15:20:15Z</time>
      </trkpt>
      <trkpt lat="44.32738" lon="6.30837">
        <ele>1682.7</ele>
        <time>2021-11-02T15:20:21Z</time>
      </trkpt>
      <trkpt lat="44.32747" lon="6.30822">
        <ele>1681.5</ele>
        <time>2021-11-02T15:20:26Z</time>
      </trkpt>
      <trkpt lat="44.32758" lon="6.30809">
        <ele>1682.5</ele>
        <time>2021-11-02T15:20:31Z</time>
      </trkpt>
      <trkpt lat="44.32765" lon="6.30788">
        <ele>1685.4</ele>
        <time>2021-11-02T15:20:37Z</time>
      </trkpt>
      <trkpt lat="44.32769" lon="6.30765">
        <ele>1687.1</ele>
        <time>2021-11-02T15:20:43Z</time>
      </trkpt>
      <trkpt lat="44.32777" lon="6.30743">
        <ele>1691.6</ele>
        <time>2021-11-02T15:20:49Z</time>
      </trkpt>
      <trkpt lat="44.32787" lon="6.30729">
        <ele>1691</ele>
        <time>2021-11-02T15:20:54Z</time>
      </trkpt>
      <trkpt lat="44.328" lon="6.30712">
        <ele>1691.2</ele>
        <time>2021-11-02T15:21:00Z</time>
      </trkpt>
      <trkpt lat="44.32811" lon="6.307">
        <ele>1693.6</ele>
        <time>2021-11-02T15:21:05Z</time>
      </trkpt>
      <trkpt lat="44.32828" lon="6.30691">
        <ele>1693.9</ele>
        <time>2021-11-02T15:21:11Z</time>
      </trkpt>
      <trkpt lat="44.32846" lon="6.30676">
        <ele>1693.4</ele>
        <time>2021-11-02T15:21:16Z</time>
      </trkpt>
      <trkpt lat="44.32871" lon="6.30644">
        <ele>1690.6</ele>
        <time>2021-11-02T15:21:22Z</time>
      </trkpt>
      <trkpt lat="44.32895" lon="6.30612">
        <ele>1687.6</ele>
        <time>2021-11-02T15:21:27Z</time>
      </trkpt>
      <trkpt lat="44.32922" lon="6.30577">
        <ele>1687.8</ele>
        <time>2021-11-02T15:21:33Z</time>
      </trkpt>
      <trkpt lat="44.32944" lon="6.30551">
        <ele>1683.9</ele>
        <time>2021-11-02T15:21:38Z</time>
      </trkpt>
      <trkpt lat="44.32974" lon="6.30526">
        <ele>1682.7</ele>
        <time>2021-11-02T15:21:44Z</time>
      </trkpt>
      <trkpt lat="44.33" lon="6.3051">
        <ele>1684.3</ele>
        <time>2021-11-02T15:21:49Z</time>
      </trkpt>
      <trkpt lat="44.33028" lon="6.30482">
        <ele>1683.3</ele>
        <time>2021-11-02T15:21:54Z</time>
      </trkpt>
      <trkpt lat="44.33059" lon="6.30443">
        <ele>1681.2</ele>
        <time>2021-11-02T15:22:00Z</time>
      </trkpt>
      <trkpt lat="44.33073" lon="6.30428">
        <ele>1683.3</ele>
        <time>2021-11-02T15:22:05Z</time>
      </trkpt>
      <trkpt lat="44.33077" lon="6.30418">
        <ele>1682.1</ele>
        <time>2021-11-02T15:22:11Z</time>
      </trkpt>
      <trkpt lat="44.33078" lon="6.30417">
        <ele>1558.5</ele>
        <time>2021-11-02T15:22:17Z</time>
      </trkpt>
      <trkpt lat="44.33077" lon="6.30416">
        <ele>1607.3</ele>
        <time>2021-11-02T15:22:22Z</time>
      </trkpt>
      <trkpt lat="44.33077" lon="6.30416">
        <ele>1686.4</ele>
        <time>2021-11-02T15:22:28Z</time>
      </trkpt>
      <trkpt lat="44.33078" lon="6.30415">
        <ele>1684.7</ele>
        <time>2021-11-02T15:22:34Z</time>
      </trkpt>
      <trkpt lat="44.3308" lon="6.30414">
        <ele>1685.9</ele>
        <time>2021-11-02T15:22:40Z</time>
      </trkpt>
      <trkpt lat="44.3308" lon="6.30414">
        <ele>1685.1</ele>
        <time>2021-11-02T15:22:45Z</time>
      </trkpt>
      <trkpt lat="44.33075" lon="6.30417">
        <ele>1684.5</ele>
        <time>2021-11-02T15:22:51Z</time>
      </trkpt>
      <trkpt lat="44.33074" lon="6.30417">
        <ele>1684.7</ele>
        <time>2021-11-02T15:22:57Z</time>
      </trkpt>
      <trkpt lat="44.33074" lon="6.30417">
        <ele>1685.2</ele>
        <time>2021-11-02T15:23:03Z</time>
      </trkpt>
      <trkpt lat="44.33074" lon="6.30419">
        <ele>1683.3</ele>
        <time>2021-11-02T15:23:09Z</time>
      </trkpt>
      <trkpt lat="44.33074" lon="6.30418">
        <ele>1684.6</ele>
        <time>2021-11-02T15:23:14Z</time>
      </trkpt>
      <trkpt lat="44.33074" lon="6.30418">
        <ele>1685.2</ele>
        <time>2021-11-02T15:23:19Z</time>
      </trkpt>
      <trkpt lat="44.33075" lon="6.30418">
        <ele>1685.1</ele>
        <time>2021-11-02T15:23:25Z</time>
      </trkpt>
      <trkpt lat="44.33075" lon="6.30418">
        <ele>1685.1</ele>
        <time>2021-11-02T15:23:31Z</time>
      </trkpt>
      <trkpt lat="44.33075" lon="6.30418">
        <ele>1685.1</ele>
        <time>2021-11-02T15:23:36Z</time>
      </trkpt>
      <trkpt lat="44.33075" lon="6.30418">
        <ele>1685.1</ele>
        <time>2021-11-02T15:23:42Z</time>
      </trkpt>
      <trkpt lat="44.33075" lon="6.30418">
        <ele>1685.1</ele>
        <time>2021-11-02T15:23:48Z</time>
      </trkpt>
      <trkpt lat="44.33075" lon="6.30418">
        <ele>1685.1</ele>
        <time>2021-11-02T15:23:54Z</time>
      </trkpt>
      <trkpt lat="44.33075" lon="6.30418">
        <ele>1685.1</ele>
        <time>2021-11-02T15:24:00Z</time>
      </trkpt>
      <trkpt lat="44.33075" lon="6.30418">
        <ele>1685</ele>
        <time>2021-11-02T15:24:06Z</time>
      </trkpt>
      <trkpt lat="44.33076" lon="6.30415">
        <ele>1684.4</ele>
        <time>2021-11-02T15:24:11Z</time>
      </trkpt>
      <trkpt lat="44.33077" lon="6.30414">
        <ele>1682.7</ele>
        <time>2021-11-02T15:24:16Z</time>
      </trkpt>
      <trkpt lat="44.33078" lon="6.30415">
        <ele>1682</ele>
        <time>2021-11-02T15:24:22Z</time>
      </trkpt>
      <trkpt lat="44.33078" lon="6.30414">
        <ele>1681.8</ele>
        <time>2021-11-02T15:24:28Z</time>
      </trkpt>
      <trkpt lat="44.33078" lon="6.30414">
        <ele>1681.7</ele>
        <time>2021-11-02T15:24:34Z</time>
      </trkpt>
      <trkpt lat="44.33078" lon="6.30414">
        <ele>1681.7</ele>
        <time>2021-11-02T15:24:40Z</time>
      </trkpt>
      <trkpt lat="44.33078" lon="6.30414">
        <ele>1681.7</ele>
        <time>2021-11-02T15:24:46Z</time>
      </trkpt>
      <trkpt lat="44.33076" lon="6.30402">
        <ele>1681.1</ele>
        <time>2021-11-02T15:24:52Z</time>
      </trkpt>
      <trkpt lat="44.33067" lon="6.30368">
        <ele>1680.3</ele>
        <time>2021-11-02T15:24:58Z</time>
      </trkpt>
      <trkpt lat="44.33048" lon="6.3034">
        <ele>1677.4</ele>
        <time>2021-11-02T15:25:04Z</time>
      </trkpt>
      <trkpt lat="44.33035" lon="6.30311">
        <ele>1675.5</ele>
        <time>2021-11-02T15:25:09Z</time>
      </trkpt>
      <trkpt lat="44.33025" lon="6.30293">
        <ele>1677.2</ele>
        <time>2021-11-02T15:25:15Z</time>
      </trkpt>
      <trkpt lat="44.33007" lon="6.30289">
        <ele>1679.3</ele>
        <time>2021-11-02T15:25:21Z</time>
      </trkpt>
      <trkpt lat="44.32988" lon="6.30287">
        <ele>1680.5</ele>
        <time>2021-11-02T15:25:27Z</time>
      </trkpt>
      <trkpt lat="44.3297" lon="6.30288">
        <ele>1680.3</ele>
        <time>2021-11-02T15:25:32Z</time>
      </trkpt>
      <trkpt lat="44.32948" lon="6.30289">
        <ele>1679.7</ele>
        <time>2021-11-02T15:25:38Z</time>
      </trkpt>
      <trkpt lat="44.32923" lon="6.30286">
        <ele>1677.6</ele>
        <time>2021-11-02T15:25:44Z</time>
      </trkpt>
      <trkpt lat="44.32904" lon="6.3028">
        <ele>1679</ele>
        <time>2021-11-02T15:25:49Z</time>
      </trkpt>
      <trkpt lat="44.32884" lon="6.30261">
        <ele>1678.5</ele>
        <time>2021-11-02T15:25:55Z</time>
      </trkpt>
      <trkpt lat="44.32868" lon="6.30241">
        <ele>1681.2</ele>
        <time>2021-11-02T15:26:01Z</time>
      </trkpt>
      <trkpt lat="44.32848" lon="6.30222">
        <ele>1679</ele>
        <time>2021-11-02T15:26:07Z</time>
      </trkpt>
      <trkpt lat="44.3283" lon="6.30196">
        <ele>1674.7</ele>
        <time>2021-11-02T15:26:13Z</time>
      </trkpt>
      <trkpt lat="44.32816" lon="6.30166">
        <ele>1672.9</ele>
        <time>2021-11-02T15:26:19Z</time>
      </trkpt>
      <trkpt lat="44.32815" lon="6.30138">
        <ele>1673.2</ele>
        <time>2021-11-02T15:26:24Z</time>
      </trkpt>
      <trkpt lat="44.32812" lon="6.30105">
        <ele>1674</ele>
        <time>2021-11-02T15:26:30Z</time>
      </trkpt>
      <trkpt lat="44.32816" lon="6.30076">
        <ele>1670.9</ele>
        <time>2021-11-02T15:26:36Z</time>
      </trkpt>
      <trkpt lat="44.32831" lon="6.3006">
        <ele>1670.2</ele>
        <time>2021-11-02T15:26:42Z</time>
      </trkpt>
      <trkpt lat="44.3283" lon="6.30044">
        <ele>1671.1</ele>
        <time>2021-11-02T15:26:47Z</time>
      </trkpt>
      <trkpt lat="44.32823" lon="6.30039">
        <ele>1671.5</ele>
        <time>2021-11-02T15:26:53Z</time>
      </trkpt>
      <trkpt lat="44.32812" lon="6.30026">
        <ele>1674</ele>
        <time>2021-11-02T15:26:58Z</time>
      </trkpt>
      <trkpt lat="44.32799" lon="6.30016">
        <ele>1676.3</ele>
        <time>2021-11-02T15:27:04Z</time>
      </trkpt>
      <trkpt lat="44.32784" lon="6.30023">
        <ele>1675.7</ele>
        <time>2021-11-02T15:27:10Z</time>
      </trkpt>
      <trkpt lat="44.32773" lon="6.30029">
        <ele>1676.5</ele>
        <time>2021-11-02T15:27:15Z</time>
      </trkpt>
      <trkpt lat="44.32765" lon="6.30042">
        <ele>1674.9</ele>
        <time>2021-11-02T15:27:21Z</time>
      </trkpt>
      <trkpt lat="44.32756" lon="6.30058">
        <ele>1674.5</ele>
        <time>2021-11-02T15:27:27Z</time>
      </trkpt>
      <trkpt lat="44.32741" lon="6.30071">
        <ele>1677.1</ele>
        <time>2021-11-02T15:27:32Z</time>
      </trkpt>
      <trkpt lat="44.32727" lon="6.30068">
        <ele>1680.6</ele>
        <time>2021-11-02T15:27:38Z</time>
      </trkpt>
      <trkpt lat="44.32717" lon="6.30054">
        <ele>1683.5</ele>
        <time>2021-11-02T15:27:44Z</time>
      </trkpt>
      <trkpt lat="44.3271" lon="6.30039">
        <ele>1685.2</ele>
        <time>2021-11-02T15:27:50Z</time>
      </trkpt>
      <trkpt lat="44.32706" lon="6.30019">
        <ele>1686.9</ele>
        <time>2021-11-02T15:27:56Z</time>
      </trkpt>
      <trkpt lat="44.32701" lon="6.30006">
        <ele>1688.3</ele>
        <time>2021-11-02T15:28:01Z</time>
      </trkpt>
      <trkpt lat="44.32692" lon="6.29991">
        <ele>1690.2</ele>
        <time>2021-11-02T15:28:07Z</time>
      </trkpt>
      <trkpt lat="44.32687" lon="6.29978">
        <ele>1689.2</ele>
        <time>2021-11-02T15:28:12Z</time>
      </trkpt>
      <trkpt lat="44.32692" lon="6.29956">
        <ele>1689</ele>
        <time>2021-11-02T15:28:17Z</time>
      </trkpt>
      <trkpt lat="44.32694" lon="6.29927">
        <ele>1685.5</ele>
        <time>2021-11-02T15:28:23Z</time>
      </trkpt>
      <trkpt lat="44.32674" lon="6.2993">
        <ele>1687.5</ele>
        <time>2021-11-02T15:28:29Z</time>
      </trkpt>
      <trkpt lat="44.32661" lon="6.29938">
        <ele>1689.2</ele>
        <time>2021-11-02T15:28:34Z</time>
      </trkpt>
      <trkpt lat="44.32648" lon="6.29946">
        <ele>1689.8</ele>
        <time>2021-11-02T15:28:40Z</time>
      </trkpt>
      <trkpt lat="44.32639" lon="6.29955">
        <ele>1690.3</ele>
        <time>2021-11-02T15:28:45Z</time>
      </trkpt>
      <trkpt lat="44.32632" lon="6.29961">
        <ele>1689.9</ele>
        <time>2021-11-02T15:28:50Z</time>
      </trkpt>
      <trkpt lat="44.32624" lon="6.29973">
        <ele>1694.5</ele>
        <time>2021-11-02T15:28:56Z</time>
      </trkpt>
      <trkpt lat="44.32616" lon="6.29985">
        <ele>1689.7</ele>
        <time>2021-11-02T15:29:01Z</time>
      </trkpt>
      <trkpt lat="44.32605" lon="6.29993">
        <ele>1696.1</ele>
        <time>2021-11-02T15:29:07Z</time>
      </trkpt>
      <trkpt lat="44.32593" lon="6.3">
        <ele>1699.6</ele>
        <time>2021-11-02T15:29:12Z</time>
      </trkpt>
      <trkpt lat="44.32581" lon="6.30008">
        <ele>1701.6</ele>
        <time>2021-11-02T15:29:18Z</time>
      </trkpt>
      <trkpt lat="44.32571" lon="6.30014">
        <ele>1704</ele>
        <time>2021-11-02T15:29:23Z</time>
      </trkpt>
      <trkpt lat="44.3256" lon="6.30023">
        <ele>1707.7</ele>
        <time>2021-11-02T15:29:29Z</time>
      </trkpt>
      <trkpt lat="44.32549" lon="6.30031">
        <ele>1708.3</ele>
        <time>2021-11-02T15:29:34Z</time>
      </trkpt>
      <trkpt lat="44.32541" lon="6.30043">
        <ele>1708.9</ele>
        <time>2021-11-02T15:29:40Z</time>
      </trkpt>
      <trkpt lat="44.32529" lon="6.30054">
        <ele>1710.1</ele>
        <time>2021-11-02T15:29:45Z</time>
      </trkpt>
      <trkpt lat="44.32518" lon="6.30064">
        <ele>1713.5</ele>
        <time>2021-11-02T15:29:51Z</time>
      </trkpt>
      <trkpt lat="44.32507" lon="6.30072">
        <ele>1712.8</ele>
        <time>2021-11-02T15:29:56Z</time>
      </trkpt>
      <trkpt lat="44.32498" lon="6.30085">
        <ele>1712.7</ele>
        <time>2021-11-02T15:30:01Z</time>
      </trkpt>
      <trkpt lat="44.32488" lon="6.30095">
        <ele>1714.4</ele>
        <time>2021-11-02T15:30:07Z</time>
      </trkpt>
      <trkpt lat="44.32479" lon="6.30105">
        <ele>1716.6</ele>
        <time>2021-11-02T15:30:12Z</time>
      </trkpt>
      <trkpt lat="44.32469" lon="6.30111">
        <ele>1717.6</ele>
        <time>2021-11-02T15:30:18Z</time>
      </trkpt>
      <trkpt lat="44.3246" lon="6.3012">
        <ele>1720.1</ele>
        <time>2021-11-02T15:30:23Z</time>
      </trkpt>
      <trkpt lat="44.32453" lon="6.30128">
        <ele>1722.5</ele>
        <time>2021-11-02T15:30:28Z</time>
      </trkpt>
      <trkpt lat="44.32445" lon="6.30139">
        <ele>1722.5</ele>
        <time>2021-11-02T15:30:34Z</time>
      </trkpt>
      <trkpt lat="44.32434" lon="6.30149">
        <ele>1722.2</ele>
        <time>2021-11-02T15:30:40Z</time>
      </trkpt>
      <trkpt lat="44.32423" lon="6.30152">
        <ele>1723.5</ele>
        <time>2021-11-02T15:30:46Z</time>
      </trkpt>
      <trkpt lat="44.32418" lon="6.3015">
        <ele>1721.5</ele>
        <time>2021-11-02T15:30:52Z</time>
      </trkpt>
      <trkpt lat="44.32421" lon="6.30136">
        <ele>1722.5</ele>
        <time>2021-11-02T15:30:57Z</time>
      </trkpt>
      <trkpt lat="44.32424" lon="6.30118">
        <ele>1722.8</ele>
        <time>2021-11-02T15:31:03Z</time>
      </trkpt>
      <trkpt lat="44.3243" lon="6.30105">
        <ele>1723.3</ele>
        <time>2021-11-02T15:31:08Z</time>
      </trkpt>
      <trkpt lat="44.32437" lon="6.30086">
        <ele>1723.3</ele>
        <time>2021-11-02T15:31:14Z</time>
      </trkpt>
      <trkpt lat="44.32441" lon="6.30065">
        <ele>1721.9</ele>
        <time>2021-11-02T15:31:19Z</time>
      </trkpt>
      <trkpt lat="44.32447" lon="6.30031">
        <ele>1720.5</ele>
        <time>2021-11-02T15:31:25Z</time>
      </trkpt>
      <trkpt lat="44.32457" lon="6.29992">
        <ele>1719</ele>
        <time>2021-11-02T15:31:31Z</time>
      </trkpt>
      <trkpt lat="44.32469" lon="6.29962">
        <ele>1719.7</ele>
        <time>2021-11-02T15:31:36Z</time>
      </trkpt>
      <trkpt lat="44.32482" lon="6.29933">
        <ele>1720.8</ele>
        <time>2021-11-02T15:31:41Z</time>
      </trkpt>
      <trkpt lat="44.32494" lon="6.29909">
        <ele>1723.3</ele>
        <time>2021-11-02T15:31:47Z</time>
      </trkpt>
      <trkpt lat="44.32501" lon="6.29887">
        <ele>1724.8</ele>
        <time>2021-11-02T15:31:52Z</time>
      </trkpt>
      <trkpt lat="44.3251" lon="6.29864">
        <ele>1723.6</ele>
        <time>2021-11-02T15:31:58Z</time>
      </trkpt>
      <trkpt lat="44.32514" lon="6.29846">
        <ele>1724.2</ele>
        <time>2021-11-02T15:32:03Z</time>
      </trkpt>
      <trkpt lat="44.32519" lon="6.29827">
        <ele>1725</ele>
        <time>2021-11-02T15:32:08Z</time>
      </trkpt>
      <trkpt lat="44.32523" lon="6.2981">
        <ele>1725.4</ele>
        <time>2021-11-02T15:32:13Z</time>
      </trkpt>
      <trkpt lat="44.32528" lon="6.29791">
        <ele>1727.6</ele>
        <time>2021-11-02T15:32:19Z</time>
      </trkpt>
      <trkpt lat="44.32529" lon="6.29791">
        <ele>1731.6</ele>
        <time>2021-11-02T15:32:25Z</time>
      </trkpt>
      <trkpt lat="44.32529" lon="6.2979">
        <ele>1731.8</ele>
        <time>2021-11-02T15:32:30Z</time>
      </trkpt>
      <trkpt lat="44.32529" lon="6.2979">
        <ele>1732</ele>
        <time>2021-11-02T15:32:36Z</time>
      </trkpt>
      <trkpt lat="44.32529" lon="6.2979">
        <ele>1732</ele>
        <time>2021-11-02T15:32:41Z</time>
      </trkpt>
      <trkpt lat="44.3253" lon="6.29791">
        <ele>1733.2</ele>
        <time>2021-11-02T15:32:47Z</time>
      </trkpt>
      <trkpt lat="44.32531" lon="6.29792">
        <ele>1724.5</ele>
        <time>2021-11-02T15:32:52Z</time>
      </trkpt>
      <trkpt lat="44.32531" lon="6.2978">
        <ele>1733.3</ele>
        <time>2021-11-02T15:32:58Z</time>
      </trkpt>
      <trkpt lat="44.32535" lon="6.29756">
        <ele>1733.2</ele>
        <time>2021-11-02T15:33:04Z</time>
      </trkpt>
      <trkpt lat="44.32538" lon="6.29728">
        <ele>1735.4</ele>
        <time>2021-11-02T15:33:10Z</time>
      </trkpt>
      <trkpt lat="44.32543" lon="6.29704">
        <ele>1737.5</ele>
        <time>2021-11-02T15:33:16Z</time>
      </trkpt>
      <trkpt lat="44.32546" lon="6.29681">
        <ele>1739.4</ele>
        <time>2021-11-02T15:33:21Z</time>
      </trkpt>
      <trkpt lat="44.32547" lon="6.29662">
        <ele>1740.4</ele>
        <time>2021-11-02T15:33:26Z</time>
      </trkpt>
      <trkpt lat="44.32551" lon="6.29639">
        <ele>1743.1</ele>
        <time>2021-11-02T15:33:32Z</time>
      </trkpt>
      <trkpt lat="44.32552" lon="6.29624">
        <ele>1743.1</ele>
        <time>2021-11-02T15:33:37Z</time>
      </trkpt>
      <trkpt lat="44.32552" lon="6.29604">
        <ele>1745.3</ele>
        <time>2021-11-02T15:33:43Z</time>
      </trkpt>
      <trkpt lat="44.32553" lon="6.29587">
        <ele>1745</ele>
        <time>2021-11-02T15:33:49Z</time>
      </trkpt>
      <trkpt lat="44.32555" lon="6.29574">
        <ele>1745.9</ele>
        <time>2021-11-02T15:33:54Z</time>
      </trkpt>
      <trkpt lat="44.32556" lon="6.29556">
        <ele>1746.8</ele>
        <time>2021-11-02T15:34:01Z</time>
      </trkpt>
      <trkpt lat="44.3256" lon="6.29536">
        <ele>1748</ele>
        <time>2021-11-02T15:34:06Z</time>
      </trkpt>
      <trkpt lat="44.32564" lon="6.29522">
        <ele>1750.6</ele>
        <time>2021-11-02T15:34:12Z</time>
      </trkpt>
      <trkpt lat="44.32569" lon="6.29503">
        <ele>1752.3</ele>
        <time>2021-11-02T15:34:17Z</time>
      </trkpt>
      <trkpt lat="44.32572" lon="6.29484">
        <ele>1753</ele>
        <time>2021-11-02T15:34:23Z</time>
      </trkpt>
      <trkpt lat="44.32577" lon="6.29471">
        <ele>1754.4</ele>
        <time>2021-11-02T15:34:28Z</time>
      </trkpt>
      <trkpt lat="44.3258" lon="6.29454">
        <ele>1755.9</ele>
        <time>2021-11-02T15:34:33Z</time>
      </trkpt>
      <trkpt lat="44.32583" lon="6.29439">
        <ele>1756</ele>
        <time>2021-11-02T15:34:39Z</time>
      </trkpt>
      <trkpt lat="44.32589" lon="6.29418">
        <ele>1756.9</ele>
        <time>2021-11-02T15:34:44Z</time>
      </trkpt>
      <trkpt lat="44.32589" lon="6.29403">
        <ele>1757.1</ele>
        <time>2021-11-02T15:34:49Z</time>
      </trkpt>
      <trkpt lat="44.32587" lon="6.29389">
        <ele>1758.5</ele>
        <time>2021-11-02T15:34:54Z</time>
      </trkpt>
      <trkpt lat="44.32585" lon="6.29375">
        <ele>1761</ele>
        <time>2021-11-02T15:35:01Z</time>
      </trkpt>
      <trkpt lat="44.32584" lon="6.29361">
        <ele>1762.7</ele>
        <time>2021-11-02T15:35:06Z</time>
      </trkpt>
      <trkpt lat="44.32581" lon="6.29356">
        <ele>1765.1</ele>
        <time>2021-11-02T15:35:11Z</time>
      </trkpt>
      <trkpt lat="44.32583" lon="6.29355">
        <ele>1764.8</ele>
        <time>2021-11-02T15:35:17Z</time>
      </trkpt>
      <trkpt lat="44.32583" lon="6.29343">
        <ele>1767.4</ele>
        <time>2021-11-02T15:35:23Z</time>
      </trkpt>
      <trkpt lat="44.32587" lon="6.29326">
        <ele>1767.4</ele>
        <time>2021-11-02T15:35:28Z</time>
      </trkpt>
      <trkpt lat="44.32596" lon="6.29313">
        <ele>1769</ele>
        <time>2021-11-02T15:35:35Z</time>
      </trkpt>
      <trkpt lat="44.32596" lon="6.2931">
        <ele>1768.8</ele>
        <time>2021-11-02T15:35:40Z</time>
      </trkpt>
      <trkpt lat="44.32595" lon="6.29311">
        <ele>1768</ele>
        <time>2021-11-02T15:35:45Z</time>
      </trkpt>
      <trkpt lat="44.32595" lon="6.29311">
        <ele>1768.6</ele>
        <time>2021-11-02T15:35:51Z</time>
      </trkpt>
      <trkpt lat="44.32595" lon="6.29308">
        <ele>1768.7</ele>
        <time>2021-11-02T15:35:57Z</time>
      </trkpt>
      <trkpt lat="44.32596" lon="6.29308">
        <ele>1767.6</ele>
        <time>2021-11-02T15:36:02Z</time>
      </trkpt>
      <trkpt lat="44.32596" lon="6.29308">
        <ele>1768.2</ele>
        <time>2021-11-02T15:36:07Z</time>
      </trkpt>
      <trkpt lat="44.32596" lon="6.29308">
        <ele>1768.7</ele>
        <time>2021-11-02T15:36:12Z</time>
      </trkpt>
      <trkpt lat="44.32596" lon="6.29306">
        <ele>1771.1</ele>
        <time>2021-11-02T15:36:17Z</time>
      </trkpt>
      <trkpt lat="44.32596" lon="6.29307">
        <ele>1771.7</ele>
        <time>2021-11-02T15:36:23Z</time>
      </trkpt>
      <trkpt lat="44.32596" lon="6.29307">
        <ele>1771.6</ele>
        <time>2021-11-02T15:36:29Z</time>
      </trkpt>
      <trkpt lat="44.32596" lon="6.29307">
        <ele>1771.5</ele>
        <time>2021-11-02T15:36:35Z</time>
      </trkpt>
      <trkpt lat="44.32596" lon="6.29308">
        <ele>1772.5</ele>
        <time>2021-11-02T15:36:41Z</time>
      </trkpt>
      <trkpt lat="44.32596" lon="6.29308">
        <ele>1771.1</ele>
        <time>2021-11-02T15:36:47Z</time>
      </trkpt>
      <trkpt lat="44.32596" lon="6.29308">
        <ele>1771.2</ele>
        <time>2021-11-02T15:36:53Z</time>
      </trkpt>
      <trkpt lat="44.32596" lon="6.29308">
        <ele>1771.2</ele>
        <time>2021-11-02T15:36:59Z</time>
      </trkpt>
      <trkpt lat="44.32596" lon="6.29308">
        <ele>1771.2</ele>
        <time>2021-11-02T15:37:05Z</time>
      </trkpt>
      <trkpt lat="44.32596" lon="6.29308">
        <ele>1771.3</ele>
        <time>2021-11-02T15:37:10Z</time>
      </trkpt>
      <trkpt lat="44.32596" lon="6.29308">
        <ele>1771.2</ele>
        <time>2021-11-02T15:37:16Z</time>
      </trkpt>
      <trkpt lat="44.32596" lon="6.29308">
        <ele>1771.2</ele>
        <time>2021-11-02T15:37:21Z</time>
      </trkpt>
      <trkpt lat="44.32596" lon="6.29308">
        <ele>1771.2</ele>
        <time>2021-11-02T15:37:26Z</time>
      </trkpt>
      <trkpt lat="44.32596" lon="6.29308">
        <ele>1771.1</ele>
        <time>2021-11-02T15:37:32Z</time>
      </trkpt>
      <trkpt lat="44.32595" lon="6.2931">
        <ele>1771.2</ele>
        <time>2021-11-02T15:37:38Z</time>
      </trkpt>
      <trkpt lat="44.32596" lon="6.29309">
        <ele>1770.4</ele>
        <time>2021-11-02T15:37:43Z</time>
      </trkpt>
      <trkpt lat="44.32596" lon="6.29309">
        <ele>1770.4</ele>
        <time>2021-11-02T15:37:49Z</time>
      </trkpt>
      <trkpt lat="44.32596" lon="6.29309">
        <ele>1770.4</ele>
        <time>2021-11-02T15:37:54Z</time>
      </trkpt>
      <trkpt lat="44.32596" lon="6.29309">
        <ele>1770.3</ele>
        <time>2021-11-02T15:37:59Z</time>
      </trkpt>
      <trkpt lat="44.32596" lon="6.29311">
        <ele>1771.2</ele>
        <time>2021-11-02T15:38:05Z</time>
      </trkpt>
      <trkpt lat="44.32596" lon="6.29308">
        <ele>1769.5</ele>
        <time>2021-11-02T15:38:10Z</time>
      </trkpt>
      <trkpt lat="44.326" lon="6.29287">
        <ele>1766.3</ele>
        <time>2021-11-02T15:38:16Z</time>
      </trkpt>
      <trkpt lat="44.32604" lon="6.29261">
        <ele>1764</ele>
        <time>2021-11-02T15:38:22Z</time>
      </trkpt>
      <trkpt lat="44.3261" lon="6.29237">
        <ele>1760.2</ele>
        <time>2021-11-02T15:38:27Z</time>
      </trkpt>
      <trkpt lat="44.32622" lon="6.29209">
        <ele>1755.8</ele>
        <time>2021-11-02T15:38:32Z</time>
      </trkpt>
      <trkpt lat="44.32632" lon="6.29188">
        <ele>1752.9</ele>
        <time>2021-11-02T15:38:38Z</time>
      </trkpt>
      <trkpt lat="44.32645" lon="6.29161">
        <ele>1750</ele>
        <time>2021-11-02T15:38:43Z</time>
      </trkpt>
      <trkpt lat="44.32659" lon="6.29144">
        <ele>1747.4</ele>
        <time>2021-11-02T15:38:48Z</time>
      </trkpt>
      <trkpt lat="44.32674" lon="6.29119">
        <ele>1741.3</ele>
        <time>2021-11-02T15:38:53Z</time>
      </trkpt>
      <trkpt lat="44.32683" lon="6.29084">
        <ele>1739.1</ele>
        <time>2021-11-02T15:38:59Z</time>
      </trkpt>
      <trkpt lat="44.32692" lon="6.29057">
        <ele>1732.6</ele>
        <time>2021-11-02T15:39:04Z</time>
      </trkpt>
      <trkpt lat="44.3271" lon="6.29038">
        <ele>1728.8</ele>
        <time>2021-11-02T15:39:09Z</time>
      </trkpt>
      <trkpt lat="44.32718" lon="6.29019">
        <ele>1729.4</ele>
        <time>2021-11-02T15:39:14Z</time>
      </trkpt>
      <trkpt lat="44.32724" lon="6.29001">
        <ele>1728.9</ele>
        <time>2021-11-02T15:39:20Z</time>
      </trkpt>
      <trkpt lat="44.32728" lon="6.2899">
        <ele>1727.5</ele>
        <time>2021-11-02T15:39:25Z</time>
      </trkpt>
      <trkpt lat="44.3273" lon="6.28973">
        <ele>1731.1</ele>
        <time>2021-11-02T15:39:30Z</time>
      </trkpt>
      <trkpt lat="44.32723" lon="6.28951">
        <ele>1732.6</ele>
        <time>2021-11-02T15:39:36Z</time>
      </trkpt>
      <trkpt lat="44.32711" lon="6.28933">
        <ele>1732.4</ele>
        <time>2021-11-02T15:39:42Z</time>
      </trkpt>
      <trkpt lat="44.32709" lon="6.28912">
        <ele>1732.7</ele>
        <time>2021-11-02T15:39:48Z</time>
      </trkpt>
      <trkpt lat="44.32726" lon="6.28896">
        <ele>1730</ele>
        <time>2021-11-02T15:39:54Z</time>
      </trkpt>
      <trkpt lat="44.32744" lon="6.28895">
        <ele>1728</ele>
        <time>2021-11-02T15:39:59Z</time>
      </trkpt>
      <trkpt lat="44.32766" lon="6.28881">
        <ele>1724.4</ele>
        <time>2021-11-02T15:40:05Z</time>
      </trkpt>
      <trkpt lat="44.3279" lon="6.28853">
        <ele>1721.6</ele>
        <time>2021-11-02T15:40:11Z</time>
      </trkpt>
      <trkpt lat="44.32806" lon="6.28823">
        <ele>1721.2</ele>
        <time>2021-11-02T15:40:16Z</time>
      </trkpt>
      <trkpt lat="44.32814" lon="6.2879">
        <ele>1717.2</ele>
        <time>2021-11-02T15:40:22Z</time>
      </trkpt>
      <trkpt lat="44.32801" lon="6.28767">
        <ele>1714.6</ele>
        <time>2021-11-02T15:40:27Z</time>
      </trkpt>
      <trkpt lat="44.32779" lon="6.28735">
        <ele>1714.5</ele>
        <time>2021-11-02T15:40:33Z</time>
      </trkpt>
      <trkpt lat="44.32788" lon="6.28701">
        <ele>1714.7</ele>
        <time>2021-11-02T15:40:39Z</time>
      </trkpt>
      <trkpt lat="44.32817" lon="6.28683">
        <ele>1707.4</ele>
        <time>2021-11-02T15:40:45Z</time>
      </trkpt>
      <trkpt lat="44.32842" lon="6.28673">
        <ele>1703.1</ele>
        <time>2021-11-02T15:40:50Z</time>
      </trkpt>
      <trkpt lat="44.32863" lon="6.2868">
        <ele>1699.3</ele>
        <time>2021-11-02T15:40:55Z</time>
      </trkpt>
      <trkpt lat="44.32879" lon="6.28704">
        <ele>1701.3</ele>
        <time>2021-11-02T15:41:01Z</time>
      </trkpt>
      <trkpt lat="44.32902" lon="6.28711">
        <ele>1698.3</ele>
        <time>2021-11-02T15:41:07Z</time>
      </trkpt>
      <trkpt lat="44.32915" lon="6.28715">
        <ele>1701.7</ele>
        <time>2021-11-02T15:41:13Z</time>
      </trkpt>
      <trkpt lat="44.3292" lon="6.28699">
        <ele>1701.8</ele>
        <time>2021-11-02T15:41:19Z</time>
      </trkpt>
      <trkpt lat="44.32914" lon="6.28666">
        <ele>1706.7</ele>
        <time>2021-11-02T15:41:24Z</time>
      </trkpt>
      <trkpt lat="44.32927" lon="6.2862">
        <ele>1706.1</ele>
        <time>2021-11-02T15:41:30Z</time>
      </trkpt>
      <trkpt lat="44.32929" lon="6.28581">
        <ele>1702.4</ele>
        <time>2021-11-02T15:41:35Z</time>
      </trkpt>
      <trkpt lat="44.32919" lon="6.28537">
        <ele>1700</ele>
        <time>2021-11-02T15:41:41Z</time>
      </trkpt>
      <trkpt lat="44.32913" lon="6.28491">
        <ele>1696.3</ele>
        <time>2021-11-02T15:41:47Z</time>
      </trkpt>
      <trkpt lat="44.32927" lon="6.28457">
        <ele>1690.9</ele>
        <time>2021-11-02T15:41:52Z</time>
      </trkpt>
      <trkpt lat="44.3294" lon="6.28432">
        <ele>1688.6</ele>
        <time>2021-11-02T15:41:57Z</time>
      </trkpt>
      <trkpt lat="44.32959" lon="6.28403">
        <ele>1686.1</ele>
        <time>2021-11-02T15:42:03Z</time>
      </trkpt>
      <trkpt lat="44.3297" lon="6.28388">
        <ele>1684.2</ele>
        <time>2021-11-02T15:42:09Z</time>
      </trkpt>
      <trkpt lat="44.32979" lon="6.28381">
        <ele>1679.5</ele>
        <time>2021-11-02T15:42:15Z</time>
      </trkpt>
      <trkpt lat="44.32994" lon="6.2838">
        <ele>1680.3</ele>
        <time>2021-11-02T15:42:20Z</time>
      </trkpt>
      <trkpt lat="44.33007" lon="6.28382">
        <ele>1677.3</ele>
        <time>2021-11-02T15:42:25Z</time>
      </trkpt>
      <trkpt lat="44.33006" lon="6.28362">
        <ele>1678.5</ele>
        <time>2021-11-02T15:42:31Z</time>
      </trkpt>
      <trkpt lat="44.33" lon="6.28343">
        <ele>1676.1</ele>
        <time>2021-11-02T15:42:36Z</time>
      </trkpt>
      <trkpt lat="44.32992" lon="6.28336">
        <ele>1685.4</ele>
        <time>2021-11-02T15:42:41Z</time>
      </trkpt>
      <trkpt lat="44.32981" lon="6.28323">
        <ele>1687</ele>
        <time>2021-11-02T15:42:47Z</time>
      </trkpt>
      <trkpt lat="44.32972" lon="6.28313">
        <ele>1689.2</ele>
        <time>2021-11-02T15:42:52Z</time>
      </trkpt>
      <trkpt lat="44.32962" lon="6.28306">
        <ele>1692.8</ele>
        <time>2021-11-02T15:42:57Z</time>
      </trkpt>
      <trkpt lat="44.32947" lon="6.28301">
        <ele>1694.9</ele>
        <time>2021-11-02T15:43:03Z</time>
      </trkpt>
      <trkpt lat="44.32935" lon="6.28297">
        <ele>1694.2</ele>
        <time>2021-11-02T15:43:08Z</time>
      </trkpt>
      <trkpt lat="44.3292" lon="6.28297">
        <ele>1695.5</ele>
        <time>2021-11-02T15:43:14Z</time>
      </trkpt>
      <trkpt lat="44.32905" lon="6.28299">
        <ele>1696.1</ele>
        <time>2021-11-02T15:43:20Z</time>
      </trkpt>
      <trkpt lat="44.32891" lon="6.283">
        <ele>1699.2</ele>
        <time>2021-11-02T15:43:26Z</time>
      </trkpt>
      <trkpt lat="44.3288" lon="6.28296">
        <ele>1701.2</ele>
        <time>2021-11-02T15:43:31Z</time>
      </trkpt>
      <trkpt lat="44.32866" lon="6.2829">
        <ele>1701.3</ele>
        <time>2021-11-02T15:43:37Z</time>
      </trkpt>
      <trkpt lat="44.32855" lon="6.28281">
        <ele>1704.3</ele>
        <time>2021-11-02T15:43:43Z</time>
      </trkpt>
      <trkpt lat="44.32852" lon="6.28265">
        <ele>1624.8</ele>
        <time>2021-11-02T15:43:48Z</time>
      </trkpt>
      <trkpt lat="44.3285" lon="6.28246">
        <ele>1682.5</ele>
        <time>2021-11-02T15:43:53Z</time>
      </trkpt>
      <trkpt lat="44.32845" lon="6.28212">
        <ele>1696.8</ele>
        <time>2021-11-02T15:43:59Z</time>
      </trkpt>
      <trkpt lat="44.3284" lon="6.28185">
        <ele>1700.9</ele>
        <time>2021-11-02T15:44:04Z</time>
      </trkpt>
      <trkpt lat="44.32836" lon="6.2816">
        <ele>1700.4</ele>
        <time>2021-11-02T15:44:10Z</time>
      </trkpt>
      <trkpt lat="44.32831" lon="6.28148">
        <ele>1701.2</ele>
        <time>2021-11-02T15:44:16Z</time>
      </trkpt>
      <trkpt lat="44.32822" lon="6.28141">
        <ele>1703.5</ele>
        <time>2021-11-02T15:44:21Z</time>
      </trkpt>
      <trkpt lat="44.32814" lon="6.28128">
        <ele>1706.3</ele>
        <time>2021-11-02T15:44:26Z</time>
      </trkpt>
      <trkpt lat="44.32806" lon="6.28108">
        <ele>1708.3</ele>
        <time>2021-11-02T15:44:32Z</time>
      </trkpt>
      <trkpt lat="44.32799" lon="6.28096">
        <ele>1708.8</ele>
        <time>2021-11-02T15:44:37Z</time>
      </trkpt>
      <trkpt lat="44.32793" lon="6.28115">
        <ele>1708.8</ele>
        <time>2021-11-02T15:44:43Z</time>
      </trkpt>
      <trkpt lat="44.3279" lon="6.28135">
        <ele>1709.8</ele>
        <time>2021-11-02T15:44:49Z</time>
      </trkpt>
      <trkpt lat="44.32785" lon="6.28152">
        <ele>1711.7</ele>
        <time>2021-11-02T15:44:55Z</time>
      </trkpt>
      <trkpt lat="44.3278" lon="6.28165">
        <ele>1713.8</ele>
        <time>2021-11-02T15:45:00Z</time>
      </trkpt>
      <trkpt lat="44.32774" lon="6.28178">
        <ele>1717.9</ele>
        <time>2021-11-02T15:45:05Z</time>
      </trkpt>
      <trkpt lat="44.32768" lon="6.2819">
        <ele>1720</ele>
        <time>2021-11-02T15:45:11Z</time>
      </trkpt>
      <trkpt lat="44.32766" lon="6.28191">
        <ele>1721.6</ele>
        <time>2021-11-02T15:45:17Z</time>
      </trkpt>
      <trkpt lat="44.32763" lon="6.28195">
        <ele>1722.7</ele>
        <time>2021-11-02T15:45:22Z</time>
      </trkpt>
      <trkpt lat="44.32754" lon="6.28199">
        <ele>1726.1</ele>
        <time>2021-11-02T15:45:28Z</time>
      </trkpt>
      <trkpt lat="44.32746" lon="6.28203">
        <ele>1729.2</ele>
        <time>2021-11-02T15:45:33Z</time>
      </trkpt>
      <trkpt lat="44.32735" lon="6.2821">
        <ele>1733.3</ele>
        <time>2021-11-02T15:45:39Z</time>
      </trkpt>
      <trkpt lat="44.32727" lon="6.28212">
        <ele>1735</ele>
        <time>2021-11-02T15:45:45Z</time>
      </trkpt>
      <trkpt lat="44.32727" lon="6.28211">
        <ele>1736.9</ele>
        <time>2021-11-02T15:45:50Z</time>
      </trkpt>
      <trkpt lat="44.32726" lon="6.28212">
        <ele>1735.5</ele>
        <time>2021-11-02T15:45:56Z</time>
      </trkpt>
      <trkpt lat="44.32723" lon="6.28212">
        <ele>1737.5</ele>
        <time>2021-11-02T15:46:01Z</time>
      </trkpt>
      <trkpt lat="44.32717" lon="6.28211">
        <ele>1739.2</ele>
        <time>2021-11-02T15:46:07Z</time>
      </trkpt>
      <trkpt lat="44.32713" lon="6.28208">
        <ele>1740.1</ele>
        <time>2021-11-02T15:46:13Z</time>
      </trkpt>
      <trkpt lat="44.3271" lon="6.28204">
        <ele>1740.3</ele>
        <time>2021-11-02T15:46:19Z</time>
      </trkpt>
      <trkpt lat="44.32708" lon="6.28201">
        <ele>1741.7</ele>
        <time>2021-11-02T15:46:25Z</time>
      </trkpt>
      <trkpt lat="44.32709" lon="6.28203">
        <ele>1742.9</ele>
        <time>2021-11-02T15:46:31Z</time>
      </trkpt>
      <trkpt lat="44.32709" lon="6.28205">
        <ele>1661.4</ele>
        <time>2021-11-02T15:46:37Z</time>
      </trkpt>
      <trkpt lat="44.32709" lon="6.28205">
        <ele>1709.4</ele>
        <time>2021-11-02T15:46:42Z</time>
      </trkpt>
      <trkpt lat="44.32709" lon="6.28205">
        <ele>1729.2</ele>
        <time>2021-11-02T15:46:48Z</time>
      </trkpt>
      <trkpt lat="44.32709" lon="6.28205">
        <ele>1734.4</ele>
        <time>2021-11-02T15:46:53Z</time>
      </trkpt>
      <trkpt lat="44.32712" lon="6.28202">
        <ele>1734.5</ele>
        <time>2021-11-02T15:46:59Z</time>
      </trkpt>
      <trkpt lat="44.32712" lon="6.28199">
        <ele>1739.6</ele>
        <time>2021-11-02T15:47:05Z</time>
      </trkpt>
      <trkpt lat="44.32715" lon="6.28191">
        <ele>1604.9</ele>
        <time>2021-11-02T15:47:11Z</time>
      </trkpt>
      <trkpt lat="44.32717" lon="6.28189">
        <ele>1704.8</ele>
        <time>2021-11-02T15:47:17Z</time>
      </trkpt>
      <trkpt lat="44.3271" lon="6.28195">
        <ele>1731.8</ele>
        <time>2021-11-02T15:47:23Z</time>
      </trkpt>
      <trkpt lat="44.32706" lon="6.28186">
        <ele>1624</ele>
        <time>2021-11-02T15:47:29Z</time>
      </trkpt>
      <trkpt lat="44.32707" lon="6.28171">
        <ele>1609.9</ele>
        <time>2021-11-02T15:47:35Z</time>
      </trkpt>
      <trkpt lat="44.32704" lon="6.28158">
        <ele>1649.9</ele>
        <time>2021-11-02T15:47:41Z</time>
      </trkpt>
      <trkpt lat="44.32701" lon="6.28142">
        <ele>1727.7</ele>
        <time>2021-11-02T15:47:47Z</time>
      </trkpt>
      <trkpt lat="44.32699" lon="6.28131">
        <ele>1742.7</ele>
        <time>2021-11-02T15:47:52Z</time>
      </trkpt>
      <trkpt lat="44.32697" lon="6.28122">
        <ele>1636.6</ele>
        <time>2021-11-02T15:47:57Z</time>
      </trkpt>
      <trkpt lat="44.32698" lon="6.28117">
        <ele>1716.7</ele>
        <time>2021-11-02T15:48:03Z</time>
      </trkpt>
      <trkpt lat="44.32699" lon="6.28116">
        <ele>1743.3</ele>
        <time>2021-11-02T15:48:09Z</time>
      </trkpt>
      <trkpt lat="44.327" lon="6.28117">
        <ele>1747.5</ele>
        <time>2021-11-02T15:48:14Z</time>
      </trkpt>
      <trkpt lat="44.327" lon="6.28117">
        <ele>1751</ele>
        <time>2021-11-02T15:48:20Z</time>
      </trkpt>
      <trkpt lat="44.32699" lon="6.28123">
        <ele>1754</ele>
        <time>2021-11-02T15:48:26Z</time>
      </trkpt>
      <trkpt lat="44.32701" lon="6.28125">
        <ele>1754.9</ele>
        <time>2021-11-02T15:48:31Z</time>
      </trkpt>
      <trkpt lat="44.32702" lon="6.28127">
        <ele>1756.5</ele>
        <time>2021-11-02T15:48:37Z</time>
      </trkpt>
      <trkpt lat="44.32702" lon="6.28139">
        <ele>1756.6</ele>
        <time>2021-11-02T15:48:43Z</time>
      </trkpt>
      <trkpt lat="44.32702" lon="6.28152">
        <ele>1756.3</ele>
        <time>2021-11-02T15:48:49Z</time>
      </trkpt>
      <trkpt lat="44.32695" lon="6.28162">
        <ele>1755.8</ele>
        <time>2021-11-02T15:48:55Z</time>
      </trkpt>
      <trkpt lat="44.32687" lon="6.28168">
        <ele>1759.5</ele>
        <time>2021-11-02T15:49:00Z</time>
      </trkpt>
      <trkpt lat="44.32679" lon="6.28169">
        <ele>1758.5</ele>
        <time>2021-11-02T15:49:06Z</time>
      </trkpt>
      <trkpt lat="44.32674" lon="6.28165">
        <ele>1761.9</ele>
        <time>2021-11-02T15:49:11Z</time>
      </trkpt>
      <trkpt lat="44.32681" lon="6.28159">
        <ele>1761.6</ele>
        <time>2021-11-02T15:49:17Z</time>
      </trkpt>
      <trkpt lat="44.32679" lon="6.28153">
        <ele>1761.3</ele>
        <time>2021-11-02T15:49:22Z</time>
      </trkpt>
      <trkpt lat="44.32669" lon="6.28146">
        <ele>1765.1</ele>
        <time>2021-11-02T15:49:28Z</time>
      </trkpt>
      <trkpt lat="44.32661" lon="6.28133">
        <ele>1768.7</ele>
        <time>2021-11-02T15:49:33Z</time>
      </trkpt>
      <trkpt lat="44.32652" lon="6.2812">
        <ele>1768.6</ele>
        <time>2021-11-02T15:49:39Z</time>
      </trkpt>
      <trkpt lat="44.32641" lon="6.28106">
        <ele>1773.8</ele>
        <time>2021-11-02T15:49:45Z</time>
      </trkpt>
      <trkpt lat="44.32633" lon="6.28093">
        <ele>1642.1</ele>
        <time>2021-11-02T15:49:50Z</time>
      </trkpt>
      <trkpt lat="44.32625" lon="6.28079">
        <ele>1667.8</ele>
        <time>2021-11-02T15:49:55Z</time>
      </trkpt>
      <trkpt lat="44.32615" lon="6.28064">
        <ele>1753.1</ele>
        <time>2021-11-02T15:50:01Z</time>
      </trkpt>
      <trkpt lat="44.32608" lon="6.2805">
        <ele>1766.8</ele>
        <time>2021-11-02T15:50:06Z</time>
      </trkpt>
      <trkpt lat="44.32599" lon="6.28035">
        <ele>1773.8</ele>
        <time>2021-11-02T15:50:12Z</time>
      </trkpt>
      <trkpt lat="44.32593" lon="6.28019">
        <ele>1778</ele>
        <time>2021-11-02T15:50:18Z</time>
      </trkpt>
      <trkpt lat="44.32588" lon="6.28005">
        <ele>1782.1</ele>
        <time>2021-11-02T15:50:23Z</time>
      </trkpt>
      <trkpt lat="44.32585" lon="6.27993">
        <ele>1784.3</ele>
        <time>2021-11-02T15:50:28Z</time>
      </trkpt>
      <trkpt lat="44.32585" lon="6.27992">
        <ele>1785.8</ele>
        <time>2021-11-02T15:50:34Z</time>
      </trkpt>
      <trkpt lat="44.32585" lon="6.2799">
        <ele>1787.1</ele>
        <time>2021-11-02T15:50:39Z</time>
      </trkpt>
      <trkpt lat="44.32583" lon="6.27985">
        <ele>1789.6</ele>
        <time>2021-11-02T15:50:45Z</time>
      </trkpt>
      <trkpt lat="44.32582" lon="6.27982">
        <ele>1789.2</ele>
        <time>2021-11-02T15:50:50Z</time>
      </trkpt>
      <trkpt lat="44.32584" lon="6.27979">
        <ele>1786</ele>
        <time>2021-11-02T15:50:56Z</time>
      </trkpt>
      <trkpt lat="44.32585" lon="6.27982">
        <ele>1788.5</ele>
        <time>2021-11-02T15:51:02Z</time>
      </trkpt>
      <trkpt lat="44.32585" lon="6.27982">
        <ele>1788.2</ele>
        <time>2021-11-02T15:51:08Z</time>
      </trkpt>
      <trkpt lat="44.32585" lon="6.27982">
        <ele>1788.2</ele>
        <time>2021-11-02T15:51:14Z</time>
      </trkpt>
      <trkpt lat="44.32585" lon="6.27982">
        <ele>1788.2</ele>
        <time>2021-11-02T15:51:19Z</time>
      </trkpt>
      <trkpt lat="44.32585" lon="6.27982">
        <ele>1788.4</ele>
        <time>2021-11-02T15:51:24Z</time>
      </trkpt>
      <trkpt lat="44.32585" lon="6.27982">
        <ele>1788.6</ele>
        <time>2021-11-02T15:51:30Z</time>
      </trkpt>
      <trkpt lat="44.32584" lon="6.27975">
        <ele>1790.3</ele>
        <time>2021-11-02T15:51:36Z</time>
      </trkpt>
      <trkpt lat="44.32584" lon="6.27971">
        <ele>1788.8</ele>
        <time>2021-11-02T15:51:41Z</time>
      </trkpt>
      <trkpt lat="44.32584" lon="6.27965">
        <ele>1696.3</ele>
        <time>2021-11-02T15:51:47Z</time>
      </trkpt>
      <trkpt lat="44.32583" lon="6.27958">
        <ele>1757.2</ele>
        <time>2021-11-02T15:51:53Z</time>
      </trkpt>
      <trkpt lat="44.32583" lon="6.27951">
        <ele>1774.8</ele>
        <time>2021-11-02T15:51:58Z</time>
      </trkpt>
      <trkpt lat="44.32581" lon="6.27944">
        <ele>1745.7</ele>
        <time>2021-11-02T15:52:04Z</time>
      </trkpt>
      <trkpt lat="44.32581" lon="6.27938">
        <ele>1769.1</ele>
        <time>2021-11-02T15:52:09Z</time>
      </trkpt>
      <trkpt lat="44.3258" lon="6.27931">
        <ele>1785.8</ele>
        <time>2021-11-02T15:52:15Z</time>
      </trkpt>
      <trkpt lat="44.32581" lon="6.27926">
        <ele>1789.2</ele>
        <time>2021-11-02T15:52:20Z</time>
      </trkpt>
      <trkpt lat="44.32583" lon="6.27927">
        <ele>1791.4</ele>
        <time>2021-11-02T15:52:26Z</time>
      </trkpt>
      <trkpt lat="44.32584" lon="6.27928">
        <ele>1791.5</ele>
        <time>2021-11-02T15:52:32Z</time>
      </trkpt>
      <trkpt lat="44.32583" lon="6.27922">
        <ele>1668.9</ele>
        <time>2021-11-02T15:52:38Z</time>
      </trkpt>
      <trkpt lat="44.32583" lon="6.27915">
        <ele>1759.4</ele>
        <time>2021-11-02T15:52:43Z</time>
      </trkpt>
      <trkpt lat="44.32585" lon="6.27908">
        <ele>1784.2</ele>
        <time>2021-11-02T15:52:49Z</time>
      </trkpt>
      <trkpt lat="44.32585" lon="6.27903">
        <ele>1792.2</ele>
        <time>2021-11-02T15:52:55Z</time>
      </trkpt>
      <trkpt lat="44.32585" lon="6.27899">
        <ele>1797.1</ele>
        <time>2021-11-02T15:53:00Z</time>
      </trkpt>
      <trkpt lat="44.32584" lon="6.27898">
        <ele>1797.7</ele>
        <time>2021-11-02T15:53:06Z</time>
      </trkpt>
      <trkpt lat="44.32584" lon="6.27898">
        <ele>1799</ele>
        <time>2021-11-02T15:53:11Z</time>
      </trkpt>
      <trkpt lat="44.32584" lon="6.27899">
        <ele>1799.5</ele>
        <time>2021-11-02T15:53:17Z</time>
      </trkpt>
      <trkpt lat="44.32585" lon="6.27899">
        <ele>1798.5</ele>
        <time>2021-11-02T15:53:22Z</time>
      </trkpt>
      <trkpt lat="44.32585" lon="6.27898">
        <ele>1737.7</ele>
        <time>2021-11-02T15:53:28Z</time>
      </trkpt>
      <trkpt lat="44.32586" lon="6.27898">
        <ele>1785.8</ele>
        <time>2021-11-02T15:53:34Z</time>
      </trkpt>
      <trkpt lat="44.32586" lon="6.27899">
        <ele>1795.9</ele>
        <time>2021-11-02T15:53:40Z</time>
      </trkpt>
      <trkpt lat="44.32587" lon="6.27898">
        <ele>1799.4</ele>
        <time>2021-11-02T15:53:45Z</time>
      </trkpt>
      <trkpt lat="44.32586" lon="6.27898">
        <ele>1801.1</ele>
        <time>2021-11-02T15:53:51Z</time>
      </trkpt>
      <trkpt lat="44.32586" lon="6.27898">
        <ele>1801.7</ele>
        <time>2021-11-02T15:53:56Z</time>
      </trkpt>
      <trkpt lat="44.32586" lon="6.27898">
        <ele>1802.2</ele>
        <time>2021-11-02T15:54:01Z</time>
      </trkpt>
      <trkpt lat="44.32586" lon="6.27898">
        <ele>1802.7</ele>
        <time>2021-11-02T15:54:07Z</time>
      </trkpt>
      <trkpt lat="44.32586" lon="6.27898">
        <ele>1802.8</ele>
        <time>2021-11-02T15:54:12Z</time>
      </trkpt>
      <trkpt lat="44.32586" lon="6.27898">
        <ele>1803.1</ele>
        <time>2021-11-02T15:54:18Z</time>
      </trkpt>
      <trkpt lat="44.32586" lon="6.27898">
        <ele>1803.1</ele>
        <time>2021-11-02T15:54:23Z</time>
      </trkpt>
      <trkpt lat="44.32586" lon="6.27898">
        <ele>1803.3</ele>
        <time>2021-11-02T15:54:29Z</time>
      </trkpt>
      <trkpt lat="44.32586" lon="6.27898">
        <ele>1803.3</ele>
        <time>2021-11-02T15:54:34Z</time>
      </trkpt>
      <trkpt lat="44.32586" lon="6.27898">
        <ele>1803.3</ele>
        <time>2021-11-02T15:54:39Z</time>
      </trkpt>
      <trkpt lat="44.32586" lon="6.27898">
        <ele>1803.5</ele>
        <time>2021-11-02T15:54:45Z</time>
      </trkpt>
      <trkpt lat="44.32586" lon="6.27898">
        <ele>1803.4</ele>
        <time>2021-11-02T15:54:51Z</time>
      </trkpt>
      <trkpt lat="44.32586" lon="6.27898">
        <ele>1803.5</ele>
        <time>2021-11-02T15:54:57Z</time>
      </trkpt>
      <trkpt lat="44.32586" lon="6.27898">
        <ele>1803.5</ele>
        <time>2021-11-02T15:55:02Z</time>
      </trkpt>
      <trkpt lat="44.32586" lon="6.27898">
        <ele>1803.5</ele>
        <time>2021-11-02T15:55:07Z</time>
      </trkpt>
      <trkpt lat="44.32586" lon="6.27898">
        <ele>1803.6</ele>
        <time>2021-11-02T15:55:13Z</time>
      </trkpt>
      <trkpt lat="44.32586" lon="6.27898">
        <ele>1803.7</ele>
        <time>2021-11-02T15:55:18Z</time>
      </trkpt>
      <trkpt lat="44.32586" lon="6.27897">
        <ele>1802.6</ele>
        <time>2021-11-02T15:55:24Z</time>
      </trkpt>
      <trkpt lat="44.32587" lon="6.27896">
        <ele>1803.4</ele>
        <time>2021-11-02T15:55:30Z</time>
      </trkpt>
      <trkpt lat="44.32588" lon="6.27897">
        <ele>1803.9</ele>
        <time>2021-11-02T15:55:35Z</time>
      </trkpt>
      <trkpt lat="44.32589" lon="6.27897">
        <ele>1804.2</ele>
        <time>2021-11-02T15:55:40Z</time>
      </trkpt>
      <trkpt lat="44.32586" lon="6.2785">
        <ele>1821.7</ele>
        <time>2021-11-02T16:02:56Z</time>
      </trkpt>
      <trkpt lat="44.32589" lon="6.27853">
        <ele>1813</ele>
        <time>2021-11-02T16:03:02Z</time>
      </trkpt>
      <trkpt lat="44.3259" lon="6.27854">
        <ele>1812.6</ele>
        <time>2021-11-02T16:03:08Z</time>
      </trkpt>
      <trkpt lat="44.32589" lon="6.27854">
        <ele>1810.4</ele>
        <time>2021-11-02T16:03:14Z</time>
      </trkpt>
      <trkpt lat="44.32589" lon="6.27856">
        <ele>1810</ele>
        <time>2021-11-02T16:03:19Z</time>
      </trkpt>
      <trkpt lat="44.3259" lon="6.27855">
        <ele>1810</ele>
        <time>2021-11-02T16:03:24Z</time>
      </trkpt>
      <trkpt lat="44.32591" lon="6.27838">
        <ele>1811.5</ele>
        <time>2021-11-02T16:03:29Z</time>
      </trkpt>
      <trkpt lat="44.32592" lon="6.27817">
        <ele>1812.2</ele>
        <time>2021-11-02T16:03:35Z</time>
      </trkpt>
      <trkpt lat="44.32594" lon="6.27797">
        <ele>1813.5</ele>
        <time>2021-11-02T16:03:40Z</time>
      </trkpt>
      <trkpt lat="44.32597" lon="6.27775">
        <ele>1815.9</ele>
        <time>2021-11-02T16:03:46Z</time>
      </trkpt>
      <trkpt lat="44.326" lon="6.27754">
        <ele>1817.9</ele>
        <time>2021-11-02T16:03:52Z</time>
      </trkpt>
      <trkpt lat="44.32603" lon="6.27739">
        <ele>1820.4</ele>
        <time>2021-11-02T16:03:57Z</time>
      </trkpt>
      <trkpt lat="44.32607" lon="6.27724">
        <ele>1822.5</ele>
        <time>2021-11-02T16:04:02Z</time>
      </trkpt>
      <trkpt lat="44.32614" lon="6.27708">
        <ele>1824.8</ele>
        <time>2021-11-02T16:04:08Z</time>
      </trkpt>
      <trkpt lat="44.32618" lon="6.27693">
        <ele>1826.8</ele>
        <time>2021-11-02T16:04:13Z</time>
      </trkpt>
      <trkpt lat="44.32622" lon="6.27676">
        <ele>1829.1</ele>
        <time>2021-11-02T16:04:19Z</time>
      </trkpt>
      <trkpt lat="44.32627" lon="6.27661">
        <ele>1829.9</ele>
        <time>2021-11-02T16:04:24Z</time>
      </trkpt>
      <trkpt lat="44.32633" lon="6.27644">
        <ele>1830.7</ele>
        <time>2021-11-02T16:04:30Z</time>
      </trkpt>
      <trkpt lat="44.32639" lon="6.27628">
        <ele>1831.9</ele>
        <time>2021-11-02T16:04:35Z</time>
      </trkpt>
      <trkpt lat="44.32645" lon="6.2761">
        <ele>1832.9</ele>
        <time>2021-11-02T16:04:41Z</time>
      </trkpt>
      <trkpt lat="44.32652" lon="6.27592">
        <ele>1834.3</ele>
        <time>2021-11-02T16:04:47Z</time>
      </trkpt>
      <trkpt lat="44.3266" lon="6.2758">
        <ele>1834.6</ele>
        <time>2021-11-02T16:04:52Z</time>
      </trkpt>
      <trkpt lat="44.32668" lon="6.27569">
        <ele>1834.3</ele>
        <time>2021-11-02T16:04:57Z</time>
      </trkpt>
      <trkpt lat="44.32677" lon="6.27557">
        <ele>1835.6</ele>
        <time>2021-11-02T16:05:03Z</time>
      </trkpt>
      <trkpt lat="44.32682" lon="6.27545">
        <ele>1835.8</ele>
        <time>2021-11-02T16:05:08Z</time>
      </trkpt>
      <trkpt lat="44.32686" lon="6.27533">
        <ele>1834.3</ele>
        <time>2021-11-02T16:05:14Z</time>
      </trkpt>
      <trkpt lat="44.32686" lon="6.27516">
        <ele>1833.2</ele>
        <time>2021-11-02T16:05:20Z</time>
      </trkpt>
      <trkpt lat="44.32681" lon="6.27503">
        <ele>1834.3</ele>
        <time>2021-11-02T16:05:25Z</time>
      </trkpt>
      <trkpt lat="44.32691" lon="6.27492">
        <ele>1835.4</ele>
        <time>2021-11-02T16:05:31Z</time>
      </trkpt>
      <trkpt lat="44.32696" lon="6.2748">
        <ele>1838.1</ele>
        <time>2021-11-02T16:05:36Z</time>
      </trkpt>
      <trkpt lat="44.32702" lon="6.27464">
        <ele>1840.3</ele>
        <time>2021-11-02T16:05:42Z</time>
      </trkpt>
      <trkpt lat="44.32708" lon="6.2745">
        <ele>1841.6</ele>
        <time>2021-11-02T16:05:47Z</time>
      </trkpt>
      <trkpt lat="44.32712" lon="6.27435">
        <ele>1841.5</ele>
        <time>2021-11-02T16:05:52Z</time>
      </trkpt>
      <trkpt lat="44.32721" lon="6.27418">
        <ele>1840.5</ele>
        <time>2021-11-02T16:05:58Z</time>
      </trkpt>
      <trkpt lat="44.32728" lon="6.27403">
        <ele>1842.2</ele>
        <time>2021-11-02T16:06:03Z</time>
      </trkpt>
      <trkpt lat="44.32734" lon="6.27388">
        <ele>1843.5</ele>
        <time>2021-11-02T16:06:08Z</time>
      </trkpt>
      <trkpt lat="44.32743" lon="6.27375">
        <ele>1845.9</ele>
        <time>2021-11-02T16:06:14Z</time>
      </trkpt>
      <trkpt lat="44.3275" lon="6.27365">
        <ele>1848.7</ele>
        <time>2021-11-02T16:06:20Z</time>
      </trkpt>
      <trkpt lat="44.32755" lon="6.27355">
        <ele>1850.7</ele>
        <time>2021-11-02T16:06:25Z</time>
      </trkpt>
      <trkpt lat="44.3276" lon="6.27345">
        <ele>1854.3</ele>
        <time>2021-11-02T16:06:31Z</time>
      </trkpt>
      <trkpt lat="44.32765" lon="6.27335">
        <ele>1855.5</ele>
        <time>2021-11-02T16:06:36Z</time>
      </trkpt>
      <trkpt lat="44.32766" lon="6.27332">
        <ele>1857.5</ele>
        <time>2021-11-02T16:06:42Z</time>
      </trkpt>
      <trkpt lat="44.32767" lon="6.27329">
        <ele>1858.9</ele>
        <time>2021-11-02T16:06:48Z</time>
      </trkpt>
      <trkpt lat="44.32768" lon="6.27325">
        <ele>1860</ele>
        <time>2021-11-02T16:06:54Z</time>
      </trkpt>
      <trkpt lat="44.3277" lon="6.27321">
        <ele>1860.5</ele>
        <time>2021-11-02T16:07:00Z</time>
      </trkpt>
      <trkpt lat="44.32772" lon="6.27318">
        <ele>1862</ele>
        <time>2021-11-02T16:07:06Z</time>
      </trkpt>
      <trkpt lat="44.32774" lon="6.27317">
        <ele>1862.6</ele>
        <time>2021-11-02T16:07:11Z</time>
      </trkpt>
      <trkpt lat="44.32777" lon="6.27315">
        <ele>1864.1</ele>
        <time>2021-11-02T16:07:17Z</time>
      </trkpt>
      <trkpt lat="44.32779" lon="6.27313">
        <ele>1864.5</ele>
        <time>2021-11-02T16:07:23Z</time>
      </trkpt>
      <trkpt lat="44.32781" lon="6.2731">
        <ele>1865.3</ele>
        <time>2021-11-02T16:07:29Z</time>
      </trkpt>
      <trkpt lat="44.32782" lon="6.2731">
        <ele>1866.5</ele>
        <time>2021-11-02T16:07:35Z</time>
      </trkpt>
      <trkpt lat="44.32782" lon="6.27311">
        <ele>1867.3</ele>
        <time>2021-11-02T16:07:40Z</time>
      </trkpt>
      <trkpt lat="44.32782" lon="6.27311">
        <ele>1867.3</ele>
        <time>2021-11-02T16:07:46Z</time>
      </trkpt>
      <trkpt lat="44.32784" lon="6.27307">
        <ele>1867.7</ele>
        <time>2021-11-02T16:07:52Z</time>
      </trkpt>
      <trkpt lat="44.32784" lon="6.27302">
        <ele>1867.8</ele>
        <time>2021-11-02T16:07:57Z</time>
      </trkpt>
      <trkpt lat="44.32785" lon="6.27298">
        <ele>1869.5</ele>
        <time>2021-11-02T16:08:03Z</time>
      </trkpt>
      <trkpt lat="44.32785" lon="6.27295">
        <ele>1870.6</ele>
        <time>2021-11-02T16:08:08Z</time>
      </trkpt>
      <trkpt lat="44.32786" lon="6.27293">
        <ele>1871.5</ele>
        <time>2021-11-02T16:08:14Z</time>
      </trkpt>
      <trkpt lat="44.32787" lon="6.27293">
        <ele>1873.2</ele>
        <time>2021-11-02T16:08:20Z</time>
      </trkpt>
      <trkpt lat="44.32786" lon="6.27294">
        <ele>1873.3</ele>
        <time>2021-11-02T16:08:26Z</time>
      </trkpt>
      <trkpt lat="44.32787" lon="6.2729">
        <ele>1873.5</ele>
        <time>2021-11-02T16:08:32Z</time>
      </trkpt>
      <trkpt lat="44.32788" lon="6.27287">
        <ele>1873.8</ele>
        <time>2021-11-02T16:08:37Z</time>
      </trkpt>
      <trkpt lat="44.32789" lon="6.27284">
        <ele>1875.1</ele>
        <time>2021-11-02T16:08:43Z</time>
      </trkpt>
      <trkpt lat="44.3279" lon="6.2728">
        <ele>1875.8</ele>
        <time>2021-11-02T16:08:48Z</time>
      </trkpt>
      <trkpt lat="44.32791" lon="6.27277">
        <ele>1876.6</ele>
        <time>2021-11-02T16:08:54Z</time>
      </trkpt>
      <trkpt lat="44.32792" lon="6.27274">
        <ele>1876.9</ele>
        <time>2021-11-02T16:09:00Z</time>
      </trkpt>
      <trkpt lat="44.32794" lon="6.27271">
        <ele>1877.8</ele>
        <time>2021-11-02T16:09:05Z</time>
      </trkpt>
      <trkpt lat="44.32795" lon="6.27271">
        <ele>1878.9</ele>
        <time>2021-11-02T16:09:11Z</time>
      </trkpt>
      <trkpt lat="44.32797" lon="6.2727">
        <ele>1879.4</ele>
        <time>2021-11-02T16:09:17Z</time>
      </trkpt>
      <trkpt lat="44.32797" lon="6.27267">
        <ele>1879.3</ele>
        <time>2021-11-02T16:09:22Z</time>
      </trkpt>
      <trkpt lat="44.32795" lon="6.27266">
        <ele>1880</ele>
        <time>2021-11-02T16:09:28Z</time>
      </trkpt>
      <trkpt lat="44.32794" lon="6.27267">
        <ele>1881.2</ele>
        <time>2021-11-02T16:09:33Z</time>
      </trkpt>
      <trkpt lat="44.32795" lon="6.27267">
        <ele>1881</ele>
        <time>2021-11-02T16:09:39Z</time>
      </trkpt>
      <trkpt lat="44.32788" lon="6.27262">
        <ele>1881.5</ele>
        <time>2021-11-02T16:09:44Z</time>
      </trkpt>
      <trkpt lat="44.32789" lon="6.27258">
        <ele>1880</ele>
        <time>2021-11-02T16:09:50Z</time>
      </trkpt>
      <trkpt lat="44.32792" lon="6.27248">
        <ele>1881.2</ele>
        <time>2021-11-02T16:09:55Z</time>
      </trkpt>
      <trkpt lat="44.32789" lon="6.2723">
        <ele>1883.2</ele>
        <time>2021-11-02T16:10:01Z</time>
      </trkpt>
      <trkpt lat="44.32789" lon="6.27218">
        <ele>1884.5</ele>
        <time>2021-11-02T16:10:06Z</time>
      </trkpt>
      <trkpt lat="44.32793" lon="6.27203">
        <ele>1886.1</ele>
        <time>2021-11-02T16:10:12Z</time>
      </trkpt>
      <trkpt lat="44.32795" lon="6.2719">
        <ele>1887.1</ele>
        <time>2021-11-02T16:10:17Z</time>
      </trkpt>
      <trkpt lat="44.32799" lon="6.27173">
        <ele>1888.1</ele>
        <time>2021-11-02T16:10:23Z</time>
      </trkpt>
      <trkpt lat="44.32803" lon="6.2716">
        <ele>1889.1</ele>
        <time>2021-11-02T16:10:28Z</time>
      </trkpt>
      <trkpt lat="44.32804" lon="6.27149">
        <ele>1889.2</ele>
        <time>2021-11-02T16:10:33Z</time>
      </trkpt>
      <trkpt lat="44.32807" lon="6.27148">
        <ele>1890.2</ele>
        <time>2021-11-02T16:10:39Z</time>
      </trkpt>
      <trkpt lat="44.32806" lon="6.2715">
        <ele>1891.4</ele>
        <time>2021-11-02T16:10:45Z</time>
      </trkpt>
      <trkpt lat="44.32807" lon="6.27151">
        <ele>1891.9</ele>
        <time>2021-11-02T16:10:51Z</time>
      </trkpt>
      <trkpt lat="44.32806" lon="6.2715">
        <ele>1891.8</ele>
        <time>2021-11-02T16:10:57Z</time>
      </trkpt>
      <trkpt lat="44.32805" lon="6.27149">
        <ele>1891.8</ele>
        <time>2021-11-02T16:11:02Z</time>
      </trkpt>
      <trkpt lat="44.32805" lon="6.27151">
        <ele>1893</ele>
        <time>2021-11-02T16:11:09Z</time>
      </trkpt>
      <trkpt lat="44.32804" lon="6.27151">
        <ele>1892.2</ele>
        <time>2021-11-02T16:11:15Z</time>
      </trkpt>
      <trkpt lat="44.32804" lon="6.27151">
        <ele>1892.9</ele>
        <time>2021-11-02T16:11:20Z</time>
      </trkpt>
      <trkpt lat="44.32804" lon="6.2715">
        <ele>1893.2</ele>
        <time>2021-11-02T16:11:26Z</time>
      </trkpt>
      <trkpt lat="44.32804" lon="6.27149">
        <ele>1893</ele>
        <time>2021-11-02T16:11:31Z</time>
      </trkpt>
      <trkpt lat="44.32804" lon="6.27149">
        <ele>1893.4</ele>
        <time>2021-11-02T16:11:37Z</time>
      </trkpt>
      <trkpt lat="44.32804" lon="6.27149">
        <ele>1893</ele>
        <time>2021-11-02T16:11:42Z</time>
      </trkpt>
      <trkpt lat="44.32804" lon="6.27149">
        <ele>1893.4</ele>
        <time>2021-11-02T16:11:48Z</time>
      </trkpt>
      <trkpt lat="44.32804" lon="6.2715">
        <ele>1892.4</ele>
        <time>2021-11-02T16:11:53Z</time>
      </trkpt>
      <trkpt lat="44.32807" lon="6.27152">
        <ele>1892.1</ele>
        <time>2021-11-02T16:11:59Z</time>
      </trkpt>
      <trkpt lat="44.32806" lon="6.27154">
        <ele>1892.6</ele>
        <time>2021-11-02T16:12:05Z</time>
      </trkpt>
      <trkpt lat="44.32805" lon="6.27153">
        <ele>1892.2</ele>
        <time>2021-11-02T16:12:11Z</time>
      </trkpt>
    </trkseg>
  </trk>
  <trk>
    <name><![CDATA[Col des Tomples complété du tour de Tête grosse_2]]></name>
    <extensions>
      <line xmlns="http://www.topografix.com/GPX/gpx_style/0/2">
        <color>00FF00</color>
        <width>4</width>
      </line>
    </extensions>
    <trkseg>
      <trkpt lat="44.32816" lon="6.27146">
        <ele>1894.4</ele>
      </trkpt>
      <trkpt lat="44.32811" lon="6.27085">
        <ele>1889.1</ele>
      </trkpt>
      <trkpt lat="44.32879" lon="6.26852">
        <ele>1843.3</ele>
      </trkpt>
      <trkpt lat="44.32913" lon="6.26834">
        <ele>1834.3</ele>
      </trkpt>
      <trkpt lat="44.32917" lon="6.26828">
        <ele>1831.9</ele>
      </trkpt>
      <trkpt lat="44.32929" lon="6.2682">
        <ele>1828.5</ele>
      </trkpt>
      <trkpt lat="44.32948" lon="6.26835">
        <ele>1834.4</ele>
      </trkpt>
      <trkpt lat="44.32976" lon="6.26786">
        <ele>1826.4</ele>
      </trkpt>
      <trkpt lat="44.32989" lon="6.26771">
        <ele>1822.8</ele>
      </trkpt>
      <trkpt lat="44.33021" lon="6.26747">
        <ele>1818.7</ele>
      </trkpt>
      <trkpt lat="44.33034" lon="6.26713">
        <ele>1812.9</ele>
      </trkpt>
      <trkpt lat="44.33048" lon="6.26653">
        <ele>1808.7</ele>
      </trkpt>
      <trkpt lat="44.3306" lon="6.26629">
        <ele>1804.1</ele>
      </trkpt>
      <trkpt lat="44.33071" lon="6.26621">
        <ele>1800.4</ele>
      </trkpt>
      <trkpt lat="44.3308" lon="6.26632">
        <ele>1800.9</ele>
      </trkpt>
      <trkpt lat="44.33118" lon="6.26617">
        <ele>1794.3</ele>
      </trkpt>
      <trkpt lat="44.33115" lon="6.26604">
        <ele>1791.9</ele>
      </trkpt>
      <trkpt lat="44.33103" lon="6.26588">
        <ele>1790.6</ele>
      </trkpt>
      <trkpt lat="44.33107" lon="6.26497">
        <ele>1790.5</ele>
      </trkpt>
      <trkpt lat="44.33114" lon="6.26459">
        <ele>1790</ele>
      </trkpt>
      <trkpt lat="44.33146" lon="6.26474">
        <ele>1786</ele>
      </trkpt>
      <trkpt lat="44.33177" lon="6.26469">
        <ele>1783.7</ele>
      </trkpt>
      <trkpt lat="44.33227" lon="6.26472">
        <ele>1782.3</ele>
      </trkpt>
      <trkpt lat="44.3323" lon="6.26447">
        <ele>1778.8</ele>
      </trkpt>
      <trkpt lat="44.33244" lon="6.26432">
        <ele>1778.1</ele>
      </trkpt>
      <trkpt lat="44.33299" lon="6.26427">
        <ele>1777.6</ele>
      </trkpt>
      <trkpt lat="44.33322" lon="6.26418">
        <ele>1774.7</ele>
      </trkpt>
      <trkpt lat="44.33347" lon="6.26411">
        <ele>1770.8</ele>
      </trkpt>
      <trkpt lat="44.33432" lon="6.26434">
        <ele>1762.1</ele>
      </trkpt>
      <trkpt lat="44.33447" lon="6.26438">
        <ele>1757.8</ele>
      </trkpt>
      <trkpt lat="44.33476" lon="6.26456">
        <ele>1751.1</ele>
      </trkpt>
      <trkpt lat="44.335" lon="6.26496">
        <ele>1749.3</ele>
      </trkpt>
      <trkpt lat="44.33528" lon="6.2652">
        <ele>1744</ele>
      </trkpt>
      <trkpt lat="44.3356" lon="6.26553">
        <ele>1741.5</ele>
      </trkpt>
      <trkpt lat="44.33609" lon="6.26618">
        <ele>1736.5</ele>
      </trkpt>
      <trkpt lat="44.33621" lon="6.26629">
        <ele>1736.5</ele>
      </trkpt>
      <trkpt lat="44.3367" lon="6.26663">
        <ele>1732.3</ele>
      </trkpt>
      <trkpt lat="44.33679" lon="6.26675">
        <ele>1729.8</ele>
      </trkpt>
      <trkpt lat="44.33682" lon="6.26687">
        <ele>1728.1</ele>
      </trkpt>
      <trkpt lat="44.33683" lon="6.26713">
        <ele>1723.2</ele>
      </trkpt>
      <trkpt lat="44.33679" lon="6.26736">
        <ele>1719.9</ele>
      </trkpt>
      <trkpt lat="44.33672" lon="6.26752">
        <ele>1719.8</ele>
      </trkpt>
      <trkpt lat="44.33672" lon="6.26759">
        <ele>1719.4</ele>
      </trkpt>
      <trkpt lat="44.33676" lon="6.26765">
        <ele>1717.6</ele>
      </trkpt>
      <trkpt lat="44.33678" lon="6.26773">
        <ele>1716.5</ele>
      </trkpt>
      <trkpt lat="44.33688" lon="6.2678">
        <ele>1713.1</ele>
      </trkpt>
      <trkpt lat="44.33699" lon="6.2676">
        <ele>1709.3</ele>
      </trkpt>
      <trkpt lat="44.33717" lon="6.26797">
        <ele>1703.4</ele>
      </trkpt>
      <trkpt lat="44.33719" lon="6.26827">
        <ele>1701.5</ele>
      </trkpt>
      <trkpt lat="44.33711" lon="6.26848">
        <ele>1702.5</ele>
      </trkpt>
      <trkpt lat="44.33711" lon="6.26902">
        <ele>1699.5</ele>
      </trkpt>
      <trkpt lat="44.33705" lon="6.26928">
        <ele>1700.5</ele>
      </trkpt>
      <trkpt lat="44.33725" lon="6.26975">
        <ele>1694.2</ele>
      </trkpt>
      <trkpt lat="44.33743" lon="6.26997">
        <ele>1690.5</ele>
      </trkpt>
      <trkpt lat="44.33755" lon="6.27007">
        <ele>1688.3</ele>
      </trkpt>
      <trkpt lat="44.33769" lon="6.27051">
        <ele>1687.6</ele>
      </trkpt>
      <trkpt lat="44.3377" lon="6.27068">
        <ele>1688</ele>
      </trkpt>
      <trkpt lat="44.33787" lon="6.27085">
        <ele>1683.1</ele>
      </trkpt>
      <trkpt lat="44.33787" lon="6.271">
        <ele>1683.6</ele>
      </trkpt>
      <trkpt lat="44.33781" lon="6.27114">
        <ele>1686.3</ele>
      </trkpt>
      <trkpt lat="44.33784" lon="6.27126">
        <ele>1686.7</ele>
      </trkpt>
      <trkpt lat="44.33797" lon="6.27147">
        <ele>1685.4</ele>
      </trkpt>
      <trkpt lat="44.33847" lon="6.27322">
        <ele>1687.2</ele>
      </trkpt>
      <trkpt lat="44.33858" lon="6.27381">
        <ele>1688.7</ele>
      </trkpt>
      <trkpt lat="44.33858" lon="6.27419">
        <ele>1689.3</ele>
      </trkpt>
      <trkpt lat="44.33863" lon="6.27441">
        <ele>1688.6</ele>
      </trkpt>
      <trkpt lat="44.33864" lon="6.27443">
        <ele>1688.5</ele>
      </trkpt>
      <trkpt lat="44.33884" lon="6.27485">
        <ele>1695.5</ele>
      </trkpt>
      <trkpt lat="44.33997" lon="6.27553">
        <ele>1695.8</ele>
      </trkpt>
      <trkpt lat="44.3404" lon="6.27591">
        <ele>1698.7</ele>
      </trkpt>
      <trkpt lat="44.34084" lon="6.27614">
        <ele>1699.9</ele>
      </trkpt>
      <trkpt lat="44.34188" lon="6.27696">
        <ele>1715.7</ele>
      </trkpt>
      <trkpt lat="44.3429" lon="6.27726">
        <ele>1726.5</ele>
      </trkpt>
      <trkpt lat="44.34305" lon="6.27723">
        <ele>1727.4</ele>
      </trkpt>
      <trkpt lat="44.34319" lon="6.27707">
        <ele>1725.2</ele>
      </trkpt>
      <trkpt lat="44.34352" lon="6.2769">
        <ele>1723.8</ele>
      </trkpt>
      <trkpt lat="44.34361" lon="6.27693">
        <ele>1725.4</ele>
      </trkpt>
      <trkpt lat="44.34389" lon="6.27725">
        <ele>1727.7</ele>
      </trkpt>
      <trkpt lat="44.34469" lon="6.27703">
        <ele>1730.8</ele>
      </trkpt>
      <trkpt lat="44.34643" lon="6.27593">
        <ele>1697.4</ele>
      </trkpt>
      <trkpt lat="44.34833" lon="6.27595">
        <ele>1677.4</ele>
      </trkpt>
      <trkpt lat="44.34876" lon="6.27586">
        <ele>1674</ele>
      </trkpt>
      <trkpt lat="44.34885" lon="6.27559">
        <ele>1675.7</ele>
      </trkpt>
      <trkpt lat="44.34883" lon="6.27513">
        <ele>1673.9</ele>
      </trkpt>
      <trkpt lat="44.34827" lon="6.27393">
        <ele>1659.4</ele>
      </trkpt>
      <trkpt lat="44.35062" lon="6.27254">
        <ele>1616</ele>
      </trkpt>
      <trkpt lat="44.35183" lon="6.27307">
        <ele>1601.5</ele>
      </trkpt>
      <trkpt lat="44.35226" lon="6.27419">
        <ele>1587.5</ele>
      </trkpt>
      <trkpt lat="44.3527" lon="6.27455">
        <ele>1585.7</ele>
      </trkpt>
      <trkpt lat="44.35275" lon="6.27466">
        <ele>1585.8</ele>
      </trkpt>
      <trkpt lat="44.35283" lon="6.27484">
        <ele>1585.4</ele>
      </trkpt>
      <trkpt lat="44.35288" lon="6.27504">
        <ele>1584.4</ele>
      </trkpt>
      <trkpt lat="44.35296" lon="6.2755">
        <ele>1581.3</ele>
      </trkpt>
      <trkpt lat="44.35316" lon="6.2762">
        <ele>1576.6</ele>
      </trkpt>
      <trkpt lat="44.35318" lon="6.27634">
        <ele>1574.6</ele>
      </trkpt>
      <trkpt lat="44.35316" lon="6.27641">
        <ele>1573.1</ele>
      </trkpt>
      <trkpt lat="44.35317" lon="6.27646">
        <ele>1572.2</ele>
      </trkpt>
      <trkpt lat="44.35316" lon="6.27641">
        <ele>1573.1</ele>
      </trkpt>
      <trkpt lat="44.35306" lon="6.27636">
        <ele>1572.6</ele>
      </trkpt>
      <trkpt lat="44.35286" lon="6.27605">
        <ele>1571.8</ele>
      </trkpt>
      <trkpt lat="44.35275" lon="6.27591">
        <ele>1570.8</ele>
      </trkpt>
      <trkpt lat="44.35239" lon="6.27559">
        <ele>1566.1</ele>
      </trkpt>
      <trkpt lat="44.35207" lon="6.27516">
        <ele>1567.4</ele>
      </trkpt>
      <trkpt lat="44.35199" lon="6.27516">
        <ele>1566.7</ele>
      </trkpt>
      <trkpt lat="44.35194" lon="6.27521">
        <ele>1565.8</ele>
      </trkpt>
      <trkpt lat="44.35196" lon="6.27547">
        <ele>1564.3</ele>
      </trkpt>
      <trkpt lat="44.35197" lon="6.27608">
        <ele>1559.8</ele>
      </trkpt>
      <trkpt lat="44.35192" lon="6.27636">
        <ele>1560.2</ele>
      </trkpt>
      <trkpt lat="44.35199" lon="6.2771">
        <ele>1553.8</ele>
      </trkpt>
      <trkpt lat="44.35194" lon="6.27741">
        <ele>1552.2</ele>
      </trkpt>
      <trkpt lat="44.35186" lon="6.27769">
        <ele>1552.2</ele>
      </trkpt>
      <trkpt lat="44.35175" lon="6.27789">
        <ele>1554.4</ele>
      </trkpt>
      <trkpt lat="44.35168" lon="6.2781">
        <ele>1554.7</ele>
      </trkpt>
      <trkpt lat="44.35159" lon="6.2784">
        <ele>1555.8</ele>
      </trkpt>
      <trkpt lat="44.35152" lon="6.27879">
        <ele>1554.9</ele>
      </trkpt>
      <trkpt lat="44.35146" lon="6.27899">
        <ele>1555.5</ele>
      </trkpt>
      <trkpt lat="44.35132" lon="6.27929">
        <ele>1558.6</ele>
      </trkpt>
      <trkpt lat="44.35114" lon="6.28006">
        <ele>1549.2</ele>
      </trkpt>
      <trkpt lat="44.35108" lon="6.28012">
        <ele>1548.3</ele>
      </trkpt>
      <trkpt lat="44.35098" lon="6.28014">
        <ele>1547.7</ele>
      </trkpt>
      <trkpt lat="44.35081" lon="6.28009">
        <ele>1550.4</ele>
      </trkpt>
      <trkpt lat="44.35038" lon="6.27991">
        <ele>1549.9</ele>
      </trkpt>
      <trkpt lat="44.35012" lon="6.27993">
        <ele>1542.9</ele>
      </trkpt>
      <trkpt lat="44.35002" lon="6.27991">
        <ele>1541.4</ele>
      </trkpt>
      <trkpt lat="44.34983" lon="6.27976">
        <ele>1544.6</ele>
      </trkpt>
      <trkpt lat="44.34973" lon="6.27972">
        <ele>1544.1</ele>
      </trkpt>
      <trkpt lat="44.34969" lon="6.27973">
        <ele>1545</ele>
      </trkpt>
      <trkpt lat="44.34964" lon="6.27979">
        <ele>1546.8</ele>
      </trkpt>
      <trkpt lat="44.34962" lon="6.27992">
        <ele>1547.9</ele>
      </trkpt>
      <trkpt lat="44.3497" lon="6.28024">
        <ele>1549.2</ele>
      </trkpt>
      <trkpt lat="44.34976" lon="6.28039">
        <ele>1548.4</ele>
      </trkpt>
      <trkpt lat="44.34977" lon="6.28047">
        <ele>1548.9</ele>
      </trkpt>
      <trkpt lat="44.34972" lon="6.28058">
        <ele>1551.7</ele>
      </trkpt>
      <trkpt lat="44.34954" lon="6.28065">
        <ele>1555.7</ele>
      </trkpt>
      <trkpt lat="44.34948" lon="6.28069">
        <ele>1556.6</ele>
      </trkpt>
      <trkpt lat="44.34945" lon="6.28075">
        <ele>1556.4</ele>
      </trkpt>
      <trkpt lat="44.34944" lon="6.28086">
        <ele>1555.6</ele>
      </trkpt>
      <trkpt lat="44.34948" lon="6.28094">
        <ele>1556</ele>
      </trkpt>
      <trkpt lat="44.34957" lon="6.28104">
        <ele>1555.2</ele>
      </trkpt>
      <trkpt lat="44.3502" lon="6.28127">
        <ele>1544.8</ele>
      </trkpt>
      <trkpt lat="44.35045" lon="6.2814">
        <ele>1542.5</ele>
      </trkpt>
      <trkpt lat="44.35102" lon="6.28193">
        <ele>1539.1</ele>
      </trkpt>
      <trkpt lat="44.35118" lon="6.28215">
        <ele>1537.5</ele>
      </trkpt>
      <trkpt lat="44.35129" lon="6.28236">
        <ele>1536.5</ele>
      </trkpt>
      <trkpt lat="44.35137" lon="6.2826">
        <ele>1537</ele>
      </trkpt>
      <trkpt lat="44.35144" lon="6.28312">
        <ele>1537.3</ele>
      </trkpt>
      <trkpt lat="44.35145" lon="6.28367">
        <ele>1533.6</ele>
      </trkpt>
      <trkpt lat="44.3514" lon="6.28394">
        <ele>1532</ele>
      </trkpt>
      <trkpt lat="44.3513" lon="6.28423">
        <ele>1528.9</ele>
      </trkpt>
      <trkpt lat="44.35111" lon="6.28457">
        <ele>1526.4</ele>
      </trkpt>
      <trkpt lat="44.35101" lon="6.28491">
        <ele>1519.8</ele>
      </trkpt>
      <trkpt lat="44.35095" lon="6.28506">
        <ele>1517.5</ele>
      </trkpt>
      <trkpt lat="44.35074" lon="6.28524">
        <ele>1517.3</ele>
      </trkpt>
      <trkpt lat="44.35047" lon="6.2854">
        <ele>1516.3</ele>
      </trkpt>
      <trkpt lat="44.35014" lon="6.28554">
        <ele>1513.5</ele>
      </trkpt>
      <trkpt lat="44.34996" lon="6.28557">
        <ele>1512.3</ele>
      </trkpt>
      <trkpt lat="44.34978" lon="6.28555">
        <ele>1512.4</ele>
      </trkpt>
      <trkpt lat="44.34919" lon="6.28537">
        <ele>1520.3</ele>
      </trkpt>
      <trkpt lat="44.34909" lon="6.28538">
        <ele>1521.5</ele>
      </trkpt>
      <trkpt lat="44.34876" lon="6.28565">
        <ele>1517.4</ele>
      </trkpt>
      <trkpt lat="44.34859" lon="6.28574">
        <ele>1517.6</ele>
      </trkpt>
      <trkpt lat="44.34829" lon="6.28577">
        <ele>1524.3</ele>
      </trkpt>
      <trkpt lat="44.34823" lon="6.28588">
        <ele>1522.9</ele>
      </trkpt>
      <trkpt lat="44.3482" lon="6.28616">
        <ele>1517.4</ele>
      </trkpt>
      <trkpt lat="44.34812" lon="6.28652">
        <ele>1515.1</ele>
      </trkpt>
      <trkpt lat="44.34792" lon="6.28712">
        <ele>1514.3</ele>
      </trkpt>
      <trkpt lat="44.34783" lon="6.28733">
        <ele>1511</ele>
      </trkpt>
      <trkpt lat="44.34777" lon="6.28758">
        <ele>1504</ele>
      </trkpt>
      <trkpt lat="44.3477" lon="6.28769">
        <ele>1501.8</ele>
      </trkpt>
      <trkpt lat="44.34759" lon="6.28774">
        <ele>1503.4</ele>
      </trkpt>
      <trkpt lat="44.34708" lon="6.28779">
        <ele>1514.7</ele>
      </trkpt>
      <trkpt lat="44.34689" lon="6.28784">
        <ele>1517.3</ele>
      </trkpt>
      <trkpt lat="44.34667" lon="6.28782">
        <ele>1522.6</ele>
      </trkpt>
      <trkpt lat="44.3464" lon="6.28801">
        <ele>1522.4</ele>
      </trkpt>
      <trkpt lat="44.34637" lon="6.28811">
        <ele>1522</ele>
      </trkpt>
      <trkpt lat="44.34638" lon="6.28817">
        <ele>1522.5</ele>
      </trkpt>
      <trkpt lat="44.3464" lon="6.28821">
        <ele>1522.4</ele>
      </trkpt>
      <trkpt lat="44.34644" lon="6.28828">
        <ele>1521.9</ele>
      </trkpt>
      <trkpt lat="44.34657" lon="6.28839">
        <ele>1520.8</ele>
      </trkpt>
      <trkpt lat="44.34675" lon="6.28847">
        <ele>1518.1</ele>
      </trkpt>
      <trkpt lat="44.34708" lon="6.28884">
        <ele>1520.2</ele>
      </trkpt>
      <trkpt lat="44.34715" lon="6.28897">
        <ele>1519</ele>
      </trkpt>
      <trkpt lat="44.34714" lon="6.28912">
        <ele>1519.1</ele>
      </trkpt>
      <trkpt lat="44.3471" lon="6.28922">
        <ele>1518.7</ele>
      </trkpt>
      <trkpt lat="44.34674" lon="6.28931">
        <ele>1528.6</ele>
      </trkpt>
      <trkpt lat="44.34661" lon="6.28941">
        <ele>1529.4</ele>
      </trkpt>
      <trkpt lat="44.34655" lon="6.28954">
        <ele>1527.9</ele>
      </trkpt>
      <trkpt lat="44.34656" lon="6.28965">
        <ele>1524.9</ele>
      </trkpt>
      <trkpt lat="44.34663" lon="6.28978">
        <ele>1524.1</ele>
      </trkpt>
      <trkpt lat="44.34681" lon="6.28994">
        <ele>1525.5</ele>
      </trkpt>
      <trkpt lat="44.34697" lon="6.29017">
        <ele>1528.5</ele>
      </trkpt>
      <trkpt lat="44.34707" lon="6.29079">
        <ele>1547.3</ele>
      </trkpt>
      <trkpt lat="44.34712" lon="6.29088">
        <ele>1549.1</ele>
      </trkpt>
      <trkpt lat="44.34756" lon="6.29089">
        <ele>1544.1</ele>
      </trkpt>
      <trkpt lat="44.34776" lon="6.29094">
        <ele>1544.4</ele>
      </trkpt>
      <trkpt lat="44.34844" lon="6.29122">
        <ele>1545.4</ele>
      </trkpt>
      <trkpt lat="44.34862" lon="6.29146">
        <ele>1550.4</ele>
      </trkpt>
      <trkpt lat="44.34864" lon="6.29171">
        <ele>1554.7</ele>
      </trkpt>
      <trkpt lat="44.34859" lon="6.29222">
        <ele>1556.9</ele>
      </trkpt>
      <trkpt lat="44.34858" lon="6.29235">
        <ele>1556.5</ele>
      </trkpt>
      <trkpt lat="44.34857" lon="6.29251">
        <ele>1555.9</ele>
      </trkpt>
      <trkpt lat="44.34846" lon="6.293">
        <ele>1559.3</ele>
      </trkpt>
      <trkpt lat="44.34834" lon="6.29371">
        <ele>1561.3</ele>
      </trkpt>
      <trkpt lat="44.3483" lon="6.29428">
        <ele>1557.6</ele>
      </trkpt>
      <trkpt lat="44.34819" lon="6.29457">
        <ele>1559.8</ele>
      </trkpt>
      <trkpt lat="44.34803" lon="6.29524">
        <ele>1560.6</ele>
      </trkpt>
      <trkpt lat="44.34784" lon="6.29574">
        <ele>1565.9</ele>
      </trkpt>
      <trkpt lat="44.34777" lon="6.29598">
        <ele>1567.3</ele>
      </trkpt>
      <trkpt lat="44.34778" lon="6.29641">
        <ele>1563.8</ele>
      </trkpt>
      <trkpt lat="44.34767" lon="6.2968">
        <ele>1565.3</ele>
      </trkpt>
      <trkpt lat="44.3476" lon="6.29706">
        <ele>1566.4</ele>
      </trkpt>
      <trkpt lat="44.34743" lon="6.29763">
        <ele>1568.8</ele>
      </trkpt>
      <trkpt lat="44.34737" lon="6.29805">
        <ele>1567.2</ele>
      </trkpt>
      <trkpt lat="44.34727" lon="6.29839">
        <ele>1568.7</ele>
      </trkpt>
      <trkpt lat="44.34729" lon="6.29858">
        <ele>1566.5</ele>
      </trkpt>
      <trkpt lat="44.34727" lon="6.29888">
        <ele>1566.9</ele>
      </trkpt>
      <trkpt lat="44.34721" lon="6.29924">
        <ele>1571.5</ele>
      </trkpt>
      <trkpt lat="44.34723" lon="6.29937">
        <ele>1570.7</ele>
      </trkpt>
      <trkpt lat="44.34777" lon="6.29979">
        <ele>1557.7</ele>
      </trkpt>
      <trkpt lat="44.34845" lon="6.29998">
        <ele>1547.9</ele>
      </trkpt>
      <trkpt lat="44.34855" lon="6.29998">
        <ele>1545.7</ele>
      </trkpt>
      <trkpt lat="44.34866" lon="6.30003">
        <ele>1544.7</ele>
      </trkpt>
      <trkpt lat="44.349" lon="6.30033">
        <ele>1545.1</ele>
      </trkpt>
      <trkpt lat="44.34919" lon="6.30041">
        <ele>1543.4</ele>
      </trkpt>
      <trkpt lat="44.34959" lon="6.30085">
        <ele>1542.2</ele>
      </trkpt>
      <trkpt lat="44.34961" lon="6.30094">
        <ele>1543.3</ele>
      </trkpt>
      <trkpt lat="44.34961" lon="6.30106">
        <ele>1545.5</ele>
      </trkpt>
      <trkpt lat="44.34957" lon="6.30115">
        <ele>1548</ele>
      </trkpt>
      <trkpt lat="44.34948" lon="6.30116">
        <ele>1550.1</ele>
      </trkpt>
      <trkpt lat="44.34948" lon="6.3012">
        <ele>1550.8</ele>
      </trkpt>
      <trkpt lat="44.34951" lon="6.30159">
        <ele>1556.7</ele>
      </trkpt>
      <trkpt lat="44.34963" lon="6.30252">
        <ele>1556.3</ele>
      </trkpt>
      <trkpt lat="44.34974" lon="6.3037">
        <ele>1550.4</ele>
      </trkpt>
      <trkpt lat="44.34982" lon="6.30393">
        <ele>1548.3</ele>
      </trkpt>
      <trkpt lat="44.35012" lon="6.30461">
        <ele>1540.3</ele>
      </trkpt>
      <trkpt lat="44.35022" lon="6.30541">
        <ele>1533.4</ele>
      </trkpt>
      <trkpt lat="44.35032" lon="6.30563">
        <ele>1531.2</ele>
      </trkpt>
      <trkpt lat="44.35042" lon="6.30589">
        <ele>1528.6</ele>
      </trkpt>
      <trkpt lat="44.35041" lon="6.30615">
        <ele>1526.9</ele>
      </trkpt>
      <trkpt lat="44.35035" lon="6.30653">
        <ele>1525.6</ele>
      </trkpt>
      <trkpt lat="44.35036" lon="6.30675">
        <ele>1524.9</ele>
      </trkpt>
      <trkpt lat="44.3501" lon="6.30718">
        <ele>1531.6</ele>
      </trkpt>
      <trkpt lat="44.35005" lon="6.30733">
        <ele>1534.3</ele>
      </trkpt>
      <trkpt lat="44.35001" lon="6.30746">
        <ele>1536.4</ele>
      </trkpt>
      <trkpt lat="44.35" lon="6.30762">
        <ele>1538.3</ele>
      </trkpt>
      <trkpt lat="44.35017" lon="6.30819">
        <ele>1541.1</ele>
      </trkpt>
      <trkpt lat="44.35019" lon="6.30855">
        <ele>1543.3</ele>
      </trkpt>
      <trkpt lat="44.35017" lon="6.30881">
        <ele>1544.2</ele>
      </trkpt>
      <trkpt lat="44.35012" lon="6.30904">
        <ele>1544.9</ele>
      </trkpt>
      <trkpt lat="44.34994" lon="6.30928">
        <ele>1546.8</ele>
      </trkpt>
      <trkpt lat="44.34945" lon="6.30936">
        <ele>1549.3</ele>
      </trkpt>
      <trkpt lat="44.34915" lon="6.30952">
        <ele>1548.2</ele>
      </trkpt>
      <trkpt lat="44.349" lon="6.30958">
        <ele>1547.5</ele>
      </trkpt>
      <trkpt lat="44.34892" lon="6.30957">
        <ele>1548.2</ele>
      </trkpt>
      <trkpt lat="44.34874" lon="6.30932">
        <ele>1554.5</ele>
      </trkpt>
      <trkpt lat="44.34863" lon="6.30936">
        <ele>1555.4</ele>
      </trkpt>
      <trkpt lat="44.34849" lon="6.30955">
        <ele>1553.3</ele>
      </trkpt>
      <trkpt lat="44.34842" lon="6.30958">
        <ele>1553.2</ele>
      </trkpt>
      <trkpt lat="44.34829" lon="6.30928">
        <ele>1559.7</ele>
      </trkpt>
      <trkpt lat="44.34802" lon="6.30896">
        <ele>1565.2</ele>
      </trkpt>
      <trkpt lat="44.34769" lon="6.3084">
        <ele>1572.5</ele>
      </trkpt>
      <trkpt lat="44.34766" lon="6.30824">
        <ele>1573.4</ele>
      </trkpt>
      <trkpt lat="44.34759" lon="6.3081">
        <ele>1574.6</ele>
      </trkpt>
      <trkpt lat="44.34755" lon="6.30802">
        <ele>1575.3</ele>
      </trkpt>
      <trkpt lat="44.34741" lon="6.30784">
        <ele>1576.5</ele>
      </trkpt>
      <trkpt lat="44.34694" lon="6.30736">
        <ele>1578.9</ele>
      </trkpt>
      <trkpt lat="44.34671" lon="6.30661">
        <ele>1581.9</ele>
      </trkpt>
      <trkpt lat="44.3467" lon="6.30645">
        <ele>1582.9</ele>
      </trkpt>
      <trkpt lat="44.34685" lon="6.30608">
        <ele>1588.3</ele>
      </trkpt>
      <trkpt lat="44.34685" lon="6.30592">
        <ele>1590</ele>
      </trkpt>
      <trkpt lat="44.34669" lon="6.30502">
        <ele>1596</ele>
      </trkpt>
      <trkpt lat="44.34658" lon="6.3047">
        <ele>1597.1</ele>
      </trkpt>
      <trkpt lat="44.34645" lon="6.3046">
        <ele>1594.9</ele>
      </trkpt>
      <trkpt lat="44.34641" lon="6.30447">
        <ele>1595.3</ele>
      </trkpt>
      <trkpt lat="44.34625" lon="6.30373">
        <ele>1599.5</ele>
      </trkpt>
      <trkpt lat="44.34619" lon="6.30359">
        <ele>1599.5</ele>
      </trkpt>
      <trkpt lat="44.34588" lon="6.30291">
        <ele>1597.5</ele>
      </trkpt>
      <trkpt lat="44.34544" lon="6.3023">
        <ele>1595.3</ele>
      </trkpt>
      <trkpt lat="44.34536" lon="6.30213">
        <ele>1596.2</ele>
      </trkpt>
      <trkpt lat="44.34525" lon="6.30199">
        <ele>1596.3</ele>
      </trkpt>
      <trkpt lat="44.34518" lon="6.30204">
        <ele>1595.6</ele>
      </trkpt>
      <trkpt lat="44.34513" lon="6.3021">
        <ele>1595.1</ele>
      </trkpt>
      <trkpt lat="44.3451" lon="6.30221">
        <ele>1594.4</ele>
      </trkpt>
      <trkpt lat="44.34507" lon="6.30358">
        <ele>1593.3</ele>
      </trkpt>
      <trkpt lat="44.34501" lon="6.30405">
        <ele>1592.8</ele>
      </trkpt>
      <trkpt lat="44.34494" lon="6.30431">
        <ele>1592.9</ele>
      </trkpt>
      <trkpt lat="44.34484" lon="6.30456">
        <ele>1594.4</ele>
      </trkpt>
      <trkpt lat="44.3447" lon="6.30483">
        <ele>1596.9</ele>
      </trkpt>
      <trkpt lat="44.34452" lon="6.30511">
        <ele>1598.9</ele>
      </trkpt>
      <trkpt lat="44.34406" lon="6.30572">
        <ele>1597.4</ele>
      </trkpt>
      <trkpt lat="44.34397" lon="6.30578">
        <ele>1595.7</ele>
      </trkpt>
      <trkpt lat="44.34389" lon="6.30576">
        <ele>1596.1</ele>
      </trkpt>
      <trkpt lat="44.34379" lon="6.30569">
        <ele>1596.2</ele>
      </trkpt>
      <trkpt lat="44.34348" lon="6.30554">
        <ele>1595.2</ele>
      </trkpt>
      <trkpt lat="44.34313" lon="6.30524">
        <ele>1602</ele>
      </trkpt>
      <trkpt lat="44.34304" lon="6.30517">
        <ele>1604.3</ele>
      </trkpt>
      <trkpt lat="44.34291" lon="6.30512">
        <ele>1605.6</ele>
      </trkpt>
      <trkpt lat="44.34272" lon="6.30516">
        <ele>1602.5</ele>
      </trkpt>
      <trkpt lat="44.34254" lon="6.30508">
        <ele>1606.3</ele>
      </trkpt>
      <trkpt lat="44.34241" lon="6.30516">
        <ele>1603.2</ele>
      </trkpt>
      <trkpt lat="44.34221" lon="6.30525">
        <ele>1601.3</ele>
      </trkpt>
      <trkpt lat="44.34195" lon="6.30531">
        <ele>1604.1</ele>
      </trkpt>
      <trkpt lat="44.34178" lon="6.3053">
        <ele>1606.2</ele>
      </trkpt>
      <trkpt lat="44.34159" lon="6.30518">
        <ele>1610.8</ele>
      </trkpt>
      <trkpt lat="44.3414" lon="6.30522">
        <ele>1610.6</ele>
      </trkpt>
      <trkpt lat="44.34109" lon="6.30512">
        <ele>1614.5</ele>
      </trkpt>
      <trkpt lat="44.34099" lon="6.30515">
        <ele>1613.7</ele>
      </trkpt>
      <trkpt lat="44.34089" lon="6.30521">
        <ele>1612</ele>
      </trkpt>
      <trkpt lat="44.3408" lon="6.30521">
        <ele>1612.1</ele>
      </trkpt>
      <trkpt lat="44.34055" lon="6.30506">
        <ele>1618.1</ele>
      </trkpt>
      <trkpt lat="44.34037" lon="6.305">
        <ele>1621.3</ele>
      </trkpt>
      <trkpt lat="44.34017" lon="6.30502">
        <ele>1621.3</ele>
      </trkpt>
      <trkpt lat="44.33996" lon="6.30495">
        <ele>1623.8</ele>
      </trkpt>
      <trkpt lat="44.33974" lon="6.30493">
        <ele>1624.5</ele>
      </trkpt>
      <trkpt lat="44.33951" lon="6.30486">
        <ele>1626.3</ele>
      </trkpt>
      <trkpt lat="44.33922" lon="6.30484">
        <ele>1626.3</ele>
      </trkpt>
      <trkpt lat="44.33913" lon="6.30477">
        <ele>1628.3</ele>
      </trkpt>
      <trkpt lat="44.33907" lon="6.30467">
        <ele>1631.3</ele>
      </trkpt>
      <trkpt lat="44.33904" lon="6.30465">
        <ele>1631.9</ele>
      </trkpt>
      <trkpt lat="44.33877" lon="6.30469">
        <ele>1630</ele>
      </trkpt>
      <trkpt lat="44.33857" lon="6.30465">
        <ele>1631</ele>
      </trkpt>
      <trkpt lat="44.33836" lon="6.30466">
        <ele>1630.3</ele>
      </trkpt>
      <trkpt lat="44.33819" lon="6.30463">
        <ele>1631.3</ele>
      </trkpt>
      <trkpt lat="44.33782" lon="6.30449">
        <ele>1636.4</ele>
      </trkpt>
      <trkpt lat="44.33775" lon="6.30441">
        <ele>1639.6</ele>
      </trkpt>
      <trkpt lat="44.33761" lon="6.30434">
        <ele>1642.9</ele>
      </trkpt>
      <trkpt lat="44.33748" lon="6.30431">
        <ele>1644.3</ele>
      </trkpt>
      <trkpt lat="44.33736" lon="6.30437">
        <ele>1641.8</ele>
      </trkpt>
      <trkpt lat="44.33729" lon="6.30437">
        <ele>1641.7</ele>
      </trkpt>
      <trkpt lat="44.33713" lon="6.30428">
        <ele>1644.9</ele>
      </trkpt>
      <trkpt lat="44.33703" lon="6.30428">
        <ele>1644.9</ele>
      </trkpt>
      <trkpt lat="44.33685" lon="6.30416">
        <ele>1648.9</ele>
      </trkpt>
      <trkpt lat="44.3367" lon="6.30419">
        <ele>1647.3</ele>
      </trkpt>
      <trkpt lat="44.33657" lon="6.3041">
        <ele>1650.2</ele>
      </trkpt>
      <trkpt lat="44.33641" lon="6.30418">
        <ele>1647.6</ele>
      </trkpt>
      <trkpt lat="44.33626" lon="6.3042">
        <ele>1647.9</ele>
      </trkpt>
      <trkpt lat="44.33618" lon="6.30424">
        <ele>1647.3</ele>
      </trkpt>
      <trkpt lat="44.33611" lon="6.30433">
        <ele>1645.3</ele>
      </trkpt>
      <trkpt lat="44.3357" lon="6.30452">
        <ele>1646.9</ele>
      </trkpt>
      <trkpt lat="44.33552" lon="6.3045">
        <ele>1649.8</ele>
      </trkpt>
      <trkpt lat="44.3353" lon="6.30469">
        <ele>1645.9</ele>
      </trkpt>
      <trkpt lat="44.33517" lon="6.30473">
        <ele>1645.9</ele>
      </trkpt>
      <trkpt lat="44.33495" lon="6.30466">
        <ele>1650.3</ele>
      </trkpt>
      <trkpt lat="44.33468" lon="6.30467">
        <ele>1652.8</ele>
      </trkpt>
      <trkpt lat="44.3344" lon="6.30462">
        <ele>1657.1</ele>
      </trkpt>
      <trkpt lat="44.33423" lon="6.30469">
        <ele>1658.4</ele>
      </trkpt>
      <trkpt lat="44.33406" lon="6.30472">
        <ele>1661.4</ele>
      </trkpt>
      <trkpt lat="44.33391" lon="6.30482">
        <ele>1662.8</ele>
      </trkpt>
      <trkpt lat="44.33374" lon="6.3049">
        <ele>1664.8</ele>
      </trkpt>
      <trkpt lat="44.3336" lon="6.305">
        <ele>1666.1</ele>
      </trkpt>
      <trkpt lat="44.33338" lon="6.30512">
        <ele>1665.2</ele>
      </trkpt>
      <trkpt lat="44.33322" lon="6.30514">
        <ele>1661.3</ele>
      </trkpt>
      <trkpt lat="44.33315" lon="6.3051">
        <ele>1660.3</ele>
      </trkpt>
      <trkpt lat="44.33308" lon="6.30502">
        <ele>1660.9</ele>
      </trkpt>
      <trkpt lat="44.33301" lon="6.30486">
        <ele>1663.7</ele>
      </trkpt>
      <trkpt lat="44.33277" lon="6.30466">
        <ele>1664.1</ele>
      </trkpt>
      <trkpt lat="44.33259" lon="6.30467">
        <ele>1660</ele>
      </trkpt>
      <trkpt lat="44.33225" lon="6.30437">
        <ele>1667.5</ele>
      </trkpt>
      <trkpt lat="44.33212" lon="6.30432">
        <ele>1671.3</ele>
      </trkpt>
      <trkpt lat="44.33199" lon="6.30433">
        <ele>1673.6</ele>
      </trkpt>
      <trkpt lat="44.33157" lon="6.30445">
        <ele>1676.4</ele>
      </trkpt>
      <trkpt lat="44.33146" lon="6.30446">
        <ele>1676.8</ele>
      </trkpt>
      <trkpt lat="44.3312" lon="6.30437">
        <ele>1678.8</ele>
      </trkpt>
      <trkpt lat="44.33099" lon="6.30425">
        <ele>1679.5</ele>
      </trkpt>
      <trkpt lat="44.33087" lon="6.30422">
        <ele>1679.3</ele>
      </trkpt>
    </trkseg>
  </trk>
  <trk>
    <name><![CDATA[Col des Tomples complété du tour de Tête grosse_3]]></name>
    <trkseg>
      <trkpt lat="44.33075" lon="6.3042">
        <ele>1680.3</ele>
        <time>2021-11-02T16:38:50Z</time>
      </trkpt>
      <trkpt lat="44.33058" lon="6.30446">
        <ele>1680</ele>
        <time>2021-11-02T16:38:57Z</time>
      </trkpt>
      <trkpt lat="44.33038" lon="6.30469">
        <ele>1680.6</ele>
        <time>2021-11-02T16:39:02Z</time>
      </trkpt>
      <trkpt lat="44.33022" lon="6.30487">
        <ele>1682</ele>
        <time>2021-11-02T16:39:07Z</time>
      </trkpt>
      <trkpt lat="44.33004" lon="6.30506">
        <ele>1682.5</ele>
        <time>2021-11-02T16:39:13Z</time>
      </trkpt>
      <trkpt lat="44.32981" lon="6.30526">
        <ele>1683.6</ele>
        <time>2021-11-02T16:39:19Z</time>
      </trkpt>
      <trkpt lat="44.32958" lon="6.30545">
        <ele>1682.1</ele>
        <time>2021-11-02T16:39:24Z</time>
      </trkpt>
      <trkpt lat="44.32935" lon="6.30563">
        <ele>1682.2</ele>
        <time>2021-11-02T16:39:29Z</time>
      </trkpt>
      <trkpt lat="44.3291" lon="6.30592">
        <ele>1682.3</ele>
        <time>2021-11-02T16:39:35Z</time>
      </trkpt>
      <trkpt lat="44.32891" lon="6.30614">
        <ele>1682.5</ele>
        <time>2021-11-02T16:39:40Z</time>
      </trkpt>
      <trkpt lat="44.32872" lon="6.30641">
        <ele>1683.8</ele>
        <time>2021-11-02T16:39:46Z</time>
      </trkpt>
      <trkpt lat="44.32854" lon="6.30662">
        <ele>1685.1</ele>
        <time>2021-11-02T16:39:51Z</time>
      </trkpt>
      <trkpt lat="44.32833" lon="6.30681">
        <ele>1686</ele>
        <time>2021-11-02T16:39:57Z</time>
      </trkpt>
      <trkpt lat="44.32809" lon="6.30701">
        <ele>1684.5</ele>
        <time>2021-11-02T16:40:03Z</time>
      </trkpt>
      <trkpt lat="44.3279" lon="6.30728">
        <ele>1682.6</ele>
        <time>2021-11-02T16:40:08Z</time>
      </trkpt>
      <trkpt lat="44.32774" lon="6.30775">
        <ele>1680.1</ele>
        <time>2021-11-02T16:40:14Z</time>
      </trkpt>
      <trkpt lat="44.3276" lon="6.30814">
        <ele>1676.8</ele>
        <time>2021-11-02T16:40:19Z</time>
      </trkpt>
      <trkpt lat="44.32733" lon="6.30843">
        <ele>1675.3</ele>
        <time>2021-11-02T16:40:24Z</time>
      </trkpt>
      <trkpt lat="44.327" lon="6.30867">
        <ele>1673.8</ele>
        <time>2021-11-02T16:40:31Z</time>
      </trkpt>
      <trkpt lat="44.32672" lon="6.30897">
        <ele>1671.7</ele>
        <time>2021-11-02T16:40:37Z</time>
      </trkpt>
      <trkpt lat="44.32659" lon="6.30935">
        <ele>1671.8</ele>
        <time>2021-11-02T16:40:42Z</time>
      </trkpt>
      <trkpt lat="44.32642" lon="6.30983">
        <ele>1671.6</ele>
        <time>2021-11-02T16:40:48Z</time>
      </trkpt>
      <trkpt lat="44.32623" lon="6.31034">
        <ele>1668.6</ele>
        <time>2021-11-02T16:40:54Z</time>
      </trkpt>
      <trkpt lat="44.32603" lon="6.31079">
        <ele>1662.9</ele>
        <time>2021-11-02T16:41:00Z</time>
      </trkpt>
      <trkpt lat="44.32575" lon="6.31115">
        <ele>1659.2</ele>
        <time>2021-11-02T16:41:05Z</time>
      </trkpt>
      <trkpt lat="44.32549" lon="6.31149">
        <ele>1657.9</ele>
        <time>2021-11-02T16:41:10Z</time>
      </trkpt>
      <trkpt lat="44.32522" lon="6.31182">
        <ele>1655.4</ele>
        <time>2021-11-02T16:41:16Z</time>
      </trkpt>
      <trkpt lat="44.32539" lon="6.31193">
        <ele>1653.6</ele>
        <time>2021-11-02T16:41:21Z</time>
      </trkpt>
      <trkpt lat="44.32572" lon="6.31166">
        <ele>1651.1</ele>
        <time>2021-11-02T16:41:27Z</time>
      </trkpt>
      <trkpt lat="44.32587" lon="6.31168">
        <ele>1648.5</ele>
        <time>2021-11-02T16:41:33Z</time>
      </trkpt>
      <trkpt lat="44.32573" lon="6.31207">
        <ele>1643.2</ele>
        <time>2021-11-02T16:41:38Z</time>
      </trkpt>
      <trkpt lat="44.32555" lon="6.31259">
        <ele>1638.7</ele>
        <time>2021-11-02T16:41:44Z</time>
      </trkpt>
      <trkpt lat="44.32547" lon="6.3131">
        <ele>1634.3</ele>
        <time>2021-11-02T16:41:49Z</time>
      </trkpt>
      <trkpt lat="44.32528" lon="6.31363">
        <ele>1628</ele>
        <time>2021-11-02T16:41:55Z</time>
      </trkpt>
      <trkpt lat="44.325" lon="6.31406">
        <ele>1623.7</ele>
        <time>2021-11-02T16:42:01Z</time>
      </trkpt>
      <trkpt lat="44.32499" lon="6.31454">
        <ele>1621.3</ele>
        <time>2021-11-02T16:42:06Z</time>
      </trkpt>
      <trkpt lat="44.32515" lon="6.31504">
        <ele>1620</ele>
        <time>2021-11-02T16:42:12Z</time>
      </trkpt>
      <trkpt lat="44.32541" lon="6.31516">
        <ele>1617.8</ele>
        <time>2021-11-02T16:42:17Z</time>
      </trkpt>
      <trkpt lat="44.32536" lon="6.31548">
        <ele>1615.3</ele>
        <time>2021-11-02T16:42:23Z</time>
      </trkpt>
      <trkpt lat="44.32511" lon="6.31586">
        <ele>1612.4</ele>
        <time>2021-11-02T16:42:29Z</time>
      </trkpt>
      <trkpt lat="44.32485" lon="6.31626">
        <ele>1607.2</ele>
        <time>2021-11-02T16:42:35Z</time>
      </trkpt>
      <trkpt lat="44.32462" lon="6.31661">
        <ele>1605.5</ele>
        <time>2021-11-02T16:42:41Z</time>
      </trkpt>
      <trkpt lat="44.32463" lon="6.31706">
        <ele>1600.5</ele>
        <time>2021-11-02T16:42:47Z</time>
      </trkpt>
      <trkpt lat="44.32442" lon="6.3174">
        <ele>1596.5</ele>
        <time>2021-11-02T16:42:52Z</time>
      </trkpt>
      <trkpt lat="44.32419" lon="6.31772">
        <ele>1591.3</ele>
        <time>2021-11-02T16:42:58Z</time>
      </trkpt>
      <trkpt lat="44.32412" lon="6.31815">
        <ele>1587.2</ele>
        <time>2021-11-02T16:43:04Z</time>
      </trkpt>
      <trkpt lat="44.3243" lon="6.31831">
        <ele>1585.4</ele>
        <time>2021-11-02T16:43:09Z</time>
      </trkpt>
      <trkpt lat="44.32458" lon="6.31829">
        <ele>1582.7</ele>
        <time>2021-11-02T16:43:14Z</time>
      </trkpt>
      <trkpt lat="44.32492" lon="6.31813">
        <ele>1577.3</ele>
        <time>2021-11-02T16:43:20Z</time>
      </trkpt>
      <trkpt lat="44.32527" lon="6.31812">
        <ele>1575.4</ele>
        <time>2021-11-02T16:43:26Z</time>
      </trkpt>
      <trkpt lat="44.32558" lon="6.31823">
        <ele>1573.2</ele>
        <time>2021-11-02T16:43:31Z</time>
      </trkpt>
      <trkpt lat="44.32594" lon="6.31817">
        <ele>1570.7</ele>
        <time>2021-11-02T16:43:36Z</time>
      </trkpt>
      <trkpt lat="44.32636" lon="6.31794">
        <ele>1566.1</ele>
        <time>2021-11-02T16:43:42Z</time>
      </trkpt>
      <trkpt lat="44.32673" lon="6.31787">
        <ele>1562.9</ele>
        <time>2021-11-02T16:43:48Z</time>
      </trkpt>
      <trkpt lat="44.32715" lon="6.31764">
        <ele>1563.3</ele>
        <time>2021-11-02T16:43:54Z</time>
      </trkpt>
      <trkpt lat="44.3275" lon="6.31739">
        <ele>1559.1</ele>
        <time>2021-11-02T16:43:59Z</time>
      </trkpt>
      <trkpt lat="44.32781" lon="6.31714">
        <ele>1556.7</ele>
        <time>2021-11-02T16:44:04Z</time>
      </trkpt>
      <trkpt lat="44.32803" lon="6.31665">
        <ele>1554.8</ele>
        <time>2021-11-02T16:44:10Z</time>
      </trkpt>
      <trkpt lat="44.32813" lon="6.31633">
        <ele>1551.8</ele>
        <time>2021-11-02T16:44:15Z</time>
      </trkpt>
      <trkpt lat="44.32825" lon="6.31669">
        <ele>1546.6</ele>
        <time>2021-11-02T16:44:21Z</time>
      </trkpt>
      <trkpt lat="44.32824" lon="6.31715">
        <ele>1539.1</ele>
        <time>2021-11-02T16:44:27Z</time>
      </trkpt>
      <trkpt lat="44.32824" lon="6.31756">
        <ele>1535</ele>
        <time>2021-11-02T16:44:32Z</time>
      </trkpt>
      <trkpt lat="44.32816" lon="6.31813">
        <ele>1530.8</ele>
        <time>2021-11-02T16:44:38Z</time>
      </trkpt>
      <trkpt lat="44.32797" lon="6.31862">
        <ele>1528.1</ele>
        <time>2021-11-02T16:44:44Z</time>
      </trkpt>
      <trkpt lat="44.32768" lon="6.3189">
        <ele>1526.1</ele>
        <time>2021-11-02T16:44:50Z</time>
      </trkpt>
      <trkpt lat="44.32737" lon="6.31918">
        <ele>1521.9</ele>
        <time>2021-11-02T16:44:56Z</time>
      </trkpt>
      <trkpt lat="44.32714" lon="6.31951">
        <ele>1518.8</ele>
        <time>2021-11-02T16:45:02Z</time>
      </trkpt>
      <trkpt lat="44.32736" lon="6.31985">
        <ele>1517.6</ele>
        <time>2021-11-02T16:45:08Z</time>
      </trkpt>
      <trkpt lat="44.32772" lon="6.31992">
        <ele>1515.6</ele>
        <time>2021-11-02T16:45:14Z</time>
      </trkpt>
      <trkpt lat="44.32805" lon="6.32013">
        <ele>1514.3</ele>
        <time>2021-11-02T16:45:20Z</time>
      </trkpt>
      <trkpt lat="44.32792" lon="6.3204">
        <ele>1512.5</ele>
        <time>2021-11-02T16:45:25Z</time>
      </trkpt>
      <trkpt lat="44.32769" lon="6.32074">
        <ele>1513</ele>
        <time>2021-11-02T16:45:31Z</time>
      </trkpt>
      <trkpt lat="44.32751" lon="6.32094">
        <ele>1512</ele>
        <time>2021-11-02T16:45:36Z</time>
      </trkpt>
      <trkpt lat="44.32721" lon="6.32131">
        <ele>1510.5</ele>
        <time>2021-11-02T16:45:42Z</time>
      </trkpt>
      <trkpt lat="44.32691" lon="6.32166">
        <ele>1507.4</ele>
        <time>2021-11-02T16:45:48Z</time>
      </trkpt>
      <trkpt lat="44.32672" lon="6.32197">
        <ele>1504.1</ele>
        <time>2021-11-02T16:45:53Z</time>
      </trkpt>
      <trkpt lat="44.32648" lon="6.32227">
        <ele>1504.4</ele>
        <time>2021-11-02T16:45:58Z</time>
      </trkpt>
      <trkpt lat="44.32628" lon="6.32276">
        <ele>1504.4</ele>
        <time>2021-11-02T16:46:04Z</time>
      </trkpt>
      <trkpt lat="44.32623" lon="6.32334">
        <ele>1502.8</ele>
        <time>2021-11-02T16:46:10Z</time>
      </trkpt>
      <trkpt lat="44.3261" lon="6.32389">
        <ele>1500.1</ele>
        <time>2021-11-02T16:46:16Z</time>
      </trkpt>
      <trkpt lat="44.32588" lon="6.3244">
        <ele>1497.7</ele>
        <time>2021-11-02T16:46:22Z</time>
      </trkpt>
      <trkpt lat="44.3256" lon="6.32486">
        <ele>1495.5</ele>
        <time>2021-11-02T16:46:28Z</time>
      </trkpt>
      <trkpt lat="44.32543" lon="6.32519">
        <ele>1490.8</ele>
        <time>2021-11-02T16:46:34Z</time>
      </trkpt>
      <trkpt lat="44.32543" lon="6.32545">
        <ele>1489.4</ele>
        <time>2021-11-02T16:46:40Z</time>
      </trkpt>
      <trkpt lat="44.32545" lon="6.32569">
        <ele>1486.1</ele>
        <time>2021-11-02T16:46:46Z</time>
      </trkpt>
      <trkpt lat="44.32544" lon="6.32597">
        <ele>1485.4</ele>
        <time>2021-11-02T16:46:51Z</time>
      </trkpt>
      <trkpt lat="44.32529" lon="6.32635">
        <ele>1480.8</ele>
        <time>2021-11-02T16:46:57Z</time>
      </trkpt>
      <trkpt lat="44.32547" lon="6.3266">
        <ele>1477.5</ele>
        <time>2021-11-02T16:47:02Z</time>
      </trkpt>
      <trkpt lat="44.32567" lon="6.32705">
        <ele>1473.2</ele>
        <time>2021-11-02T16:47:08Z</time>
      </trkpt>
      <trkpt lat="44.32569" lon="6.3274">
        <ele>1470.3</ele>
        <time>2021-11-02T16:47:13Z</time>
      </trkpt>
      <trkpt lat="44.32536" lon="6.3276">
        <ele>1463.1</ele>
        <time>2021-11-02T16:47:19Z</time>
      </trkpt>
      <trkpt lat="44.32512" lon="6.32789">
        <ele>1458.7</ele>
        <time>2021-11-02T16:47:25Z</time>
      </trkpt>
      <trkpt lat="44.3252" lon="6.32802">
        <ele>1456.7</ele>
        <time>2021-11-02T16:47:30Z</time>
      </trkpt>
      <trkpt lat="44.32549" lon="6.32791">
        <ele>1455.7</ele>
        <time>2021-11-02T16:47:36Z</time>
      </trkpt>
      <trkpt lat="44.32576" lon="6.32787">
        <ele>1457.7</ele>
        <time>2021-11-02T16:47:41Z</time>
      </trkpt>
      <trkpt lat="44.32608" lon="6.32778">
        <ele>1457.4</ele>
        <time>2021-11-02T16:47:47Z</time>
      </trkpt>
      <trkpt lat="44.32639" lon="6.32783">
        <ele>1457</ele>
        <time>2021-11-02T16:47:52Z</time>
      </trkpt>
      <trkpt lat="44.32675" lon="6.32795">
        <ele>1458.3</ele>
        <time>2021-11-02T16:47:58Z</time>
      </trkpt>
      <trkpt lat="44.32705" lon="6.3281">
        <ele>1458.7</ele>
        <time>2021-11-02T16:48:04Z</time>
      </trkpt>
      <trkpt lat="44.32733" lon="6.3277">
        <ele>1454.9</ele>
        <time>2021-11-02T16:48:10Z</time>
      </trkpt>
      <trkpt lat="44.32769" lon="6.32741">
        <ele>1453.3</ele>
        <time>2021-11-02T16:48:15Z</time>
      </trkpt>
      <trkpt lat="44.32805" lon="6.32733">
        <ele>1454.2</ele>
        <time>2021-11-02T16:48:21Z</time>
      </trkpt>
      <trkpt lat="44.32837" lon="6.32721">
        <ele>1453.8</ele>
        <time>2021-11-02T16:48:27Z</time>
      </trkpt>
      <trkpt lat="44.32852" lon="6.3272">
        <ele>1449</ele>
        <time>2021-11-02T16:48:33Z</time>
      </trkpt>
      <trkpt lat="44.32851" lon="6.32719">
        <ele>1449.8</ele>
        <time>2021-11-02T16:48:39Z</time>
      </trkpt>
      <trkpt lat="44.32851" lon="6.3272">
        <ele>1449.2</ele>
        <time>2021-11-02T16:48:45Z</time>
      </trkpt>
      <trkpt lat="44.32851" lon="6.3272">
        <ele>1449.2</ele>
        <time>2021-11-02T16:48:50Z</time>
      </trkpt>
      <trkpt lat="44.32851" lon="6.3272">
        <ele>1449.2</ele>
        <time>2021-11-02T16:48:56Z</time>
      </trkpt>
      <trkpt lat="44.32851" lon="6.3272">
        <ele>1449.2</ele>
        <time>2021-11-02T16:49:02Z</time>
      </trkpt>
      <trkpt lat="44.32851" lon="6.3272">
        <ele>1449.2</ele>
        <time>2021-11-02T16:49:08Z</time>
      </trkpt>
      <trkpt lat="44.32851" lon="6.3272">
        <ele>1449.1</ele>
        <time>2021-11-02T16:49:14Z</time>
      </trkpt>
      <trkpt lat="44.32851" lon="6.3272">
        <ele>1449.1</ele>
        <time>2021-11-02T16:49:20Z</time>
      </trkpt>
      <trkpt lat="44.32851" lon="6.3272">
        <ele>1449.2</ele>
        <time>2021-11-02T16:49:26Z</time>
      </trkpt>
      <trkpt lat="44.32851" lon="6.3272">
        <ele>1449.2</ele>
        <time>2021-11-02T16:49:31Z</time>
      </trkpt>
      <trkpt lat="44.32851" lon="6.3272">
        <ele>1449.2</ele>
        <time>2021-11-02T16:49:36Z</time>
      </trkpt>
      <trkpt lat="44.32851" lon="6.3272">
        <ele>1449.2</ele>
        <time>2021-11-02T16:49:42Z</time>
      </trkpt>
      <trkpt lat="44.32851" lon="6.3272">
        <ele>1449.2</ele>
        <time>2021-11-02T16:49:47Z</time>
      </trkpt>
      <trkpt lat="44.32851" lon="6.3272">
        <ele>1449.2</ele>
        <time>2021-11-02T16:49:52Z</time>
      </trkpt>
      <trkpt lat="44.32851" lon="6.3272">
        <ele>1449.3</ele>
        <time>2021-11-02T16:49:58Z</time>
      </trkpt>
      <trkpt lat="44.32851" lon="6.3272">
        <ele>1449.3</ele>
        <time>2021-11-02T16:50:04Z</time>
      </trkpt>
      <trkpt lat="44.32851" lon="6.3272">
        <ele>1449.3</ele>
        <time>2021-11-02T16:50:09Z</time>
      </trkpt>
      <trkpt lat="44.32851" lon="6.3272">
        <ele>1449.3</ele>
        <time>2021-11-02T16:50:15Z</time>
      </trkpt>
      <trkpt lat="44.32851" lon="6.3272">
        <ele>1449.3</ele>
        <time>2021-11-02T16:50:20Z</time>
      </trkpt>
      <trkpt lat="44.32851" lon="6.3272">
        <ele>1449.3</ele>
        <time>2021-11-02T16:50:26Z</time>
      </trkpt>
      <trkpt lat="44.32851" lon="6.3272">
        <ele>1449.4</ele>
        <time>2021-11-02T16:50:31Z</time>
      </trkpt>
      <trkpt lat="44.32851" lon="6.3272">
        <ele>1449.4</ele>
        <time>2021-11-02T16:50:36Z</time>
      </trkpt>
      <trkpt lat="44.32851" lon="6.3272">
        <ele>1449.6</ele>
        <time>2021-11-02T16:50:41Z</time>
      </trkpt>
      <trkpt lat="44.32851" lon="6.3272">
        <ele>1449.6</ele>
        <time>2021-11-02T16:50:47Z</time>
      </trkpt>
      <trkpt lat="44.32851" lon="6.3272">
        <ele>1449.7</ele>
        <time>2021-11-02T16:50:53Z</time>
      </trkpt>
      <trkpt lat="44.32851" lon="6.3272">
        <ele>1449.7</ele>
        <time>2021-11-02T16:50:58Z</time>
      </trkpt>
      <trkpt lat="44.32851" lon="6.3272">
        <ele>1449.7</ele>
        <time>2021-11-02T16:51:03Z</time>
      </trkpt>
      <trkpt lat="44.32851" lon="6.3272">
        <ele>1449.7</ele>
        <time>2021-11-02T16:51:09Z</time>
      </trkpt>
      <trkpt lat="44.32851" lon="6.3272">
        <ele>1449.8</ele>
        <time>2021-11-02T16:51:15Z</time>
      </trkpt>
      <trkpt lat="44.32851" lon="6.3272">
        <ele>1449.8</ele>
        <time>2021-11-02T16:51:21Z</time>
      </trkpt>
      <trkpt lat="44.32851" lon="6.3272">
        <ele>1449.8</ele>
        <time>2021-11-02T16:51:26Z</time>
      </trkpt>
      <trkpt lat="44.32851" lon="6.3272">
        <ele>1449.8</ele>
        <time>2021-11-02T16:51:32Z</time>
      </trkpt>
      <trkpt lat="44.32851" lon="6.3272">
        <ele>1449.8</ele>
        <time>2021-11-02T16:51:37Z</time>
      </trkpt>
      <trkpt lat="44.32851" lon="6.3272">
        <ele>1449.8</ele>
        <time>2021-11-02T16:51:42Z</time>
      </trkpt>
      <trkpt lat="44.32851" lon="6.3272">
        <ele>1449.8</ele>
        <time>2021-11-02T16:51:48Z</time>
      </trkpt>
      <trkpt lat="44.32851" lon="6.3272">
        <ele>1449.9</ele>
        <time>2021-11-02T16:51:53Z</time>
      </trkpt>
      <trkpt lat="44.32851" lon="6.32722">
        <ele>1449.3</ele>
        <time>2021-11-02T16:51:59Z</time>
      </trkpt>
      <trkpt lat="44.32858" lon="6.32735">
        <ele>1449.9</ele>
        <time>2021-11-02T16:52:05Z</time>
      </trkpt>
      <trkpt lat="44.32863" lon="6.32743">
        <ele>1448.3</ele>
        <time>2021-11-02T16:52:11Z</time>
      </trkpt>
      <trkpt lat="44.32863" lon="6.32742">
        <ele>1448.1</ele>
        <time>2021-11-02T16:52:16Z</time>
      </trkpt>
      <trkpt lat="44.32863" lon="6.32741">
        <ele>1448.2</ele>
        <time>2021-11-02T16:52:21Z</time>
      </trkpt>
      <trkpt lat="44.32863" lon="6.32741">
        <ele>1448.3</ele>
        <time>2021-11-02T16:52:27Z</time>
      </trkpt>
      <trkpt lat="44.32863" lon="6.32741">
        <ele>1448.3</ele>
        <time>2021-11-02T16:52:32Z</time>
      </trkpt>
      <trkpt lat="44.32863" lon="6.32741">
        <ele>1448.3</ele>
        <time>2021-11-02T16:52:38Z</time>
      </trkpt>
      <trkpt lat="44.32863" lon="6.32741">
        <ele>1447.8</ele>
        <time>2021-11-02T16:52:43Z</time>
      </trkpt>
      <trkpt lat="44.32863" lon="6.32741">
        <ele>1446.5</ele>
        <time>2021-11-02T16:52:49Z</time>
      </trkpt>
      <trkpt lat="44.32863" lon="6.32741">
        <ele>1446.1</ele>
        <time>2021-11-02T16:52:55Z</time>
      </trkpt>
      <trkpt lat="44.32863" lon="6.32741">
        <ele>1446.5</ele>
        <time>2021-11-02T16:53:01Z</time>
      </trkpt>
      <trkpt lat="44.32863" lon="6.32741">
        <ele>1446.5</ele>
        <time>2021-11-02T16:53:07Z</time>
      </trkpt>
      <trkpt lat="44.32863" lon="6.32741">
        <ele>1446.5</ele>
        <time>2021-11-02T16:53:13Z</time>
      </trkpt>
      <trkpt lat="44.32864" lon="6.32743">
        <ele>1447</ele>
        <time>2021-11-02T16:53:19Z</time>
      </trkpt>
      <trkpt lat="44.32866" lon="6.32746">
        <ele>1447.8</ele>
        <time>2021-11-02T16:53:24Z</time>
      </trkpt>
      <trkpt lat="44.32866" lon="6.32746">
        <ele>1448</ele>
        <time>2021-11-02T16:53:30Z</time>
      </trkpt>
      <trkpt lat="44.32866" lon="6.32746">
        <ele>1447.8</ele>
        <time>2021-11-02T16:53:35Z</time>
      </trkpt>
      <trkpt lat="44.32867" lon="6.32746">
        <ele>1447.8</ele>
        <time>2021-11-02T16:53:41Z</time>
      </trkpt>
      <trkpt lat="44.32876" lon="6.32758">
        <ele>1445.7</ele>
        <time>2021-11-02T16:53:46Z</time>
      </trkpt>
      <trkpt lat="44.32897" lon="6.32791">
        <ele>1443.7</ele>
        <time>2021-11-02T16:53:52Z</time>
      </trkpt>
      <trkpt lat="44.32935" lon="6.32796">
        <ele>1444.2</ele>
        <time>2021-11-02T16:53:58Z</time>
      </trkpt>
      <trkpt lat="44.32961" lon="6.32829">
        <ele>1442.2</ele>
        <time>2021-11-02T16:54:03Z</time>
      </trkpt>
      <trkpt lat="44.32993" lon="6.32868">
        <ele>1443.3</ele>
        <time>2021-11-02T16:54:09Z</time>
      </trkpt>
      <trkpt lat="44.3301" lon="6.32911">
        <ele>1441.4</ele>
        <time>2021-11-02T16:54:14Z</time>
      </trkpt>
      <trkpt lat="44.32996" lon="6.32979">
        <ele>1439.9</ele>
        <time>2021-11-02T16:54:20Z</time>
      </trkpt>
      <trkpt lat="44.3301" lon="6.33043">
        <ele>1436.6</ele>
        <time>2021-11-02T16:54:26Z</time>
      </trkpt>
      <trkpt lat="44.33028" lon="6.33095">
        <ele>1435.6</ele>
        <time>2021-11-02T16:54:31Z</time>
      </trkpt>
      <trkpt lat="44.33044" lon="6.33155">
        <ele>1432.2</ele>
        <time>2021-11-02T16:54:36Z</time>
      </trkpt>
      <trkpt lat="44.33052" lon="6.33233">
        <ele>1426.2</ele>
        <time>2021-11-02T16:54:42Z</time>
      </trkpt>
      <trkpt lat="44.33069" lon="6.33278">
        <ele>1419.9</ele>
        <time>2021-11-02T16:54:48Z</time>
      </trkpt>
      <trkpt lat="44.3309" lon="6.33225">
        <ele>1417.6</ele>
        <time>2021-11-02T16:54:54Z</time>
      </trkpt>
      <trkpt lat="44.33135" lon="6.3318">
        <ele>1412.9</ele>
        <time>2021-11-02T16:55:00Z</time>
      </trkpt>
      <trkpt lat="44.33179" lon="6.33142">
        <ele>1406.6</ele>
        <time>2021-11-02T16:55:06Z</time>
      </trkpt>
      <trkpt lat="44.33216" lon="6.33185">
        <ele>1402.3</ele>
        <time>2021-11-02T16:55:11Z</time>
      </trkpt>
      <trkpt lat="44.33244" lon="6.33251">
        <ele>1396.2</ele>
        <time>2021-11-02T16:55:16Z</time>
      </trkpt>
      <trkpt lat="44.33221" lon="6.33321">
        <ele>1390.1</ele>
        <time>2021-11-02T16:55:22Z</time>
      </trkpt>
      <trkpt lat="44.33222" lon="6.33388">
        <ele>1385.2</ele>
        <time>2021-11-02T16:55:27Z</time>
      </trkpt>
      <trkpt lat="44.33237" lon="6.33457">
        <ele>1381.6</ele>
        <time>2021-11-02T16:55:33Z</time>
      </trkpt>
      <trkpt lat="44.33197" lon="6.33486">
        <ele>1380.2</ele>
        <time>2021-11-02T16:55:38Z</time>
      </trkpt>
      <trkpt lat="44.33211" lon="6.3352">
        <ele>1376.7</ele>
        <time>2021-11-02T16:55:44Z</time>
      </trkpt>
      <trkpt lat="44.33269" lon="6.33528">
        <ele>1363.5</ele>
        <time>2021-11-02T16:55:50Z</time>
      </trkpt>
      <trkpt lat="44.33312" lon="6.3359">
        <ele>1354.5</ele>
        <time>2021-11-02T16:55:56Z</time>
      </trkpt>
      <trkpt lat="44.33343" lon="6.3368">
        <ele>1350.7</ele>
        <time>2021-11-02T16:56:02Z</time>
      </trkpt>
      <trkpt lat="44.33361" lon="6.33752">
        <ele>1343.5</ele>
        <time>2021-11-02T16:56:08Z</time>
      </trkpt>
      <trkpt lat="44.33372" lon="6.33812">
        <ele>1335.2</ele>
        <time>2021-11-02T16:56:14Z</time>
      </trkpt>
      <trkpt lat="44.33356" lon="6.33877">
        <ele>1328.2</ele>
        <time>2021-11-02T16:56:19Z</time>
      </trkpt>
      <trkpt lat="44.33368" lon="6.33957">
        <ele>1323.8</ele>
        <time>2021-11-02T16:56:24Z</time>
      </trkpt>
      <trkpt lat="44.33367" lon="6.34038">
        <ele>1315.4</ele>
        <time>2021-11-02T16:56:29Z</time>
      </trkpt>
      <trkpt lat="44.33355" lon="6.34125">
        <ele>1307.5</ele>
        <time>2021-11-02T16:56:35Z</time>
      </trkpt>
      <trkpt lat="44.33365" lon="6.34154">
        <ele>1305.4</ele>
        <time>2021-11-02T16:56:40Z</time>
      </trkpt>
      <trkpt lat="44.33398" lon="6.34109">
        <ele>1299.9</ele>
        <time>2021-11-02T16:56:46Z</time>
      </trkpt>
      <trkpt lat="44.33443" lon="6.34057">
        <ele>1290.7</ele>
        <time>2021-11-02T16:56:52Z</time>
      </trkpt>
      <trkpt lat="44.33455" lon="6.34104">
        <ele>1284</ele>
        <time>2021-11-02T16:56:58Z</time>
      </trkpt>
      <trkpt lat="44.33437" lon="6.34166">
        <ele>1279.7</ele>
        <time>2021-11-02T16:57:03Z</time>
      </trkpt>
      <trkpt lat="44.33425" lon="6.34223">
        <ele>1274.8</ele>
        <time>2021-11-02T16:57:08Z</time>
      </trkpt>
      <trkpt lat="44.33415" lon="6.34292">
        <ele>1266.5</ele>
        <time>2021-11-02T16:57:14Z</time>
      </trkpt>
      <trkpt lat="44.33383" lon="6.34341">
        <ele>1258.3</ele>
        <time>2021-11-02T16:57:19Z</time>
      </trkpt>
      <trkpt lat="44.33342" lon="6.34403">
        <ele>1256.9</ele>
        <time>2021-11-02T16:57:25Z</time>
      </trkpt>
      <trkpt lat="44.33315" lon="6.34482">
        <ele>1254.4</ele>
        <time>2021-11-02T16:57:31Z</time>
      </trkpt>
      <trkpt lat="44.33292" lon="6.34538">
        <ele>1250.7</ele>
        <time>2021-11-02T16:57:37Z</time>
      </trkpt>
      <trkpt lat="44.33271" lon="6.3458">
        <ele>1246</ele>
        <time>2021-11-02T16:57:42Z</time>
      </trkpt>
      <trkpt lat="44.33256" lon="6.3463">
        <ele>1245.5</ele>
        <time>2021-11-02T16:57:47Z</time>
      </trkpt>
      <trkpt lat="44.33229" lon="6.3468">
        <ele>1241.5</ele>
        <time>2021-11-02T16:57:53Z</time>
      </trkpt>
      <trkpt lat="44.33263" lon="6.34669">
        <ele>1236.9</ele>
        <time>2021-11-02T16:57:59Z</time>
      </trkpt>
      <trkpt lat="44.333" lon="6.3462">
        <ele>1231.1</ele>
        <time>2021-11-02T16:58:05Z</time>
      </trkpt>
      <trkpt lat="44.33334" lon="6.34595">
        <ele>1229.3</ele>
        <time>2021-11-02T16:58:10Z</time>
      </trkpt>
      <trkpt lat="44.33376" lon="6.3456">
        <ele>1225.8</ele>
        <time>2021-11-02T16:58:15Z</time>
      </trkpt>
      <trkpt lat="44.33428" lon="6.34521">
        <ele>1220.5</ele>
        <time>2021-11-02T16:58:21Z</time>
      </trkpt>
      <trkpt lat="44.33471" lon="6.34463">
        <ele>1218.4</ele>
        <time>2021-11-02T16:58:27Z</time>
      </trkpt>
      <trkpt lat="44.33488" lon="6.3446">
        <ele>1212.5</ele>
        <time>2021-11-02T16:58:33Z</time>
      </trkpt>
      <trkpt lat="44.3347" lon="6.34502">
        <ele>1206.4</ele>
        <time>2021-11-02T16:58:39Z</time>
      </trkpt>
      <trkpt lat="44.33452" lon="6.34577">
        <ele>1214.4</ele>
        <time>2021-11-02T16:58:45Z</time>
      </trkpt>
      <trkpt lat="44.33428" lon="6.34661">
        <ele>1196.9</ele>
        <time>2021-11-02T16:58:51Z</time>
      </trkpt>
      <trkpt lat="44.33401" lon="6.34728">
        <ele>1192</ele>
        <time>2021-11-02T16:58:56Z</time>
      </trkpt>
      <trkpt lat="44.33367" lon="6.34782">
        <ele>1187.8</ele>
        <time>2021-11-02T16:59:01Z</time>
      </trkpt>
      <trkpt lat="44.33323" lon="6.34836">
        <ele>1181.8</ele>
        <time>2021-11-02T16:59:07Z</time>
      </trkpt>
      <trkpt lat="44.33287" lon="6.34868">
        <ele>1180.1</ele>
        <time>2021-11-02T16:59:12Z</time>
      </trkpt>
      <trkpt lat="44.33249" lon="6.34896">
        <ele>1180.2</ele>
        <time>2021-11-02T16:59:18Z</time>
      </trkpt>
      <trkpt lat="44.33221" lon="6.3492">
        <ele>1179.2</ele>
        <time>2021-11-02T16:59:23Z</time>
      </trkpt>
      <trkpt lat="44.33196" lon="6.34951">
        <ele>1178.7</ele>
        <time>2021-11-02T16:59:28Z</time>
      </trkpt>
      <trkpt lat="44.3318" lon="6.34987">
        <ele>1178.9</ele>
        <time>2021-11-02T16:59:33Z</time>
      </trkpt>
      <trkpt lat="44.33169" lon="6.35038">
        <ele>1178.7</ele>
        <time>2021-11-02T16:59:39Z</time>
      </trkpt>
      <trkpt lat="44.33161" lon="6.35085">
        <ele>1176</ele>
        <time>2021-11-02T16:59:44Z</time>
      </trkpt>
      <trkpt lat="44.33199" lon="6.35123">
        <ele>1169.5</ele>
        <time>2021-11-02T16:59:50Z</time>
      </trkpt>
      <trkpt lat="44.33257" lon="6.35137">
        <ele>1164.9</ele>
        <time>2021-11-02T16:59:56Z</time>
      </trkpt>
      <trkpt lat="44.33322" lon="6.35142">
        <ele>1160.5</ele>
        <time>2021-11-02T17:00:02Z</time>
      </trkpt>
      <trkpt lat="44.33373" lon="6.35157">
        <ele>1158.1</ele>
        <time>2021-11-02T17:00:07Z</time>
      </trkpt>
      <trkpt lat="44.33427" lon="6.35173">
        <ele>1159</ele>
        <time>2021-11-02T17:00:13Z</time>
      </trkpt>
      <trkpt lat="44.3347" lon="6.3518">
        <ele>1157.1</ele>
        <time>2021-11-02T17:00:18Z</time>
      </trkpt>
      <trkpt lat="44.33521" lon="6.35183">
        <ele>1154.4</ele>
        <time>2021-11-02T17:00:24Z</time>
      </trkpt>
      <trkpt lat="44.33549" lon="6.35236">
        <ele>1152.5</ele>
        <time>2021-11-02T17:00:29Z</time>
      </trkpt>
      <trkpt lat="44.33578" lon="6.35297">
        <ele>1151.7</ele>
        <time>2021-11-02T17:00:35Z</time>
      </trkpt>
      <trkpt lat="44.33607" lon="6.35347">
        <ele>1152.1</ele>
        <time>2021-11-02T17:00:41Z</time>
      </trkpt>
      <trkpt lat="44.33627" lon="6.35378">
        <ele>1153.3</ele>
        <time>2021-11-02T17:00:46Z</time>
      </trkpt>
      <trkpt lat="44.33654" lon="6.35419">
        <ele>1152.1</ele>
        <time>2021-11-02T17:00:52Z</time>
      </trkpt>
      <trkpt lat="44.33681" lon="6.3545">
        <ele>1151.5</ele>
        <time>2021-11-02T17:00:57Z</time>
      </trkpt>
      <trkpt lat="44.33722" lon="6.35473">
        <ele>1151.5</ele>
        <time>2021-11-02T17:01:03Z</time>
      </trkpt>
      <trkpt lat="44.33761" lon="6.35496">
        <ele>1151.2</ele>
        <time>2021-11-02T17:01:09Z</time>
      </trkpt>
      <trkpt lat="44.33792" lon="6.35531">
        <ele>1148.7</ele>
        <time>2021-11-02T17:01:15Z</time>
      </trkpt>
      <trkpt lat="44.33817" lon="6.35561">
        <ele>1146</ele>
        <time>2021-11-02T17:01:20Z</time>
      </trkpt>
      <trkpt lat="44.33847" lon="6.35592">
        <ele>1148.6</ele>
        <time>2021-11-02T17:01:26Z</time>
      </trkpt>
      <trkpt lat="44.33875" lon="6.35625">
        <ele>1148.6</ele>
        <time>2021-11-02T17:01:32Z</time>
      </trkpt>
      <trkpt lat="44.33904" lon="6.35656">
        <ele>1148.3</ele>
        <time>2021-11-02T17:01:38Z</time>
      </trkpt>
      <trkpt lat="44.33937" lon="6.3568">
        <ele>1148.4</ele>
        <time>2021-11-02T17:01:44Z</time>
      </trkpt>
      <trkpt lat="44.33965" lon="6.35698">
        <ele>1148.2</ele>
        <time>2021-11-02T17:01:49Z</time>
      </trkpt>
      <trkpt lat="44.33999" lon="6.35723">
        <ele>1149.3</ele>
        <time>2021-11-02T17:01:55Z</time>
      </trkpt>
      <trkpt lat="44.34032" lon="6.35748">
        <ele>1148.7</ele>
        <time>2021-11-02T17:02:01Z</time>
      </trkpt>
      <trkpt lat="44.3406" lon="6.35765">
        <ele>1149</ele>
        <time>2021-11-02T17:02:06Z</time>
      </trkpt>
      <trkpt lat="44.34087" lon="6.35781">
        <ele>1148.5</ele>
        <time>2021-11-02T17:02:11Z</time>
      </trkpt>
      <trkpt lat="44.3412" lon="6.35798">
        <ele>1146.3</ele>
        <time>2021-11-02T17:02:17Z</time>
      </trkpt>
      <trkpt lat="44.34154" lon="6.35816">
        <ele>1147.5</ele>
        <time>2021-11-02T17:02:23Z</time>
      </trkpt>
      <trkpt lat="44.34186" lon="6.35834">
        <ele>1147.3</ele>
        <time>2021-11-02T17:02:29Z</time>
      </trkpt>
      <trkpt lat="44.3422" lon="6.35849">
        <ele>1148.8</ele>
        <time>2021-11-02T17:02:35Z</time>
      </trkpt>
      <trkpt lat="44.34248" lon="6.35845">
        <ele>1149.6</ele>
        <time>2021-11-02T17:02:40Z</time>
      </trkpt>
      <trkpt lat="44.34276" lon="6.35839">
        <ele>1150.9</ele>
        <time>2021-11-02T17:02:45Z</time>
      </trkpt>
      <trkpt lat="44.34306" lon="6.35837">
        <ele>1150</ele>
        <time>2021-11-02T17:02:50Z</time>
      </trkpt>
      <trkpt lat="44.34341" lon="6.35847">
        <ele>1152.4</ele>
        <time>2021-11-02T17:02:56Z</time>
      </trkpt>
      <trkpt lat="44.34369" lon="6.3586">
        <ele>1152.2</ele>
        <time>2021-11-02T17:03:01Z</time>
      </trkpt>
      <trkpt lat="44.34402" lon="6.35879">
        <ele>1152.3</ele>
        <time>2021-11-02T17:03:07Z</time>
      </trkpt>
      <trkpt lat="44.34433" lon="6.35896">
        <ele>1154.1</ele>
        <time>2021-11-02T17:03:13Z</time>
      </trkpt>
      <trkpt lat="44.34472" lon="6.35897">
        <ele>1150.7</ele>
        <time>2021-11-02T17:03:19Z</time>
      </trkpt>
      <trkpt lat="44.34507" lon="6.35893">
        <ele>1152.1</ele>
        <time>2021-11-02T17:03:24Z</time>
      </trkpt>
      <trkpt lat="44.34548" lon="6.35887">
        <ele>1154.3</ele>
        <time>2021-11-02T17:03:30Z</time>
      </trkpt>
      <trkpt lat="44.34586" lon="6.35886">
        <ele>1153.8</ele>
        <time>2021-11-02T17:03:36Z</time>
      </trkpt>
      <trkpt lat="44.34614" lon="6.35891">
        <ele>1153.8</ele>
        <time>2021-11-02T17:03:41Z</time>
      </trkpt>
      <trkpt lat="44.34645" lon="6.35904">
        <ele>1152.9</ele>
        <time>2021-11-02T17:03:47Z</time>
      </trkpt>
      <trkpt lat="44.34672" lon="6.35917">
        <ele>1152.2</ele>
        <time>2021-11-02T17:03:52Z</time>
      </trkpt>
      <trkpt lat="44.34704" lon="6.35931">
        <ele>1154</ele>
        <time>2021-11-02T17:03:58Z</time>
      </trkpt>
      <trkpt lat="44.34731" lon="6.35932">
        <ele>1152.3</ele>
        <time>2021-11-02T17:04:03Z</time>
      </trkpt>
      <trkpt lat="44.34758" lon="6.35927">
        <ele>1151.8</ele>
        <time>2021-11-02T17:04:08Z</time>
      </trkpt>
      <trkpt lat="44.34791" lon="6.35915">
        <ele>1155.3</ele>
        <time>2021-11-02T17:04:14Z</time>
      </trkpt>
      <trkpt lat="44.34824" lon="6.35915">
        <ele>1156.5</ele>
        <time>2021-11-02T17:04:20Z</time>
      </trkpt>
      <trkpt lat="44.34831" lon="6.3594">
        <ele>1157.9</ele>
        <time>2021-11-02T17:04:26Z</time>
      </trkpt>
      <trkpt lat="44.34828" lon="6.35976">
        <ele>1159</ele>
        <time>2021-11-02T17:04:31Z</time>
      </trkpt>
      <trkpt lat="44.34826" lon="6.36012">
        <ele>1159.1</ele>
        <time>2021-11-02T17:04:36Z</time>
      </trkpt>
      <trkpt lat="44.34803" lon="6.36055">
        <ele>1158.7</ele>
        <time>2021-11-02T17:04:42Z</time>
      </trkpt>
      <trkpt lat="44.34774" lon="6.36086">
        <ele>1158.1</ele>
        <time>2021-11-02T17:04:47Z</time>
      </trkpt>
      <trkpt lat="44.34746" lon="6.36119">
        <ele>1157.4</ele>
        <time>2021-11-02T17:04:52Z</time>
      </trkpt>
      <trkpt lat="44.34718" lon="6.36154">
        <ele>1157.1</ele>
        <time>2021-11-02T17:04:58Z</time>
      </trkpt>
      <trkpt lat="44.34697" lon="6.36186">
        <ele>1157.3</ele>
        <time>2021-11-02T17:05:03Z</time>
      </trkpt>
      <trkpt lat="44.34671" lon="6.36217">
        <ele>1157.1</ele>
        <time>2021-11-02T17:05:09Z</time>
      </trkpt>
      <trkpt lat="44.34648" lon="6.36247">
        <ele>1158.3</ele>
        <time>2021-11-02T17:05:15Z</time>
      </trkpt>
      <trkpt lat="44.34622" lon="6.36282">
        <ele>1158.9</ele>
        <time>2021-11-02T17:05:21Z</time>
      </trkpt>
      <trkpt lat="44.34599" lon="6.36318">
        <ele>1157.3</ele>
        <time>2021-11-02T17:05:27Z</time>
      </trkpt>
      <trkpt lat="44.34573" lon="6.36353">
        <ele>1158.9</ele>
        <time>2021-11-02T17:05:33Z</time>
      </trkpt>
      <trkpt lat="44.3455" lon="6.36382">
        <ele>1161.1</ele>
        <time>2021-11-02T17:05:38Z</time>
      </trkpt>
      <trkpt lat="44.3453" lon="6.36411">
        <ele>1161</ele>
        <time>2021-11-02T17:05:43Z</time>
      </trkpt>
      <trkpt lat="44.34508" lon="6.3645">
        <ele>1162.8</ele>
        <time>2021-11-02T17:05:49Z</time>
      </trkpt>
      <trkpt lat="44.34491" lon="6.36486">
        <ele>1163.9</ele>
        <time>2021-11-02T17:05:54Z</time>
      </trkpt>
      <trkpt lat="44.3447" lon="6.36528">
        <ele>1164.4</ele>
        <time>2021-11-02T17:06:00Z</time>
      </trkpt>
      <trkpt lat="44.34451" lon="6.36567">
        <ele>1164.4</ele>
        <time>2021-11-02T17:06:06Z</time>
      </trkpt>
      <trkpt lat="44.34431" lon="6.36611">
        <ele>1167</ele>
        <time>2021-11-02T17:06:12Z</time>
      </trkpt>
      <trkpt lat="44.34415" lon="6.36645">
        <ele>1168.9</ele>
        <time>2021-11-02T17:06:17Z</time>
      </trkpt>
      <trkpt lat="44.34395" lon="6.36686">
        <ele>1169</ele>
        <time>2021-11-02T17:06:23Z</time>
      </trkpt>
      <trkpt lat="44.3438" lon="6.36718">
        <ele>1169.3</ele>
        <time>2021-11-02T17:06:28Z</time>
      </trkpt>
      <trkpt lat="44.3436" lon="6.36758">
        <ele>1170.4</ele>
        <time>2021-11-02T17:06:34Z</time>
      </trkpt>
      <trkpt lat="44.34344" lon="6.36791">
        <ele>1171.1</ele>
        <time>2021-11-02T17:06:39Z</time>
      </trkpt>
      <trkpt lat="44.34329" lon="6.36824">
        <ele>1171.4</ele>
        <time>2021-11-02T17:06:44Z</time>
      </trkpt>
      <trkpt lat="44.3431" lon="6.36864">
        <ele>1171.7</ele>
        <time>2021-11-02T17:06:50Z</time>
      </trkpt>
      <trkpt lat="44.34292" lon="6.36903">
        <ele>1173.5</ele>
        <time>2021-11-02T17:06:56Z</time>
      </trkpt>
      <trkpt lat="44.34277" lon="6.36935">
        <ele>1174.7</ele>
        <time>2021-11-02T17:07:01Z</time>
      </trkpt>
      <trkpt lat="44.34258" lon="6.36974">
        <ele>1176.3</ele>
        <time>2021-11-02T17:07:07Z</time>
      </trkpt>
      <trkpt lat="44.3424" lon="6.37011">
        <ele>1178.7</ele>
        <time>2021-11-02T17:07:13Z</time>
      </trkpt>
      <trkpt lat="44.34218" lon="6.37051">
        <ele>1179.4</ele>
        <time>2021-11-02T17:07:19Z</time>
      </trkpt>
      <trkpt lat="44.34203" lon="6.37086">
        <ele>1181.3</ele>
        <time>2021-11-02T17:07:24Z</time>
      </trkpt>
      <trkpt lat="44.34184" lon="6.3713">
        <ele>1180.7</ele>
        <time>2021-11-02T17:07:30Z</time>
      </trkpt>
      <trkpt lat="44.34164" lon="6.37171">
        <ele>1181.2</ele>
        <time>2021-11-02T17:07:36Z</time>
      </trkpt>
      <trkpt lat="44.34144" lon="6.3721">
        <ele>1181.7</ele>
        <time>2021-11-02T17:07:42Z</time>
      </trkpt>
      <trkpt lat="44.3413" lon="6.37256">
        <ele>1185.3</ele>
        <time>2021-11-02T17:07:48Z</time>
      </trkpt>
      <trkpt lat="44.34126" lon="6.37298">
        <ele>1186.9</ele>
        <time>2021-11-02T17:07:53Z</time>
      </trkpt>
      <trkpt lat="44.34124" lon="6.37346">
        <ele>1186.7</ele>
        <time>2021-11-02T17:07:59Z</time>
      </trkpt>
      <trkpt lat="44.34118" lon="6.37393">
        <ele>1189.2</ele>
        <time>2021-11-02T17:08:05Z</time>
      </trkpt>
      <trkpt lat="44.34114" lon="6.3744">
        <ele>1190.3</ele>
        <time>2021-11-02T17:08:11Z</time>
      </trkpt>
      <trkpt lat="44.34113" lon="6.3748">
        <ele>1192.6</ele>
        <time>2021-11-02T17:08:16Z</time>
      </trkpt>
      <trkpt lat="44.3411" lon="6.37526">
        <ele>1191.9</ele>
        <time>2021-11-02T17:08:22Z</time>
      </trkpt>
      <trkpt lat="44.34105" lon="6.37572">
        <ele>1194.7</ele>
        <time>2021-11-02T17:08:28Z</time>
      </trkpt>
      <trkpt lat="44.34092" lon="6.37619">
        <ele>1197.3</ele>
        <time>2021-11-02T17:08:34Z</time>
      </trkpt>
      <trkpt lat="44.34082" lon="6.37658">
        <ele>1198.4</ele>
        <time>2021-11-02T17:08:39Z</time>
      </trkpt>
      <trkpt lat="44.34069" lon="6.37701">
        <ele>1203.3</ele>
        <time>2021-11-02T17:08:45Z</time>
      </trkpt>
      <trkpt lat="44.34057" lon="6.37745">
        <ele>1206.6</ele>
        <time>2021-11-02T17:08:51Z</time>
      </trkpt>
      <trkpt lat="44.34047" lon="6.3779">
        <ele>1209.1</ele>
        <time>2021-11-02T17:08:57Z</time>
      </trkpt>
      <trkpt lat="44.34034" lon="6.37833">
        <ele>1208.8</ele>
        <time>2021-11-02T17:09:03Z</time>
      </trkpt>
      <trkpt lat="44.34023" lon="6.37869">
        <ele>1208.8</ele>
        <time>2021-11-02T17:09:08Z</time>
      </trkpt>
      <trkpt lat="44.34013" lon="6.37915">
        <ele>1214</ele>
        <time>2021-11-02T17:09:14Z</time>
      </trkpt>
      <trkpt lat="44.34003" lon="6.37949">
        <ele>1216.6</ele>
        <time>2021-11-02T17:09:19Z</time>
      </trkpt>
      <trkpt lat="44.33996" lon="6.37983">
        <ele>1217.2</ele>
        <time>2021-11-02T17:09:24Z</time>
      </trkpt>
      <trkpt lat="44.34" lon="6.38015">
        <ele>1218.4</ele>
        <time>2021-11-02T17:09:29Z</time>
      </trkpt>
      <trkpt lat="44.34003" lon="6.38037">
        <ele>1219.4</ele>
        <time>2021-11-02T17:09:35Z</time>
      </trkpt>
      <trkpt lat="44.34005" lon="6.38041">
        <ele>1215.4</ele>
        <time>2021-11-02T17:09:40Z</time>
      </trkpt>
      <trkpt lat="44.3404" lon="6.38035">
        <ele>1215.2</ele>
        <time>2021-11-02T17:09:46Z</time>
      </trkpt>
      <trkpt lat="44.34081" lon="6.38023">
        <ele>1212.5</ele>
        <time>2021-11-02T17:09:52Z</time>
      </trkpt>
      <trkpt lat="44.34114" lon="6.38011">
        <ele>1210.6</ele>
        <time>2021-11-02T17:09:57Z</time>
      </trkpt>
      <trkpt lat="44.34144" lon="6.37995">
        <ele>1210.9</ele>
        <time>2021-11-02T17:10:02Z</time>
      </trkpt>
      <trkpt lat="44.34174" lon="6.37987">
        <ele>1210.8</ele>
        <time>2021-11-02T17:10:08Z</time>
      </trkpt>
      <trkpt lat="44.34188" lon="6.38004">
        <ele>1210.5</ele>
        <time>2021-11-02T17:10:13Z</time>
      </trkpt>
      <trkpt lat="44.34209" lon="6.38016">
        <ele>1212.1</ele>
        <time>2021-11-02T17:10:19Z</time>
      </trkpt>
      <trkpt lat="44.34223" lon="6.38039">
        <ele>1219.6</ele>
        <time>2021-11-02T17:10:25Z</time>
      </trkpt>
      <trkpt lat="44.34224" lon="6.38062">
        <ele>1218.1</ele>
        <time>2021-11-02T17:10:30Z</time>
      </trkpt>
      <trkpt lat="44.34239" lon="6.38076">
        <ele>1218.4</ele>
        <time>2021-11-02T17:10:36Z</time>
      </trkpt>
      <trkpt lat="44.34239" lon="6.38092">
        <ele>1220.5</ele>
        <time>2021-11-02T17:10:42Z</time>
      </trkpt>
      <trkpt lat="44.3424" lon="6.38101">
        <ele>1221.7</ele>
        <time>2021-11-02T17:10:48Z</time>
      </trkpt>
      <trkpt lat="44.34238" lon="6.38107">
        <ele>1225.9</ele>
      </trkpt>
    </trkseg>
  </trk>
</gpx>